PWSweather.com
Personal Weather Stations
Station Observations
HVALPSUND
Hvalpsund, FarsoeDK 9640

HvalpsundFarsoeDK 9640

Lat: 56.705311, Lon: 9.203638

Elevation: 5

Station Type: Vantage Pro2

http://hvalpsundvejr.dk

High Low Average
Temperature 47.0°F8.3°C 39.8°F4.3°C 43.4°F6.3°C
Dew Point 39.4°F4.1°C 25.5°F-3.6°C 37.1°F2.8°C
Winds 23.6 mph 38.0 kmh 4.6 mph 7.4 kmh 13.0 mph ENE20.9 kmh ENE
Wind Gusts 31.0 mph49.9 kmh 8.0 mph12.9 kmh 18.0 mph29.0 kmh
Humidity 92% 50% 79%
Pressure 30.09 in1019.0 mb 29.85 in1010.8 mb -
Precipitation 0.00 in0.0 mm - -
Hour Temp Dew Point Humidity Winds Wind Gusts Pressure Precip Precip Rate Daily Precip Total
12:00 AM 42.7°F5.9°C 39.1°F3.9°C 87% 9.9 mph NE15.9 kmh NE 13.0 mph20.9 kmh 29.85 in1010.8 mb 0.00 in0.0 mm 0.00 in0.0 mm 0.00 in0.0 mm
12:01 AM 42.7°F5.9°C 39.1°F3.9°C 87% 7.7 mph NE12.4 kmh NE 12.0 mph19.3 kmh 29.85 in1010.8 mb 0.00 in0.0 mm 0.00 in0.0 mm 0.00 in0.0 mm
12:02 AM 42.7°F5.9°C 39.1°F3.9°C 87% 8.1 mph NE13.0 kmh NE 10.0 mph16.1 kmh 29.86 in1011.2 mb 0.00 in0.0 mm 0.00 in0.0 mm 0.00 in0.0 mm
12:03 AM 42.7°F5.9°C 39.1°F3.9°C 87% 4.6 mph NE7.4 kmh NE 10.0 mph16.1 kmh 29.85 in1010.8 mb 0.00 in0.0 mm 0.00 in0.0 mm 0.00 in0.0 mm
12:04 AM 42.7°F5.9°C 39.1°F3.9°C 87% 5.9 mph NE9.5 kmh NE 10.0 mph16.1 kmh 29.86 in1011.2 mb 0.00 in0.0 mm 0.00 in0.0 mm 0.00 in0.0 mm
12:05 AM 42.7°F5.9°C 39.1°F3.9°C 87% 6.7 mph NE10.8 kmh NE 10.0 mph16.1 kmh 29.86 in1011.2 mb 0.00 in0.0 mm 0.00 in0.0 mm 0.00 in0.0 mm
12:06 AM 42.8°F6.0°C 39.2°F4.0°C 87% 5.8 mph NE9.3 kmh NE 9.0 mph14.5 kmh 29.86 in1011.2 mb 0.00 in0.0 mm 0.00 in0.0 mm 0.00 in0.0 mm
12:07 AM 42.7°F5.9°C 39.1°F3.9°C 87% 4.6 mph ENE7.4 kmh ENE 9.0 mph14.5 kmh 29.86 in1011.2 mb 0.00 in0.0 mm 0.00 in0.0 mm 0.00 in0.0 mm
12:08 AM 42.8°F6.0°C 39.2°F4.0°C 87% 7.4 mph NE11.9 kmh NE 11.0 mph17.7 kmh 29.86 in1011.2 mb 0.00 in0.0 mm 0.00 in0.0 mm 0.00 in0.0 mm
12:09 AM 42.7°F5.9°C 39.1°F3.9°C 87% 9.1 mph NE14.6 kmh NE 12.0 mph19.3 kmh 29.86 in1011.2 mb 0.00 in0.0 mm 0.00 in0.0 mm 0.00 in0.0 mm
12:10 AM 42.7°F5.9°C 39.1°F3.9°C 87% 5.2 mph NE8.4 kmh NE 12.0 mph19.3 kmh 29.86 in1011.2 mb 0.00 in0.0 mm 0.00 in0.0 mm 0.00 in0.0 mm
12:11 AM 42.7°F5.9°C 39.1°F3.9°C 87% 6.3 mph NE10.1 kmh NE 10.0 mph16.1 kmh 29.86 in1011.2 mb 0.00 in0.0 mm 0.00 in0.0 mm 0.00 in0.0 mm
12:12 AM 42.7°F5.9°C 39.1°F3.9°C 87% 5.9 mph NE9.5 kmh NE 10.0 mph16.1 kmh 29.86 in1011.2 mb 0.00 in0.0 mm 0.00 in0.0 mm 0.00 in0.0 mm
12:13 AM 42.7°F5.9°C 39.1°F3.9°C 87% 7.6 mph NE12.2 kmh NE 12.0 mph19.3 kmh 29.86 in1011.2 mb 0.00 in0.0 mm 0.00 in0.0 mm 0.00 in0.0 mm
12:14 AM 42.7°F5.9°C 39.1°F3.9°C 87% 9.2 mph NE14.8 kmh NE 12.0 mph19.3 kmh 29.86 in1011.2 mb 0.00 in0.0 mm 0.00 in0.0 mm 0.00 in0.0 mm
12:15 AM 42.6°F5.9°C 39.0°F3.9°C 87% 9.4 mph NE15.1 kmh NE 13.0 mph20.9 kmh 29.86 in1011.2 mb 0.00 in0.0 mm 0.00 in0.0 mm 0.00 in0.0 mm
12:16 AM 42.7°F5.9°C 38.8°F3.8°C 86% 4.8 mph NE7.7 kmh NE 13.0 mph20.9 kmh 29.86 in1011.2 mb 0.00 in0.0 mm 0.00 in0.0 mm 0.00 in0.0 mm
12:17 AM 42.6°F5.9°C 38.7°F3.7°C 86% 7.3 mph NE11.7 kmh NE 11.0 mph17.7 kmh 29.86 in1011.2 mb 0.00 in0.0 mm 0.00 in0.0 mm 0.00 in0.0 mm
12:18 AM 42.6°F5.9°C 39.0°F3.9°C 87% 7.4 mph NE11.9 kmh NE 11.0 mph17.7 kmh 29.86 in1011.2 mb 0.00 in0.0 mm 0.00 in0.0 mm 0.00 in0.0 mm
12:19 AM 42.6°F5.9°C 38.7°F3.7°C 86% 9.5 mph NE15.3 kmh NE 12.0 mph19.3 kmh 29.86 in1011.2 mb 0.00 in0.0 mm 0.00 in0.0 mm 0.00 in0.0 mm
12:20 AM 42.6°F5.9°C 38.7°F3.7°C 86% 10.7 mph NE17.2 kmh NE 15.0 mph24.1 kmh 29.86 in1011.2 mb 0.00 in0.0 mm 0.00 in0.0 mm 0.00 in0.0 mm
12:21 AM 42.6°F5.9°C 38.7°F3.7°C 86% 11.4 mph NE18.3 kmh NE 15.0 mph24.1 kmh 29.86 in1011.2 mb 0.00 in0.0 mm 0.00 in0.0 mm 0.00 in0.0 mm
12:22 AM 42.6°F5.9°C 38.7°F3.7°C 86% 11.3 mph ENE18.2 kmh ENE 15.0 mph24.1 kmh 29.86 in1011.2 mb 0.00 in0.0 mm 0.00 in0.0 mm 0.00 in0.0 mm
12:23 AM 42.6°F5.9°C 38.7°F3.7°C 86% 10.3 mph NE16.6 kmh NE 15.0 mph24.1 kmh 29.86 in1011.2 mb 0.00 in0.0 mm 0.00 in0.0 mm 0.00 in0.0 mm
12:24 AM 42.6°F5.9°C 38.7°F3.7°C 86% 11.0 mph NE17.7 kmh NE 15.0 mph24.1 kmh 29.86 in1011.2 mb 0.00 in0.0 mm 0.00 in0.0 mm 0.00 in0.0 mm
12:25 AM 42.6°F5.9°C 38.7°F3.7°C 86% 7.9 mph NE12.7 kmh NE 14.0 mph22.5 kmh 29.86 in1011.2 mb 0.00 in0.0 mm 0.00 in0.0 mm 0.00 in0.0 mm
12:26 AM 42.5°F5.8°C 38.6°F3.7°C 86% 10.8 mph NE17.4 kmh NE 14.0 mph22.5 kmh 29.86 in1011.2 mb 0.00 in0.0 mm 0.00 in0.0 mm 0.00 in0.0 mm
12:27 AM 42.5°F5.8°C 38.6°F3.7°C 86% 10.5 mph NE16.9 kmh NE 13.0 mph20.9 kmh 29.86 in1011.2 mb 0.00 in0.0 mm 0.00 in0.0 mm 0.00 in0.0 mm
12:28 AM 42.5°F5.8°C 38.6°F3.7°C 86% 8.9 mph NE14.3 kmh NE 12.0 mph19.3 kmh 29.86 in1011.2 mb 0.00 in0.0 mm 0.00 in0.0 mm 0.00 in0.0 mm
12:29 AM 42.5°F5.8°C 38.6°F3.7°C 86% 6.7 mph NE10.8 kmh NE 12.0 mph19.3 kmh 29.86 in1011.2 mb 0.00 in0.0 mm 0.00 in0.0 mm 0.00 in0.0 mm
12:30 AM 42.5°F5.8°C 38.6°F3.7°C 86% 8.9 mph NE14.3 kmh NE 11.0 mph17.7 kmh 29.86 in1011.2 mb 0.00 in0.0 mm 0.00 in0.0 mm 0.00 in0.0 mm
12:31 AM 42.6°F5.9°C 38.7°F3.7°C 86% 10.2 mph NE16.4 kmh NE 13.0 mph20.9 kmh 29.86 in1011.2 mb 0.00 in0.0 mm 0.00 in0.0 mm 0.00 in0.0 mm
12:32 AM 42.5°F5.8°C 38.6°F3.7°C 86% 10.3 mph NE16.6 kmh NE 13.0 mph20.9 kmh 29.86 in1011.2 mb 0.00 in0.0 mm 0.00 in0.0 mm 0.00 in0.0 mm
12:33 AM 42.5°F5.8°C 38.6°F3.7°C 86% 7.7 mph NE12.4 kmh NE 12.0 mph19.3 kmh 29.86 in1011.2 mb 0.00 in0.0 mm 0.00 in0.0 mm 0.00 in0.0 mm
12:34 AM 42.5°F5.8°C 38.6°F3.7°C 86% 9.9 mph NE15.9 kmh NE 12.0 mph19.3 kmh 29.86 in1011.2 mb 0.00 in0.0 mm 0.00 in0.0 mm 0.00 in0.0 mm
12:35 AM 42.5°F5.8°C 38.9°F3.8°C 87% 8.6 mph NE13.8 kmh NE 13.0 mph20.9 kmh 29.86 in1011.2 mb 0.00 in0.0 mm 0.00 in0.0 mm 0.00 in0.0 mm
12:36 AM 42.5°F5.8°C 38.9°F3.8°C 87% 10.0 mph NE16.1 kmh NE 13.0 mph20.9 kmh 29.86 in1011.2 mb 0.00 in0.0 mm 0.00 in0.0 mm 0.00 in0.0 mm
12:37 AM 42.5°F5.8°C 38.9°F3.8°C 87% 9.4 mph NE15.1 kmh NE 12.0 mph19.3 kmh 29.86 in1011.2 mb 0.00 in0.0 mm 0.00 in0.0 mm 0.00 in0.0 mm
12:38 AM 42.5°F5.8°C 38.9°F3.8°C 87% 11.2 mph NE18.0 kmh NE 16.0 mph25.7 kmh 29.86 in1011.2 mb 0.00 in0.0 mm 0.00 in0.0 mm 0.00 in0.0 mm
12:39 AM 42.5°F5.8°C 38.9°F3.8°C 87% 11.1 mph NE17.9 kmh NE 16.0 mph25.7 kmh 29.86 in1011.2 mb 0.00 in0.0 mm 0.00 in0.0 mm 0.00 in0.0 mm
12:40 AM 42.4°F5.8°C 38.8°F3.8°C 87% 10.2 mph NE16.4 kmh NE 14.0 mph22.5 kmh 29.86 in1011.2 mb 0.00 in0.0 mm 0.00 in0.0 mm 0.00 in0.0 mm
12:41 AM 42.5°F5.8°C 38.9°F3.8°C 87% 11.0 mph NE17.7 kmh NE 15.0 mph24.1 kmh 29.86 in1011.2 mb 0.00 in0.0 mm 0.00 in0.0 mm 0.00 in0.0 mm
12:42 AM 42.4°F5.8°C 38.8°F3.8°C 87% 11.0 mph NE17.7 kmh NE 13.0 mph20.9 kmh 29.86 in1011.2 mb 0.00 in0.0 mm 0.00 in0.0 mm 0.00 in0.0 mm
12:43 AM 42.4°F5.8°C 38.8°F3.8°C 87% 10.7 mph NE17.2 kmh NE 12.0 mph19.3 kmh 29.86 in1011.2 mb 0.00 in0.0 mm 0.00 in0.0 mm 0.00 in0.0 mm
12:44 AM 42.4°F5.8°C 38.8°F3.8°C 87% 9.8 mph NE15.8 kmh NE 14.0 mph22.5 kmh 29.86 in1011.2 mb 0.00 in0.0 mm 0.00 in0.0 mm 0.00 in0.0 mm
12:45 AM 42.4°F5.8°C 38.8°F3.8°C 87% 11.3 mph NE18.2 kmh NE 14.0 mph22.5 kmh 29.86 in1011.2 mb 0.00 in0.0 mm 0.00 in0.0 mm 0.00 in0.0 mm
12:46 AM 42.3°F5.7°C 38.7°F3.7°C 87% 8.0 mph NE12.9 kmh NE 14.0 mph22.5 kmh 29.86 in1011.2 mb 0.00 in0.0 mm 0.00 in0.0 mm 0.00 in0.0 mm
12:47 AM 42.3°F5.7°C 38.7°F3.7°C 87% 11.1 mph NE17.9 kmh NE 15.0 mph24.1 kmh 29.86 in1011.2 mb 0.00 in0.0 mm 0.00 in0.0 mm 0.00 in0.0 mm
12:48 AM 42.3°F5.7°C 38.7°F3.7°C 87% 10.2 mph NE16.4 kmh NE 15.0 mph24.1 kmh 29.86 in1011.2 mb 0.00 in0.0 mm 0.00 in0.0 mm 0.00 in0.0 mm
12:49 AM 42.2°F5.7°C 38.6°F3.7°C 87% 11.9 mph NE19.2 kmh NE 16.0 mph25.7 kmh 29.86 in1011.2 mb 0.00 in0.0 mm 0.00 in0.0 mm 0.00 in0.0 mm
12:50 AM 42.1°F5.6°C 38.5°F3.6°C 87% 13.4 mph NE21.6 kmh NE 17.0 mph27.4 kmh 29.86 in1011.2 mb 0.00 in0.0 mm 0.00 in0.0 mm 0.00 in0.0 mm
12:51 AM 42.1°F5.6°C 38.5°F3.6°C 87% 12.9 mph NE20.8 kmh NE 17.0 mph27.4 kmh 29.86 in1011.2 mb 0.00 in0.0 mm 0.00 in0.0 mm 0.00 in0.0 mm
12:52 AM 42.0°F5.6°C 38.4°F3.6°C 87% 12.9 mph NE20.8 kmh NE 17.0 mph27.4 kmh 29.86 in1011.2 mb 0.00 in0.0 mm 0.00 in0.0 mm 0.00 in0.0 mm
12:53 AM 41.9°F5.5°C 38.3°F3.5°C 87% 12.5 mph NE20.1 kmh NE 17.0 mph27.4 kmh 29.86 in1011.2 mb 0.00 in0.0 mm 0.00 in0.0 mm 0.00 in0.0 mm
12:54 AM 41.9°F5.5°C 38.3°F3.5°C 87% 11.0 mph NE17.7 kmh NE 16.0 mph25.7 kmh 29.86 in1011.2 mb 0.00 in0.0 mm 0.00 in0.0 mm 0.00 in0.0 mm
12:55 AM 41.8°F5.4°C 38.2°F3.4°C 87% 12.6 mph NE20.3 kmh NE 15.0 mph24.1 kmh 29.86 in1011.2 mb 0.00 in0.0 mm 0.00 in0.0 mm 0.00 in0.0 mm
12:56 AM 41.7°F5.4°C 38.1°F3.4°C 87% 12.9 mph NE20.8 kmh NE 15.0 mph24.1 kmh 29.86 in1011.2 mb 0.00 in0.0 mm 0.00 in0.0 mm 0.00 in0.0 mm
12:57 AM 41.6°F5.3°C 38.0°F3.3°C 87% 11.4 mph NE18.3 kmh NE 15.0 mph24.1 kmh 29.86 in1011.2 mb 0.00 in0.0 mm 0.00 in0.0 mm 0.00 in0.0 mm
12:58 AM 41.5°F5.3°C 37.9°F3.3°C 87% 9.8 mph NE15.8 kmh NE 15.0 mph24.1 kmh 29.86 in1011.2 mb 0.00 in0.0 mm 0.00 in0.0 mm 0.00 in0.0 mm
12:59 AM 41.5°F5.3°C 37.9°F3.3°C 87% 9.3 mph NE15.0 kmh NE 15.0 mph24.1 kmh 29.86 in1011.2 mb 0.00 in0.0 mm 0.00 in0.0 mm 0.00 in0.0 mm
01:00 AM 41.5°F5.3°C 37.9°F3.3°C 87% 14.6 mph NE23.5 kmh NE 18.0 mph29.0 kmh 29.86 in1011.2 mb 0.00 in0.0 mm 0.00 in0.0 mm 0.00 in0.0 mm
01:01 AM 41.5°F5.3°C 37.9°F3.3°C 87% 10.8 mph NE17.4 kmh NE 18.0 mph29.0 kmh 29.86 in1011.2 mb 0.00 in0.0 mm 0.00 in0.0 mm 0.00 in0.0 mm
01:02 AM 41.3°F5.2°C 37.7°F3.2°C 87% 11.5 mph ENE18.5 kmh ENE 14.0 mph22.5 kmh 29.86 in1011.2 mb 0.00 in0.0 mm 0.00 in0.0 mm 0.00 in0.0 mm
01:03 AM 41.2°F5.1°C 37.6°F3.1°C 87% 9.3 mph ENE15.0 kmh ENE 14.0 mph22.5 kmh 29.86 in1011.2 mb 0.00 in0.0 mm 0.00 in0.0 mm 0.00 in0.0 mm
01:04 AM 41.1°F5.1°C 37.8°F3.2°C 88% 13.1 mph ENE21.1 kmh ENE 16.0 mph25.7 kmh 29.86 in1011.2 mb 0.00 in0.0 mm 0.00 in0.0 mm 0.00 in0.0 mm
01:05 AM 41.1°F5.1°C 37.8°F3.2°C 88% 10.2 mph ENE16.4 kmh ENE 16.0 mph25.7 kmh 29.86 in1011.2 mb 0.00 in0.0 mm 0.00 in0.0 mm 0.00 in0.0 mm
01:06 AM 41.1°F5.1°C 37.8°F3.2°C 88% 10.5 mph NE16.9 kmh NE 16.0 mph25.7 kmh 29.86 in1011.2 mb 0.00 in0.0 mm 0.00 in0.0 mm 0.00 in0.0 mm
01:07 AM 41.0°F5.0°C 37.7°F3.2°C 88% 8.8 mph ENE14.2 kmh ENE 15.0 mph24.1 kmh 29.86 in1011.2 mb 0.00 in0.0 mm 0.00 in0.0 mm 0.00 in0.0 mm
01:08 AM 41.0°F5.0°C 37.7°F3.2°C 88% 8.5 mph NE13.7 kmh NE 12.0 mph19.3 kmh 29.86 in1011.2 mb 0.00 in0.0 mm 0.00 in0.0 mm 0.00 in0.0 mm
01:09 AM 40.9°F4.9°C 37.6°F3.1°C 88% 6.8 mph ENE10.9 kmh ENE 13.0 mph20.9 kmh 29.86 in1011.2 mb 0.00 in0.0 mm 0.00 in0.0 mm 0.00 in0.0 mm
01:10 AM 40.9°F4.9°C 37.6°F3.1°C 88% 8.7 mph NE14.0 kmh NE 13.0 mph20.9 kmh 29.86 in1011.2 mb 0.00 in0.0 mm 0.00 in0.0 mm 0.00 in0.0 mm
01:11 AM 40.9°F4.9°C 37.6°F3.1°C 88% 6.1 mph NE9.8 kmh NE 11.0 mph17.7 kmh 29.86 in1011.2 mb 0.00 in0.0 mm 0.00 in0.0 mm 0.00 in0.0 mm
01:12 AM 40.9°F4.9°C 37.6°F3.1°C 88% 5.1 mph NE8.2 kmh NE 10.0 mph16.1 kmh 29.87 in1011.5 mb 0.00 in0.0 mm 0.00 in0.0 mm 0.00 in0.0 mm
01:13 AM 40.9°F4.9°C 37.6°F3.1°C 88% 9.0 mph ENE14.5 kmh ENE 13.0 mph20.9 kmh 29.86 in1011.2 mb 0.00 in0.0 mm 0.00 in0.0 mm 0.00 in0.0 mm
01:14 AM 40.8°F4.9°C 37.5°F3.1°C 88% 11.1 mph NE17.9 kmh NE 13.0 mph20.9 kmh 29.87 in1011.5 mb 0.00 in0.0 mm 0.00 in0.0 mm 0.00 in0.0 mm
01:15 AM 40.8°F4.9°C 37.5°F3.1°C 88% 10.2 mph ENE16.4 kmh ENE 13.0 mph20.9 kmh 29.87 in1011.5 mb 0.00 in0.0 mm 0.00 in0.0 mm 0.00 in0.0 mm
01:16 AM 40.8°F4.9°C 37.5°F3.1°C 88% 9.4 mph NE15.1 kmh NE 12.0 mph19.3 kmh 29.87 in1011.5 mb 0.00 in0.0 mm 0.00 in0.0 mm 0.00 in0.0 mm
01:17 AM 40.8°F4.9°C 37.5°F3.1°C 88% 9.0 mph NE14.5 kmh NE 14.0 mph22.5 kmh 29.87 in1011.5 mb 0.00 in0.0 mm 0.00 in0.0 mm 0.00 in0.0 mm
01:18 AM 40.7°F4.8°C 37.7°F3.2°C 89% 14.2 mph NE22.9 kmh NE 18.0 mph29.0 kmh 29.87 in1011.5 mb 0.00 in0.0 mm 0.00 in0.0 mm 0.00 in0.0 mm
01:19 AM 40.7°F4.8°C 37.7°F3.2°C 89% 10.2 mph NE16.4 kmh NE 18.0 mph29.0 kmh 29.87 in1011.5 mb 0.00 in0.0 mm 0.00 in0.0 mm 0.00 in0.0 mm
01:20 AM 40.7°F4.8°C 37.7°F3.2°C 89% 11.8 mph NE19.0 kmh NE 14.0 mph22.5 kmh 29.87 in1011.5 mb 0.00 in0.0 mm 0.00 in0.0 mm 0.00 in0.0 mm
01:21 AM 40.6°F4.8°C 37.6°F3.1°C 89% 12.2 mph NE19.6 kmh NE 15.0 mph24.1 kmh 29.87 in1011.5 mb 0.00 in0.0 mm 0.00 in0.0 mm 0.00 in0.0 mm
01:22 AM 40.6°F4.8°C 37.6°F3.1°C 89% 11.6 mph NE18.7 kmh NE 15.0 mph24.1 kmh 29.87 in1011.5 mb 0.00 in0.0 mm 0.00 in0.0 mm 0.00 in0.0 mm
01:23 AM 40.5°F4.7°C 37.5°F3.1°C 89% 10.1 mph NE16.3 kmh NE 13.0 mph20.9 kmh 29.87 in1011.5 mb 0.00 in0.0 mm 0.00 in0.0 mm 0.00 in0.0 mm
01:24 AM 40.5°F4.7°C 37.5°F3.1°C 89% 9.3 mph NE15.0 kmh NE 17.0 mph27.4 kmh 29.87 in1011.5 mb 0.00 in0.0 mm 0.00 in0.0 mm 0.00 in0.0 mm
01:25 AM 40.4°F4.7°C 37.4°F3.0°C 89% 13.7 mph NE22.0 kmh NE 17.0 mph27.4 kmh 29.87 in1011.5 mb 0.00 in0.0 mm 0.00 in0.0 mm 0.00 in0.0 mm
01:26 AM 40.3°F4.6°C 37.3°F2.9°C 89% 12.6 mph NE20.3 kmh NE 17.0 mph27.4 kmh 29.87 in1011.5 mb 0.00 in0.0 mm 0.00 in0.0 mm 0.00 in0.0 mm
01:27 AM 40.2°F4.6°C 37.2°F2.9°C 89% 8.5 mph NE13.7 kmh NE 16.0 mph25.7 kmh 29.87 in1011.5 mb 0.00 in0.0 mm 0.00 in0.0 mm 0.00 in0.0 mm
01:28 AM 40.2°F4.6°C 37.2°F2.9°C 89% 6.7 mph NE10.8 kmh NE 13.0 mph20.9 kmh 29.87 in1011.5 mb 0.00 in0.0 mm 0.00 in0.0 mm 0.00 in0.0 mm
01:29 AM 40.1°F4.5°C 37.1°F2.8°C 89% 9.9 mph NE15.9 kmh NE 15.0 mph24.1 kmh 29.87 in1011.5 mb 0.00 in0.0 mm 0.00 in0.0 mm 0.00 in0.0 mm
01:30 AM 40.0°F4.4°C 37.0°F2.8°C 89% 10.5 mph ENE16.9 kmh ENE 15.0 mph24.1 kmh 29.87 in1011.5 mb 0.00 in0.0 mm 0.00 in0.0 mm 0.00 in0.0 mm
01:31 AM 40.1°F4.5°C 37.1°F2.8°C 89% 11.4 mph ENE18.3 kmh ENE 15.0 mph24.1 kmh 29.87 in1011.5 mb 0.00 in0.0 mm 0.00 in0.0 mm 0.00 in0.0 mm
01:32 AM 39.9°F4.4°C 36.9°F2.7°C 89% 9.8 mph ENE15.8 kmh ENE 15.0 mph24.1 kmh 29.87 in1011.5 mb 0.00 in0.0 mm 0.00 in0.0 mm 0.00 in0.0 mm
01:33 AM 39.9°F4.4°C 36.9°F2.7°C 89% 10.0 mph NE16.1 kmh NE 13.0 mph20.9 kmh 29.87 in1011.5 mb 0.00 in0.0 mm 0.00 in0.0 mm 0.00 in0.0 mm
01:34 AM 39.9°F4.4°C 36.9°F2.7°C 89% 10.9 mph ENE17.5 kmh ENE 15.0 mph24.1 kmh 29.87 in1011.5 mb 0.00 in0.0 mm 0.00 in0.0 mm 0.00 in0.0 mm
01:35 AM 39.8°F4.3°C 36.8°F2.7°C 89% 8.8 mph ENE14.2 kmh ENE 15.0 mph24.1 kmh 29.87 in1011.5 mb 0.00 in0.0 mm 0.00 in0.0 mm 0.00 in0.0 mm
01:36 AM 39.8°F4.3°C 36.8°F2.7°C 89% 5.6 mph NE9.0 kmh NE 12.0 mph19.3 kmh 29.87 in1011.5 mb 0.00 in0.0 mm 0.00 in0.0 mm 0.00 in0.0 mm
01:37 AM 39.9°F4.4°C 36.9°F2.7°C 89% 6.6 mph NE10.6 kmh NE 10.0 mph16.1 kmh 29.87 in1011.5 mb 0.00 in0.0 mm 0.00 in0.0 mm 0.00 in0.0 mm
01:38 AM 39.8°F4.3°C 36.8°F2.7°C 89% 8.6 mph ENE13.8 kmh ENE 11.0 mph17.7 kmh 29.87 in1011.5 mb 0.00 in0.0 mm 0.00 in0.0 mm 0.00 in0.0 mm
01:39 AM 39.8°F4.3°C 37.1°F2.8°C 90% 8.9 mph ENE14.3 kmh ENE 11.0 mph17.7 kmh 29.87 in1011.5 mb 0.00 in0.0 mm 0.00 in0.0 mm 0.00 in0.0 mm
01:40 AM 39.8°F4.3°C 37.1°F2.8°C 90% 8.0 mph NE12.9 kmh NE 12.0 mph19.3 kmh 29.87 in1011.5 mb 0.00 in0.0 mm 0.00 in0.0 mm 0.00 in0.0 mm
01:41 AM 39.8°F4.3°C 37.1°F2.8°C 90% 6.6 mph NE10.6 kmh NE 12.0 mph19.3 kmh 29.87 in1011.5 mb 0.00 in0.0 mm 0.00 in0.0 mm 0.00 in0.0 mm
01:42 AM 39.9°F4.4°C 37.2°F2.9°C 90% 12.1 mph NE19.5 kmh NE 15.0 mph24.1 kmh 29.87 in1011.5 mb 0.00 in0.0 mm 0.00 in0.0 mm 0.00 in0.0 mm
01:43 AM 39.9°F4.4°C 37.2°F2.9°C 90% 11.3 mph NE18.2 kmh NE 15.0 mph24.1 kmh 29.87 in1011.5 mb 0.00 in0.0 mm 0.00 in0.0 mm 0.00 in0.0 mm
01:44 AM 39.9°F4.4°C 37.2°F2.9°C 90% 10.5 mph NE16.9 kmh NE 16.0 mph25.7 kmh 29.87 in1011.5 mb 0.00 in0.0 mm 0.00 in0.0 mm 0.00 in0.0 mm
01:45 AM 39.9°F4.4°C 37.2°F2.9°C 90% 11.0 mph NE17.7 kmh NE 16.0 mph25.7 kmh 29.87 in1011.5 mb 0.00 in0.0 mm 0.00 in0.0 mm 0.00 in0.0 mm
01:46 AM 39.9°F4.4°C 37.2°F2.9°C 90% 8.8 mph NE14.2 kmh NE 13.0 mph20.9 kmh 29.87 in1011.5 mb 0.00 in0.0 mm 0.00 in0.0 mm 0.00 in0.0 mm
01:47 AM 40.0°F4.4°C 37.3°F2.9°C 90% 7.5 mph ENE12.1 kmh ENE 12.0 mph19.3 kmh 29.87 in1011.5 mb 0.00 in0.0 mm 0.00 in0.0 mm 0.00 in0.0 mm
01:48 AM 40.0°F4.4°C 37.3°F2.9°C 90% 9.7 mph ENE15.6 kmh ENE 13.0 mph20.9 kmh 29.87 in1011.5 mb 0.00 in0.0 mm 0.00 in0.0 mm 0.00 in0.0 mm
01:49 AM 40.0°F4.4°C 37.3°F2.9°C 90% 10.7 mph NE17.2 kmh NE 13.0 mph20.9 kmh 29.87 in1011.5 mb 0.00 in0.0 mm 0.00 in0.0 mm 0.00 in0.0 mm
01:50 AM 40.0°F4.4°C 37.3°F2.9°C 90% 10.5 mph ENE16.9 kmh ENE 14.0 mph22.5 kmh 29.87 in1011.5 mb 0.00 in0.0 mm 0.00 in0.0 mm 0.00 in0.0 mm
01:51 AM 40.0°F4.4°C 37.3°F2.9°C 90% 8.3 mph NE13.4 kmh NE 14.0 mph22.5 kmh 29.87 in1011.5 mb 0.00 in0.0 mm 0.00 in0.0 mm 0.00 in0.0 mm
01:52 AM 40.0°F4.4°C 37.3°F2.9°C 90% 9.3 mph NE15.0 kmh NE 12.0 mph19.3 kmh 29.87 in1011.5 mb 0.00 in0.0 mm 0.00 in0.0 mm 0.00 in0.0 mm
01:53 AM 40.1°F4.5°C 37.4°F3.0°C 90% 9.5 mph NE15.3 kmh NE 12.0 mph19.3 kmh 29.87 in1011.5 mb 0.00 in0.0 mm 0.00 in0.0 mm 0.00 in0.0 mm
01:54 AM 40.0°F4.4°C 37.3°F2.9°C 90% 9.8 mph NE15.8 kmh NE 13.0 mph20.9 kmh 29.87 in1011.5 mb 0.00 in0.0 mm 0.00 in0.0 mm 0.00 in0.0 mm
01:55 AM 40.1°F4.5°C 37.4°F3.0°C 90% 7.2 mph ENE11.6 kmh ENE 13.0 mph20.9 kmh 29.87 in1011.5 mb 0.00 in0.0 mm 0.00 in0.0 mm 0.00 in0.0 mm
01:56 AM 40.1°F4.5°C 37.4°F3.0°C 90% 8.2 mph ENE13.2 kmh ENE 11.0 mph17.7 kmh 29.87 in1011.5 mb 0.00 in0.0 mm 0.00 in0.0 mm 0.00 in0.0 mm
01:57 AM 40.1°F4.5°C 37.4°F3.0°C 90% 8.5 mph NE13.7 kmh NE 12.0 mph19.3 kmh 29.87 in1011.5 mb 0.00 in0.0 mm 0.00 in0.0 mm 0.00 in0.0 mm
01:58 AM 40.1°F4.5°C 37.4°F3.0°C 90% 8.0 mph NE12.9 kmh NE 13.0 mph20.9 kmh 29.87 in1011.5 mb 0.00 in0.0 mm 0.00 in0.0 mm 0.00 in0.0 mm
01:59 AM 40.1°F4.5°C 37.4°F3.0°C 90% 10.4 mph NE16.7 kmh NE 13.0 mph20.9 kmh 29.87 in1011.5 mb 0.00 in0.0 mm 0.00 in0.0 mm 0.00 in0.0 mm
02:00 AM 40.2°F4.6°C 37.5°F3.1°C 90% 10.5 mph NE16.9 kmh NE 12.0 mph19.3 kmh 29.87 in1011.5 mb 0.00 in0.0 mm 0.00 in0.0 mm 0.00 in0.0 mm
02:01 AM 40.2°F4.6°C 37.5°F3.1°C 90% 11.3 mph NE18.2 kmh NE 13.0 mph20.9 kmh 29.87 in1011.5 mb 0.00 in0.0 mm 0.00 in0.0 mm 0.00 in0.0 mm
02:02 AM 40.2°F4.6°C 37.5°F3.1°C 90% 8.9 mph NE14.3 kmh NE 13.0 mph20.9 kmh 29.87 in1011.5 mb 0.00 in0.0 mm 0.00 in0.0 mm 0.00 in0.0 mm
02:03 AM 40.2°F4.6°C 37.5°F3.1°C 90% 11.4 mph NE18.3 kmh NE 14.0 mph22.5 kmh 29.87 in1011.5 mb 0.00 in0.0 mm 0.00 in0.0 mm 0.00 in0.0 mm
02:04 AM 40.2°F4.6°C 37.5°F3.1°C 90% 6.9 mph NE11.1 kmh NE 14.0 mph22.5 kmh 29.87 in1011.5 mb 0.00 in0.0 mm 0.00 in0.0 mm 0.00 in0.0 mm
02:05 AM 40.2°F4.6°C 37.5°F3.1°C 90% 7.7 mph NE12.4 kmh NE 11.0 mph17.7 kmh 29.87 in1011.5 mb 0.00 in0.0 mm 0.00 in0.0 mm 0.00 in0.0 mm
02:06 AM 40.2°F4.6°C 37.8°F3.2°C 91% 8.8 mph NE14.2 kmh NE 11.0 mph17.7 kmh 29.87 in1011.5 mb 0.00 in0.0 mm 0.00 in0.0 mm 0.00 in0.0 mm
02:07 AM 40.3°F4.6°C 37.6°F3.1°C 90% 8.3 mph NE13.4 kmh NE 11.0 mph17.7 kmh 29.87 in1011.5 mb 0.00 in0.0 mm 0.00 in0.0 mm 0.00 in0.0 mm
02:08 AM 40.2°F4.6°C 37.8°F3.2°C 91% 7.3 mph NE11.7 kmh NE 13.0 mph20.9 kmh 29.87 in1011.5 mb 0.00 in0.0 mm 0.00 in0.0 mm 0.00 in0.0 mm
02:09 AM 40.2°F4.6°C 37.8°F3.2°C 91% 8.1 mph NE13.0 kmh NE 13.0 mph20.9 kmh 29.87 in1011.5 mb 0.00 in0.0 mm 0.00 in0.0 mm 0.00 in0.0 mm
02:10 AM 40.3°F4.6°C 37.9°F3.3°C 91% 10.0 mph NE16.1 kmh NE 14.0 mph22.5 kmh 29.87 in1011.5 mb 0.00 in0.0 mm 0.00 in0.0 mm 0.00 in0.0 mm
02:11 AM 40.3°F4.6°C 37.9°F3.3°C 91% 11.3 mph NE18.2 kmh NE 15.0 mph24.1 kmh 29.87 in1011.5 mb 0.00 in0.0 mm 0.00 in0.0 mm 0.00 in0.0 mm
02:12 AM 40.3°F4.6°C 37.9°F3.3°C 91% 10.5 mph NE16.9 kmh NE 15.0 mph24.1 kmh 29.87 in1011.5 mb 0.00 in0.0 mm 0.00 in0.0 mm 0.00 in0.0 mm
02:13 AM 40.2°F4.6°C 37.5°F3.1°C 90% 11.3 mph NE18.2 kmh NE 15.0 mph24.1 kmh 29.87 in1011.5 mb 0.00 in0.0 mm 0.00 in0.0 mm 0.00 in0.0 mm
02:14 AM 40.2°F4.6°C 37.8°F3.2°C 91% 11.1 mph NE17.9 kmh NE 15.0 mph24.1 kmh 29.87 in1011.5 mb 0.00 in0.0 mm 0.00 in0.0 mm 0.00 in0.0 mm
02:15 AM 40.3°F4.6°C 37.9°F3.3°C 91% 10.1 mph NE16.3 kmh NE 13.0 mph20.9 kmh 29.87 in1011.5 mb 0.00 in0.0 mm 0.00 in0.0 mm 0.00 in0.0 mm
02:16 AM 40.2°F4.6°C 37.8°F3.2°C 91% 8.1 mph NE13.0 kmh NE 13.0 mph20.9 kmh 29.87 in1011.5 mb 0.00 in0.0 mm 0.00 in0.0 mm 0.00 in0.0 mm
02:17 AM 40.2°F4.6°C 37.8°F3.2°C 91% 10.7 mph NE17.2 kmh NE 13.0 mph20.9 kmh 29.87 in1011.5 mb 0.00 in0.0 mm 0.00 in0.0 mm 0.00 in0.0 mm
02:18 AM 40.2°F4.6°C 37.8°F3.2°C 91% 9.0 mph NE14.5 kmh NE 13.0 mph20.9 kmh 29.87 in1011.5 mb 0.00 in0.0 mm 0.00 in0.0 mm 0.00 in0.0 mm
02:19 AM 40.2°F4.6°C 37.8°F3.2°C 91% 7.5 mph NE12.1 kmh NE 11.0 mph17.7 kmh 29.87 in1011.5 mb 0.00 in0.0 mm 0.00 in0.0 mm 0.00 in0.0 mm
02:20 AM 40.2°F4.6°C 37.8°F3.2°C 91% 10.3 mph NE16.6 kmh NE 15.0 mph24.1 kmh 29.87 in1011.5 mb 0.00 in0.0 mm 0.00 in0.0 mm 0.00 in0.0 mm
02:21 AM 40.2°F4.6°C 37.8°F3.2°C 91% 9.2 mph NE14.8 kmh NE 16.0 mph25.7 kmh 29.87 in1011.5 mb 0.00 in0.0 mm 0.00 in0.0 mm 0.00 in0.0 mm
02:22 AM 40.2°F4.6°C 37.8°F3.2°C 91% 8.0 mph NE12.9 kmh NE 14.0 mph22.5 kmh 29.87 in1011.5 mb 0.00 in0.0 mm 0.00 in0.0 mm 0.00 in0.0 mm
02:23 AM 40.2°F4.6°C 37.8°F3.2°C 91% 8.0 mph NE12.9 kmh NE 12.0 mph19.3 kmh 29.87 in1011.5 mb 0.00 in0.0 mm 0.00 in0.0 mm 0.00 in0.0 mm
02:24 AM 40.3°F4.6°C 37.9°F3.3°C 91% 8.5 mph NE13.7 kmh NE 12.0 mph19.3 kmh 29.87 in1011.5 mb 0.00 in0.0 mm 0.00 in0.0 mm 0.00 in0.0 mm
02:25 AM 40.3°F4.6°C 37.9°F3.3°C 91% 8.6 mph NE13.8 kmh NE 12.0 mph19.3 kmh 29.87 in1011.5 mb 0.00 in0.0 mm 0.00 in0.0 mm 0.00 in0.0 mm
02:26 AM 40.2°F4.6°C 37.8°F3.2°C 91% 8.2 mph NE13.2 kmh NE 12.0 mph19.3 kmh 29.87 in1011.5 mb 0.00 in0.0 mm 0.00 in0.0 mm 0.00 in0.0 mm
02:27 AM 40.2°F4.6°C 37.8°F3.2°C 91% 7.6 mph NE12.2 kmh NE 11.0 mph17.7 kmh 29.87 in1011.5 mb 0.00 in0.0 mm 0.00 in0.0 mm 0.00 in0.0 mm
02:28 AM 40.3°F4.6°C 37.9°F3.3°C 91% 7.5 mph NE12.1 kmh NE 11.0 mph17.7 kmh 29.87 in1011.5 mb 0.00 in0.0 mm 0.00 in0.0 mm 0.00 in0.0 mm
02:29 AM 40.3°F4.6°C 37.9°F3.3°C 91% 9.2 mph ENE14.8 kmh ENE 14.0 mph22.5 kmh 29.87 in1011.5 mb 0.00 in0.0 mm 0.00 in0.0 mm 0.00 in0.0 mm
02:30 AM 40.3°F4.6°C 37.9°F3.3°C 91% 8.2 mph NE13.2 kmh NE 14.0 mph22.5 kmh 29.87 in1011.5 mb 0.00 in0.0 mm 0.00 in0.0 mm 0.00 in0.0 mm
02:31 AM 40.3°F4.6°C 37.9°F3.3°C 91% 9.2 mph NE14.8 kmh NE 13.0 mph20.9 kmh 29.87 in1011.5 mb 0.00 in0.0 mm 0.00 in0.0 mm 0.00 in0.0 mm
02:32 AM 40.4°F4.7°C 38.0°F3.3°C 91% 11.8 mph NE19.0 kmh NE 17.0 mph27.4 kmh 29.87 in1011.5 mb 0.00 in0.0 mm 0.00 in0.0 mm 0.00 in0.0 mm
02:33 AM 40.3°F4.6°C 37.9°F3.3°C 91% 12.4 mph ENE20.0 kmh ENE 18.0 mph29.0 kmh 29.87 in1011.5 mb 0.00 in0.0 mm 0.00 in0.0 mm 0.00 in0.0 mm
02:34 AM 40.4°F4.7°C 38.0°F3.3°C 91% 10.1 mph ENE16.3 kmh ENE 18.0 mph29.0 kmh 29.87 in1011.5 mb 0.00 in0.0 mm 0.00 in0.0 mm 0.00 in0.0 mm
02:35 AM 40.5°F4.7°C 38.1°F3.4°C 91% 10.1 mph ENE16.3 kmh ENE 12.0 mph19.3 kmh 29.87 in1011.5 mb 0.00 in0.0 mm 0.00 in0.0 mm 0.00 in0.0 mm
02:36 AM 40.5°F4.7°C 38.1°F3.4°C 91% 11.2 mph ENE18.0 kmh ENE 15.0 mph24.1 kmh 29.87 in1011.5 mb 0.00 in0.0 mm 0.00 in0.0 mm 0.00 in0.0 mm
02:37 AM 40.5°F4.7°C 38.1°F3.4°C 91% 11.1 mph ENE17.9 kmh ENE 15.0 mph24.1 kmh 29.87 in1011.5 mb 0.00 in0.0 mm 0.00 in0.0 mm 0.00 in0.0 mm
02:38 AM 40.6°F4.8°C 38.2°F3.4°C 91% 9.7 mph ENE15.6 kmh ENE 13.0 mph20.9 kmh 29.88 in1011.9 mb 0.00 in0.0 mm 0.00 in0.0 mm 0.00 in0.0 mm
02:39 AM 40.6°F4.8°C 38.2°F3.4°C 91% 8.6 mph NE13.8 kmh NE 12.0 mph19.3 kmh 29.88 in1011.9 mb 0.00 in0.0 mm 0.00 in0.0 mm 0.00 in0.0 mm
02:40 AM 40.6°F4.8°C 38.2°F3.4°C 91% 11.1 mph ENE17.9 kmh ENE 15.0 mph24.1 kmh 29.88 in1011.9 mb 0.00 in0.0 mm 0.00 in0.0 mm 0.00 in0.0 mm
02:41 AM 40.7°F4.8°C 38.3°F3.5°C 91% 8.7 mph ENE14.0 kmh ENE 15.0 mph24.1 kmh 29.88 in1011.9 mb 0.00 in0.0 mm 0.00 in0.0 mm 0.00 in0.0 mm
02:42 AM 40.7°F4.8°C 38.3°F3.5°C 91% 8.0 mph ENE12.9 kmh ENE 13.0 mph20.9 kmh 29.88 in1011.9 mb 0.00 in0.0 mm 0.00 in0.0 mm 0.00 in0.0 mm
02:43 AM 40.7°F4.8°C 38.3°F3.5°C 91% 9.0 mph E14.5 kmh E 13.0 mph20.9 kmh 29.88 in1011.9 mb 0.00 in0.0 mm 0.00 in0.0 mm 0.00 in0.0 mm
02:44 AM 40.7°F4.8°C 38.3°F3.5°C 91% 9.2 mph ENE14.8 kmh ENE 13.0 mph20.9 kmh 29.88 in1011.9 mb 0.00 in0.0 mm 0.00 in0.0 mm 0.00 in0.0 mm
02:45 AM 40.7°F4.8°C 38.3°F3.5°C 91% 10.1 mph ENE16.3 kmh ENE 13.0 mph20.9 kmh 29.88 in1011.9 mb 0.00 in0.0 mm 0.00 in0.0 mm 0.00 in0.0 mm
02:46 AM 40.8°F4.9°C 38.4°F3.6°C 91% 9.8 mph ENE15.8 kmh ENE 12.0 mph19.3 kmh 29.88 in1011.9 mb 0.00 in0.0 mm 0.00 in0.0 mm 0.00 in0.0 mm
02:47 AM 40.8°F4.9°C 38.4°F3.6°C 91% 9.9 mph ENE15.9 kmh ENE 13.0 mph20.9 kmh 29.88 in1011.9 mb 0.00 in0.0 mm 0.00 in0.0 mm 0.00 in0.0 mm
02:48 AM 40.9°F4.9°C 38.5°F3.6°C 91% 10.5 mph NE16.9 kmh NE 13.0 mph20.9 kmh 29.88 in1011.9 mb 0.00 in0.0 mm 0.00 in0.0 mm 0.00 in0.0 mm
02:49 AM 40.8°F4.9°C 38.4°F3.6°C 91% 11.2 mph NE18.0 kmh NE 15.0 mph24.1 kmh 29.88 in1011.9 mb 0.00 in0.0 mm 0.00 in0.0 mm 0.00 in0.0 mm
02:50 AM 40.9°F4.9°C 38.5°F3.6°C 91% 9.9 mph ENE15.9 kmh ENE 15.0 mph24.1 kmh 29.88 in1011.9 mb 0.00 in0.0 mm 0.00 in0.0 mm 0.00 in0.0 mm
02:51 AM 40.9°F4.9°C 38.5°F3.6°C 91% 9.5 mph ENE15.3 kmh ENE 13.0 mph20.9 kmh 29.88 in1011.9 mb 0.00 in0.0 mm 0.00 in0.0 mm 0.00 in0.0 mm
02:52 AM 40.9°F4.9°C 38.5°F3.6°C 91% 8.7 mph E14.0 kmh E 12.0 mph19.3 kmh 29.88 in1011.9 mb 0.00 in0.0 mm 0.00 in0.0 mm 0.00 in0.0 mm
02:53 AM 40.9°F4.9°C 38.5°F3.6°C 91% 6.5 mph ENE10.5 kmh ENE 10.0 mph16.1 kmh 29.88 in1011.9 mb 0.00 in0.0 mm 0.00 in0.0 mm 0.00 in0.0 mm
02:54 AM 40.9°F4.9°C 38.5°F3.6°C 91% 8.3 mph NE13.4 kmh NE 11.0 mph17.7 kmh 29.88 in1011.9 mb 0.00 in0.0 mm 0.00 in0.0 mm 0.00 in0.0 mm
02:55 AM 40.9°F4.9°C 38.5°F3.6°C 91% 7.8 mph ENE12.6 kmh ENE 11.0 mph17.7 kmh 29.88 in1011.9 mb 0.00 in0.0 mm 0.00 in0.0 mm 0.00 in0.0 mm
02:56 AM 40.9°F4.9°C 38.5°F3.6°C 91% 10.1 mph NE16.3 kmh NE 13.0 mph20.9 kmh 29.88 in1011.9 mb 0.00 in0.0 mm 0.00 in0.0 mm 0.00 in0.0 mm
02:57 AM 40.9°F4.9°C 38.5°F3.6°C 91% 10.0 mph NE16.1 kmh NE 13.0 mph20.9 kmh 29.88 in1011.9 mb 0.00 in0.0 mm 0.00 in0.0 mm 0.00 in0.0 mm
02:58 AM 40.9°F4.9°C 38.5°F3.6°C 91% 12.4 mph ENE20.0 kmh ENE 17.0 mph27.4 kmh 29.88 in1011.9 mb 0.00 in0.0 mm 0.00 in0.0 mm 0.00 in0.0 mm
02:59 AM 40.9°F4.9°C 38.5°F3.6°C 91% 15.9 mph ENE25.6 kmh ENE 19.0 mph30.6 kmh 29.88 in1011.9 mb 0.00 in0.0 mm 0.00 in0.0 mm 0.00 in0.0 mm
03:00 AM 41.0°F5.0°C 38.6°F3.7°C 91% 11.8 mph ENE19.0 kmh ENE 19.0 mph30.6 kmh 29.88 in1011.9 mb 0.00 in0.0 mm 0.00 in0.0 mm 0.00 in0.0 mm
03:01 AM 40.9°F4.9°C 38.5°F3.6°C 91% 9.9 mph NE15.9 kmh NE 17.0 mph27.4 kmh 29.88 in1011.9 mb 0.00 in0.0 mm 0.00 in0.0 mm 0.00 in0.0 mm
03:02 AM 40.9°F4.9°C 38.5°F3.6°C 91% 12.0 mph ENE19.3 kmh ENE 15.0 mph24.1 kmh 29.88 in1011.9 mb 0.00 in0.0 mm 0.00 in0.0 mm 0.00 in0.0 mm
03:03 AM 40.9°F4.9°C 38.5°F3.6°C 91% 12.0 mph ENE19.3 kmh ENE 15.0 mph24.1 kmh 29.88 in1011.9 mb 0.00 in0.0 mm 0.00 in0.0 mm 0.00 in0.0 mm
03:04 AM 40.9°F4.9°C 38.5°F3.6°C 91% 9.6 mph ENE15.4 kmh ENE 15.0 mph24.1 kmh 29.88 in1011.9 mb 0.00 in0.0 mm 0.00 in0.0 mm 0.00 in0.0 mm
03:05 AM 40.9°F4.9°C 38.5°F3.6°C 91% 9.4 mph ENE15.1 kmh ENE 12.0 mph19.3 kmh 29.88 in1011.9 mb 0.00 in0.0 mm 0.00 in0.0 mm 0.00 in0.0 mm
03:06 AM 40.9°F4.9°C 38.5°F3.6°C 91% 9.5 mph NE15.3 kmh NE 13.0 mph20.9 kmh 29.88 in1011.9 mb 0.00 in0.0 mm 0.00 in0.0 mm 0.00 in0.0 mm
03:07 AM 40.9°F4.9°C 38.5°F3.6°C 91% 11.2 mph ENE18.0 kmh ENE 14.0 mph22.5 kmh 29.88 in1011.9 mb 0.00 in0.0 mm 0.00 in0.0 mm 0.00 in0.0 mm
03:08 AM 41.0°F5.0°C 38.6°F3.7°C 91% 7.5 mph ENE12.1 kmh ENE 14.0 mph22.5 kmh 29.88 in1011.9 mb 0.00 in0.0 mm 0.00 in0.0 mm 0.00 in0.0 mm
03:09 AM 40.9°F4.9°C 38.5°F3.6°C 91% 8.4 mph ENE13.5 kmh ENE 12.0 mph19.3 kmh 29.88 in1011.9 mb 0.00 in0.0 mm 0.00 in0.0 mm 0.00 in0.0 mm
03:10 AM 41.0°F5.0°C 38.6°F3.7°C 91% 8.0 mph ENE12.9 kmh ENE 10.0 mph16.1 kmh 29.88 in1011.9 mb 0.00 in0.0 mm 0.00 in0.0 mm 0.00 in0.0 mm
03:11 AM 40.9°F4.9°C 38.5°F3.6°C 91% 8.0 mph ENE12.9 kmh ENE 12.0 mph19.3 kmh 29.88 in1011.9 mb 0.00 in0.0 mm 0.00 in0.0 mm 0.00 in0.0 mm
03:12 AM 40.9°F4.9°C 38.5°F3.6°C 91% 12.4 mph ENE20.0 kmh ENE 13.0 mph20.9 kmh 29.88 in1011.9 mb 0.00 in0.0 mm 0.00 in0.0 mm 0.00 in0.0 mm
03:13 AM 41.0°F5.0°C 38.6°F3.7°C 91% 11.3 mph ENE18.2 kmh ENE 16.0 mph25.7 kmh 29.88 in1011.9 mb 0.00 in0.0 mm 0.00 in0.0 mm 0.00 in0.0 mm
03:14 AM 41.0°F5.0°C 38.6°F3.7°C 91% 13.6 mph ENE21.9 kmh ENE 18.0 mph29.0 kmh 29.88 in1011.9 mb 0.00 in0.0 mm 0.00 in0.0 mm 0.00 in0.0 mm
03:15 AM 41.0°F5.0°C 38.6°F3.7°C 91% 12.5 mph ENE20.1 kmh ENE 18.0 mph29.0 kmh 29.88 in1011.9 mb 0.00 in0.0 mm 0.00 in0.0 mm 0.00 in0.0 mm
03:16 AM 41.0°F5.0°C 38.6°F3.7°C 91% 8.8 mph NE14.2 kmh NE 17.0 mph27.4 kmh 29.88 in1011.9 mb 0.00 in0.0 mm 0.00 in0.0 mm 0.00 in0.0 mm
03:17 AM 41.0°F5.0°C 38.6°F3.7°C 91% 12.0 mph ENE19.3 kmh ENE 16.0 mph25.7 kmh 29.88 in1011.9 mb 0.00 in0.0 mm 0.00 in0.0 mm 0.00 in0.0 mm
03:18 AM 41.0°F5.0°C 38.6°F3.7°C 91% 11.6 mph ENE18.7 kmh ENE 16.0 mph25.7 kmh 29.88 in1011.9 mb 0.00 in0.0 mm 0.00 in0.0 mm 0.00 in0.0 mm
03:19 AM 41.0°F5.0°C 38.9°F3.8°C 92% 15.7 mph ENE25.3 kmh ENE 20.0 mph32.2 kmh 29.88 in1011.9 mb 0.00 in0.0 mm 0.00 in0.0 mm 0.00 in0.0 mm
03:20 AM 41.1°F5.1°C 39.0°F3.9°C 92% 14.6 mph ENE23.5 kmh ENE 20.0 mph32.2 kmh 29.88 in1011.9 mb 0.00 in0.0 mm 0.00 in0.0 mm 0.00 in0.0 mm
03:21 AM 41.1°F5.1°C 39.0°F3.9°C 92% 13.0 mph NE20.9 kmh NE 20.0 mph32.2 kmh 29.88 in1011.9 mb 0.00 in0.0 mm 0.00 in0.0 mm 0.00 in0.0 mm
03:22 AM 41.1°F5.1°C 39.0°F3.9°C 92% 13.0 mph ENE20.9 kmh ENE 20.0 mph32.2 kmh 29.88 in1011.9 mb 0.00 in0.0 mm 0.00 in0.0 mm 0.00 in0.0 mm
03:23 AM 41.2°F5.1°C 39.1°F3.9°C 92% 15.6 mph NE25.1 kmh NE 20.0 mph32.2 kmh 29.88 in1011.9 mb 0.00 in0.0 mm 0.00 in0.0 mm 0.00 in0.0 mm
03:24 AM 41.2°F5.1°C 39.1°F3.9°C 92% 15.5 mph ENE24.9 kmh ENE 20.0 mph32.2 kmh 29.88 in1011.9 mb 0.00 in0.0 mm 0.00 in0.0 mm 0.00 in0.0 mm
03:25 AM 41.2°F5.1°C 39.1°F3.9°C 92% 13.2 mph NE21.2 kmh NE 20.0 mph32.2 kmh 29.88 in1011.9 mb 0.00 in0.0 mm 0.00 in0.0 mm 0.00 in0.0 mm
03:26 AM 41.3°F5.2°C 39.2°F4.0°C 92% 10.7 mph NE17.2 kmh NE 15.0 mph24.1 kmh 29.88 in1011.9 mb 0.00 in0.0 mm 0.00 in0.0 mm 0.00 in0.0 mm
03:27 AM 41.2°F5.1°C 39.1°F3.9°C 92% 16.0 mph ENE25.7 kmh ENE 23.0 mph37.0 kmh 29.88 in1011.9 mb 0.00 in0.0 mm 0.00 in0.0 mm 0.00 in0.0 mm
03:28 AM 41.3°F5.2°C 39.2°F4.0°C 92% 12.7 mph ENE20.4 kmh ENE 23.0 mph37.0 kmh 29.88 in1011.9 mb 0.00 in0.0 mm 0.00 in0.0 mm 0.00 in0.0 mm
03:29 AM 41.3°F5.2°C 39.2°F4.0°C 92% 8.6 mph NE13.8 kmh NE 18.0 mph29.0 kmh 29.88 in1011.9 mb 0.00 in0.0 mm 0.00 in0.0 mm 0.00 in0.0 mm
03:30 AM 41.3°F5.2°C 39.2°F4.0°C 92% 12.3 mph NE19.8 kmh NE 16.0 mph25.7 kmh 29.88 in1011.9 mb 0.00 in0.0 mm 0.00 in0.0 mm 0.00 in0.0 mm
03:31 AM 41.3°F5.2°C 39.2°F4.0°C 92% 12.2 mph ENE19.6 kmh ENE 16.0 mph25.7 kmh 29.88 in1011.9 mb 0.00 in0.0 mm 0.00 in0.0 mm 0.00 in0.0 mm
03:32 AM 41.4°F5.2°C 39.3°F4.1°C 92% 13.1 mph NE21.1 kmh NE 16.0 mph25.7 kmh 29.88 in1011.9 mb 0.00 in0.0 mm 0.00 in0.0 mm 0.00 in0.0 mm
03:33 AM 41.4°F5.2°C 39.3°F4.1°C 92% 13.5 mph NE21.7 kmh NE 16.0 mph25.7 kmh 29.88 in1011.9 mb 0.00 in0.0 mm 0.00 in0.0 mm 0.00 in0.0 mm
03:34 AM 41.4°F5.2°C 39.0°F3.9°C 91% 10.9 mph ENE17.5 kmh ENE 16.0 mph25.7 kmh 29.88 in1011.9 mb 0.00 in0.0 mm 0.00 in0.0 mm 0.00 in0.0 mm
03:35 AM 41.5°F5.3°C 39.1°F3.9°C 91% 10.5 mph ENE16.9 kmh ENE 14.0 mph22.5 kmh 29.88 in1011.9 mb 0.00 in0.0 mm 0.00 in0.0 mm 0.00 in0.0 mm
03:36 AM 41.5°F5.3°C 39.1°F3.9°C 91% 10.1 mph ENE16.3 kmh ENE 14.0 mph22.5 kmh 29.88 in1011.9 mb 0.00 in0.0 mm 0.00 in0.0 mm 0.00 in0.0 mm
03:37 AM 41.5°F5.3°C 39.1°F3.9°C 91% 8.3 mph ENE13.4 kmh ENE 14.0 mph22.5 kmh 29.88 in1011.9 mb 0.00 in0.0 mm 0.00 in0.0 mm 0.00 in0.0 mm
03:38 AM 41.5°F5.3°C 39.1°F3.9°C 91% 12.4 mph ENE20.0 kmh ENE 18.0 mph29.0 kmh 29.88 in1011.9 mb 0.00 in0.0 mm 0.00 in0.0 mm 0.00 in0.0 mm
03:39 AM 41.6°F5.3°C 39.2°F4.0°C 91% 15.2 mph NE24.5 kmh NE 20.0 mph32.2 kmh 29.88 in1011.9 mb 0.00 in0.0 mm 0.00 in0.0 mm 0.00 in0.0 mm
03:40 AM 41.6°F5.3°C 39.2°F4.0°C 91% 14.3 mph ENE23.0 kmh ENE 21.0 mph33.8 kmh 29.89 in1012.2 mb 0.00 in0.0 mm 0.00 in0.0 mm 0.00 in0.0 mm
03:41 AM 41.6°F5.3°C 39.2°F4.0°C 91% 10.5 mph NE16.9 kmh NE 21.0 mph33.8 kmh 29.88 in1011.9 mb 0.00 in0.0 mm 0.00 in0.0 mm 0.00 in0.0 mm
03:42 AM 41.6°F5.3°C 39.2°F4.0°C 91% 15.3 mph NE24.6 kmh NE 20.0 mph32.2 kmh 29.89 in1012.2 mb 0.00 in0.0 mm 0.00 in0.0 mm 0.00 in0.0 mm
03:43 AM 41.6°F5.3°C 39.2°F4.0°C 91% 16.5 mph ENE26.6 kmh ENE 20.0 mph32.2 kmh 29.88 in1011.9 mb 0.00 in0.0 mm 0.00 in0.0 mm 0.00 in0.0 mm
03:44 AM 41.7°F5.4°C 39.3°F4.1°C 91% 15.9 mph ENE25.6 kmh ENE 22.0 mph35.4 kmh 29.88 in1011.9 mb 0.00 in0.0 mm 0.00 in0.0 mm 0.00 in0.0 mm
03:45 AM 41.7°F5.4°C 39.3°F4.1°C 91% 11.6 mph ENE18.7 kmh ENE 22.0 mph35.4 kmh 29.89 in1012.2 mb 0.00 in0.0 mm 0.00 in0.0 mm 0.00 in0.0 mm
03:46 AM 41.7°F5.4°C 39.3°F4.1°C 91% 12.3 mph ENE19.8 kmh ENE 17.0 mph27.4 kmh 29.88 in1011.9 mb 0.00 in0.0 mm 0.00 in0.0 mm 0.00 in0.0 mm
03:47 AM 41.8°F5.4°C 39.4°F4.1°C 91% 14.2 mph NE22.9 kmh NE 19.0 mph30.6 kmh 29.89 in1012.2 mb 0.00 in0.0 mm 0.00 in0.0 mm 0.00 in0.0 mm
03:48 AM 41.8°F5.4°C 39.1°F3.9°C 90% 13.4 mph ENE21.6 kmh ENE 19.0 mph30.6 kmh 29.89 in1012.2 mb 0.00 in0.0 mm 0.00 in0.0 mm 0.00 in0.0 mm
03:49 AM 41.8°F5.4°C 39.1°F3.9°C 90% 9.3 mph ENE15.0 kmh ENE 16.0 mph25.7 kmh 29.89 in1012.2 mb 0.00 in0.0 mm 0.00 in0.0 mm 0.00 in0.0 mm
03:50 AM 41.8°F5.4°C 39.1°F3.9°C 90% 9.5 mph NE15.3 kmh NE 15.0 mph24.1 kmh 29.89 in1012.2 mb 0.00 in0.0 mm 0.00 in0.0 mm 0.00 in0.0 mm
03:51 AM 41.8°F5.4°C 39.1°F3.9°C 90% 10.8 mph NE17.4 kmh NE 16.0 mph25.7 kmh 29.89 in1012.2 mb 0.00 in0.0 mm 0.00 in0.0 mm 0.00 in0.0 mm
03:52 AM 41.8°F5.4°C 39.1°F3.9°C 90% 12.7 mph ENE20.4 kmh ENE 17.0 mph27.4 kmh 29.89 in1012.2 mb 0.00 in0.0 mm 0.00 in0.0 mm 0.00 in0.0 mm
03:53 AM 41.8°F5.4°C 39.1°F3.9°C 90% 12.2 mph ENE19.6 kmh ENE 17.0 mph27.4 kmh 29.89 in1012.2 mb 0.00 in0.0 mm 0.00 in0.0 mm 0.00 in0.0 mm
03:54 AM 41.9°F5.5°C 39.2°F4.0°C 90% 9.2 mph NE14.8 kmh NE 15.0 mph24.1 kmh 29.89 in1012.2 mb 0.00 in0.0 mm 0.00 in0.0 mm 0.00 in0.0 mm
03:55 AM 41.8°F5.4°C 39.1°F3.9°C 90% 9.1 mph ENE14.6 kmh ENE 14.0 mph22.5 kmh 29.89 in1012.2 mb 0.00 in0.0 mm 0.00 in0.0 mm 0.00 in0.0 mm
03:56 AM 41.9°F5.5°C 39.2°F4.0°C 90% 10.6 mph NE17.1 kmh NE 13.0 mph20.9 kmh 29.89 in1012.2 mb 0.00 in0.0 mm 0.00 in0.0 mm 0.00 in0.0 mm
03:57 AM 41.9°F5.5°C 39.2°F4.0°C 90% 7.5 mph NE12.1 kmh NE 13.0 mph20.9 kmh 29.89 in1012.2 mb 0.00 in0.0 mm 0.00 in0.0 mm 0.00 in0.0 mm
03:58 AM 41.9°F5.5°C 39.2°F4.0°C 90% 9.0 mph NE14.5 kmh NE 14.0 mph22.5 kmh 29.89 in1012.2 mb 0.00 in0.0 mm 0.00 in0.0 mm 0.00 in0.0 mm
03:59 AM 41.9°F5.5°C 39.2°F4.0°C 90% 11.7 mph ENE18.8 kmh ENE 16.0 mph25.7 kmh 29.89 in1012.2 mb 0.00 in0.0 mm 0.00 in0.0 mm 0.00 in0.0 mm
04:00 AM 41.9°F5.5°C 39.2°F4.0°C 90% 8.6 mph ENE13.8 kmh ENE 16.0 mph25.7 kmh 29.89 in1012.2 mb 0.00 in0.0 mm 0.00 in0.0 mm 0.00 in0.0 mm
04:01 AM 42.0°F5.6°C 39.3°F4.1°C 90% 12.7 mph ENE20.4 kmh ENE 17.0 mph27.4 kmh 29.89 in1012.2 mb 0.00 in0.0 mm 0.00 in0.0 mm 0.00 in0.0 mm
04:02 AM 42.0°F5.6°C 39.3°F4.1°C 90% 11.2 mph ENE18.0 kmh ENE 17.0 mph27.4 kmh 29.89 in1012.2 mb 0.00 in0.0 mm 0.00 in0.0 mm 0.00 in0.0 mm
04:03 AM 42.0°F5.6°C 39.3°F4.1°C 90% 10.5 mph NE16.9 kmh NE 15.0 mph24.1 kmh 29.89 in1012.2 mb 0.00 in0.0 mm 0.00 in0.0 mm 0.00 in0.0 mm
04:04 AM 42.0°F5.6°C 39.3°F4.1°C 90% 8.2 mph ENE13.2 kmh ENE 14.0 mph22.5 kmh 29.89 in1012.2 mb 0.00 in0.0 mm 0.00 in0.0 mm 0.00 in0.0 mm
04:05 AM 42.0°F5.6°C 39.0°F3.9°C 89% 10.3 mph E16.6 kmh E 14.0 mph22.5 kmh 29.89 in1012.2 mb 0.00 in0.0 mm 0.00 in0.0 mm 0.00 in0.0 mm
04:06 AM 42.0°F5.6°C 39.0°F3.9°C 89% 9.1 mph ENE14.6 kmh ENE 14.0 mph22.5 kmh 29.89 in1012.2 mb 0.00 in0.0 mm 0.00 in0.0 mm 0.00 in0.0 mm
04:07 AM 42.0°F5.6°C 39.0°F3.9°C 89% 7.3 mph ENE11.7 kmh ENE 11.0 mph17.7 kmh 29.89 in1012.2 mb 0.00 in0.0 mm 0.00 in0.0 mm 0.00 in0.0 mm
04:08 AM 42.1°F5.6°C 39.1°F3.9°C 89% 6.7 mph ENE10.8 kmh ENE 12.0 mph19.3 kmh 29.89 in1012.2 mb 0.00 in0.0 mm 0.00 in0.0 mm 0.00 in0.0 mm
04:09 AM 42.1°F5.6°C 39.1°F3.9°C 89% 9.7 mph ENE15.6 kmh ENE 14.0 mph22.5 kmh 29.89 in1012.2 mb 0.00 in0.0 mm 0.00 in0.0 mm 0.00 in0.0 mm
04:10 AM 42.0°F5.6°C 39.0°F3.9°C 89% 11.5 mph E18.5 kmh E 16.0 mph25.7 kmh 29.89 in1012.2 mb 0.00 in0.0 mm 0.00 in0.0 mm 0.00 in0.0 mm
04:11 AM 42.1°F5.6°C 39.1°F3.9°C 89% 10.2 mph ENE16.4 kmh ENE 16.0 mph25.7 kmh 29.89 in1012.2 mb 0.00 in0.0 mm 0.00 in0.0 mm 0.00 in0.0 mm
04:12 AM 42.0°F5.6°C 39.0°F3.9°C 89% 7.9 mph ENE12.7 kmh ENE 13.0 mph20.9 kmh 29.89 in1012.2 mb 0.00 in0.0 mm 0.00 in0.0 mm 0.00 in0.0 mm
04:13 AM 42.1°F5.6°C 39.1°F3.9°C 89% 7.9 mph ENE12.7 kmh ENE 12.0 mph19.3 kmh 29.89 in1012.2 mb 0.00 in0.0 mm 0.00 in0.0 mm 0.00 in0.0 mm
04:14 AM 42.1°F5.6°C 39.1°F3.9°C 89% 11.6 mph ENE18.7 kmh ENE 15.0 mph24.1 kmh 29.89 in1012.2 mb 0.00 in0.0 mm 0.00 in0.0 mm 0.00 in0.0 mm
04:15 AM 42.1°F5.6°C 39.1°F3.9°C 89% 10.2 mph E16.4 kmh E 15.0 mph24.1 kmh 29.89 in1012.2 mb 0.00 in0.0 mm 0.00 in0.0 mm 0.00 in0.0 mm
04:16 AM 42.1°F5.6°C 39.1°F3.9°C 89% 10.4 mph ENE16.7 kmh ENE 13.0 mph20.9 kmh 29.90 in1012.5 mb 0.00 in0.0 mm 0.00 in0.0 mm 0.00 in0.0 mm
04:17 AM 42.1°F5.6°C 38.8°F3.8°C 88% 8.5 mph E13.7 kmh E 13.0 mph20.9 kmh 29.90 in1012.5 mb 0.00 in0.0 mm 0.00 in0.0 mm 0.00 in0.0 mm
04:18 AM 42.1°F5.6°C 38.8°F3.8°C 88% 11.4 mph ENE18.3 kmh ENE 15.0 mph24.1 kmh 29.90 in1012.5 mb 0.00 in0.0 mm 0.00 in0.0 mm 0.00 in0.0 mm
04:19 AM 42.1°F5.6°C 38.8°F3.8°C 88% 8.3 mph ENE13.4 kmh ENE 15.0 mph24.1 kmh 29.90 in1012.5 mb 0.00 in0.0 mm 0.00 in0.0 mm 0.00 in0.0 mm
04:20 AM 42.1°F5.6°C 38.8°F3.8°C 88% 6.7 mph ENE10.8 kmh ENE 12.0 mph19.3 kmh 29.90 in1012.5 mb 0.00 in0.0 mm 0.00 in0.0 mm 0.00 in0.0 mm
04:21 AM 42.1°F5.6°C 38.8°F3.8°C 88% 8.7 mph ENE14.0 kmh ENE 11.0 mph17.7 kmh 29.90 in1012.5 mb 0.00 in0.0 mm 0.00 in0.0 mm 0.00 in0.0 mm
04:22 AM 42.1°F5.6°C 38.8°F3.8°C 88% 8.8 mph ENE14.2 kmh ENE 12.0 mph19.3 kmh 29.90 in1012.5 mb 0.00 in0.0 mm 0.00 in0.0 mm 0.00 in0.0 mm
04:23 AM 42.2°F5.7°C 38.9°F3.8°C 88% 8.5 mph NE13.7 kmh NE 13.0 mph20.9 kmh 29.90 in1012.5 mb 0.00 in0.0 mm 0.00 in0.0 mm 0.00 in0.0 mm
04:24 AM 42.1°F5.6°C 38.8°F3.8°C 88% 10.3 mph NE16.6 kmh NE 17.0 mph27.4 kmh 29.90 in1012.5 mb 0.00 in0.0 mm 0.00 in0.0 mm 0.00 in0.0 mm
04:25 AM 42.1°F5.6°C 38.8°F3.8°C 88% 14.9 mph NE24.0 kmh NE 18.0 mph29.0 kmh 29.90 in1012.5 mb 0.00 in0.0 mm 0.00 in0.0 mm 0.00 in0.0 mm
04:26 AM 42.1°F5.6°C 38.8°F3.8°C 88% 11.0 mph NE17.7 kmh NE 18.0 mph29.0 kmh 29.90 in1012.5 mb 0.00 in0.0 mm 0.00 in0.0 mm 0.00 in0.0 mm
04:27 AM 42.2°F5.7°C 38.9°F3.8°C 88% 11.2 mph ENE18.0 kmh ENE 16.0 mph25.7 kmh 29.90 in1012.5 mb 0.00 in0.0 mm 0.00 in0.0 mm 0.00 in0.0 mm
04:28 AM 42.2°F5.7°C 38.9°F3.8°C 88% 10.3 mph NE16.6 kmh NE 16.0 mph25.7 kmh 29.90 in1012.5 mb 0.00 in0.0 mm 0.00 in0.0 mm 0.00 in0.0 mm
04:29 AM 42.1°F5.6°C 38.8°F3.8°C 88% 12.7 mph ENE20.4 kmh ENE 15.0 mph24.1 kmh 29.90 in1012.5 mb 0.00 in0.0 mm 0.00 in0.0 mm 0.00 in0.0 mm
04:30 AM 42.2°F5.7°C 38.9°F3.8°C 88% 12.6 mph NE20.3 kmh NE 16.0 mph25.7 kmh 29.90 in1012.5 mb 0.00 in0.0 mm 0.00 in0.0 mm 0.00 in0.0 mm
04:31 AM 42.1°F5.6°C 38.5°F3.6°C 87% 12.8 mph NE20.6 kmh NE 17.0 mph27.4 kmh 29.90 in1012.5 mb 0.00 in0.0 mm 0.00 in0.0 mm 0.00 in0.0 mm
04:32 AM 42.2°F5.7°C 38.6°F3.7°C 87% 10.3 mph ENE16.6 kmh ENE 17.0 mph27.4 kmh 29.90 in1012.5 mb 0.00 in0.0 mm 0.00 in0.0 mm 0.00 in0.0 mm
04:33 AM 42.2°F5.7°C 38.6°F3.7°C 87% 12.3 mph ENE19.8 kmh ENE 18.0 mph29.0 kmh 29.90 in1012.5 mb 0.00 in0.0 mm 0.00 in0.0 mm 0.00 in0.0 mm
04:34 AM 42.2°F5.7°C 38.6°F3.7°C 87% 8.7 mph ENE14.0 kmh ENE 18.0 mph29.0 kmh 29.90 in1012.5 mb 0.00 in0.0 mm 0.00 in0.0 mm 0.00 in0.0 mm
04:35 AM 42.2°F5.7°C 38.6°F3.7°C 87% 10.7 mph NE17.2 kmh NE 15.0 mph24.1 kmh 29.90 in1012.5 mb 0.00 in0.0 mm 0.00 in0.0 mm 0.00 in0.0 mm
04:36 AM 42.2°F5.7°C 38.6°F3.7°C 87% 15.1 mph ENE24.3 kmh ENE 18.0 mph29.0 kmh 29.90 in1012.5 mb 0.00 in0.0 mm 0.00 in0.0 mm 0.00 in0.0 mm
04:37 AM 42.2°F5.7°C 38.6°F3.7°C 87% 9.5 mph ENE15.3 kmh ENE 18.0 mph29.0 kmh 29.90 in1012.5 mb 0.00 in0.0 mm 0.00 in0.0 mm 0.00 in0.0 mm
04:38 AM 42.2°F5.7°C 38.6°F3.7°C 87% 14.1 mph ENE22.7 kmh ENE 17.0 mph27.4 kmh 29.90 in1012.5 mb 0.00 in0.0 mm 0.00 in0.0 mm 0.00 in0.0 mm
04:39 AM 42.2°F5.7°C 38.6°F3.7°C 87% 11.0 mph NE17.7 kmh NE 17.0 mph27.4 kmh 29.90 in1012.5 mb 0.00 in0.0 mm 0.00 in0.0 mm 0.00 in0.0 mm
04:40 AM 42.2°F5.7°C 38.6°F3.7°C 87% 13.2 mph NE21.2 kmh NE 17.0 mph27.4 kmh 29.90 in1012.5 mb 0.00 in0.0 mm 0.00 in0.0 mm 0.00 in0.0 mm
04:41 AM 42.2°F5.7°C 38.6°F3.7°C 87% 14.3 mph NE23.0 kmh NE 22.0 mph35.4 kmh 29.90 in1012.5 mb 0.00 in0.0 mm 0.00 in0.0 mm 0.00 in0.0 mm
04:42 AM 42.2°F5.7°C 38.3°F3.5°C 86% 18.0 mph ENE29.0 kmh ENE 22.0 mph35.4 kmh 29.90 in1012.5 mb 0.00 in0.0 mm 0.00 in0.0 mm 0.00 in0.0 mm
04:43 AM 42.2°F5.7°C 38.3°F3.5°C 86% 16.7 mph NE26.9 kmh NE 22.0 mph35.4 kmh 29.90 in1012.5 mb 0.00 in0.0 mm 0.00 in0.0 mm 0.00 in0.0 mm
04:44 AM 42.1°F5.6°C 38.2°F3.4°C 86% 17.0 mph NE27.4 kmh NE 20.0 mph32.2 kmh 29.90 in1012.5 mb 0.00 in0.0 mm 0.00 in0.0 mm 0.00 in0.0 mm
04:45 AM 42.1°F5.6°C 38.2°F3.4°C 86% 15.5 mph ENE24.9 kmh ENE 20.0 mph32.2 kmh 29.90 in1012.5 mb 0.00 in0.0 mm 0.00 in0.0 mm 0.00 in0.0 mm
04:46 AM 42.1°F5.6°C 38.2°F3.4°C 86% 16.3 mph ENE26.2 kmh ENE 21.0 mph33.8 kmh 29.90 in1012.5 mb 0.00 in0.0 mm 0.00 in0.0 mm 0.00 in0.0 mm
04:47 AM 42.1°F5.6°C 38.2°F3.4°C 86% 15.8 mph NE25.4 kmh NE 21.0 mph33.8 kmh 29.90 in1012.5 mb 0.00 in0.0 mm 0.00 in0.0 mm 0.00 in0.0 mm
04:48 AM 42.1°F5.6°C 38.2°F3.4°C 86% 13.7 mph NE22.0 kmh NE 20.0 mph32.2 kmh 29.90 in1012.5 mb 0.00 in0.0 mm 0.00 in0.0 mm 0.00 in0.0 mm
04:49 AM 42.1°F5.6°C 38.2°F3.4°C 86% 15.8 mph NE25.4 kmh NE 21.0 mph33.8 kmh 29.90 in1012.5 mb 0.00 in0.0 mm 0.00 in0.0 mm 0.00 in0.0 mm
04:50 AM 42.1°F5.6°C 38.2°F3.4°C 86% 15.3 mph ENE24.6 kmh ENE 21.0 mph33.8 kmh 29.90 in1012.5 mb 0.00 in0.0 mm 0.00 in0.0 mm 0.00 in0.0 mm
04:51 AM 42.1°F5.6°C 38.2°F3.4°C 86% 13.7 mph NE22.0 kmh NE 18.0 mph29.0 kmh 29.90 in1012.5 mb 0.00 in0.0 mm 0.00 in0.0 mm 0.00 in0.0 mm
04:52 AM 42.1°F5.6°C 38.2°F3.4°C 86% 12.0 mph NE19.3 kmh NE 18.0 mph29.0 kmh 29.90 in1012.5 mb 0.00 in0.0 mm 0.00 in0.0 mm 0.00 in0.0 mm
04:53 AM 42.1°F5.6°C 38.2°F3.4°C 86% 12.6 mph NE20.3 kmh NE 18.0 mph29.0 kmh 29.90 in1012.5 mb 0.00 in0.0 mm 0.00 in0.0 mm 0.00 in0.0 mm
04:54 AM 42.0°F5.6°C 38.1°F3.4°C 86% 13.9 mph NE22.4 kmh NE 17.0 mph27.4 kmh 29.90 in1012.5 mb 0.00 in0.0 mm 0.00 in0.0 mm 0.00 in0.0 mm
04:55 AM 42.0°F5.6°C 38.1°F3.4°C 86% 12.6 mph ENE20.3 kmh ENE 16.0 mph25.7 kmh 29.90 in1012.5 mb 0.00 in0.0 mm 0.00 in0.0 mm 0.00 in0.0 mm
04:56 AM 42.0°F5.6°C 38.1°F3.4°C 86% 14.0 mph NE22.5 kmh NE 20.0 mph32.2 kmh 29.90 in1012.5 mb 0.00 in0.0 mm 0.00 in0.0 mm 0.00 in0.0 mm
04:57 AM 42.0°F5.6°C 38.1°F3.4°C 86% 10.8 mph NE17.4 kmh NE 20.0 mph32.2 kmh 29.90 in1012.5 mb 0.00 in0.0 mm 0.00 in0.0 mm 0.00 in0.0 mm
04:58 AM 42.0°F5.6°C 38.1°F3.4°C 86% 8.4 mph NE13.5 kmh NE 14.0 mph22.5 kmh 29.90 in1012.5 mb 0.00 in0.0 mm 0.00 in0.0 mm 0.00 in0.0 mm
04:59 AM 42.0°F5.6°C 38.4°F3.6°C 87% 8.3 mph ENE13.4 kmh ENE 14.0 mph22.5 kmh 29.90 in1012.5 mb 0.00 in0.0 mm 0.00 in0.0 mm 0.00 in0.0 mm
05:00 AM 41.9°F5.5°C 38.3°F3.5°C 87% 12.2 mph NE19.6 kmh NE 17.0 mph27.4 kmh 29.90 in1012.5 mb 0.00 in0.0 mm 0.00 in0.0 mm 0.00 in0.0 mm
05:01 AM 41.9°F5.5°C 38.3°F3.5°C 87% 14.2 mph ENE22.9 kmh ENE 18.0 mph29.0 kmh 29.90 in1012.5 mb 0.00 in0.0 mm 0.00 in0.0 mm 0.00 in0.0 mm
05:02 AM 41.9°F5.5°C 38.0°F3.3°C 86% 14.9 mph ENE24.0 kmh ENE 20.0 mph32.2 kmh 29.90 in1012.5 mb 0.00 in0.0 mm 0.00 in0.0 mm 0.00 in0.0 mm
05:03 AM 41.9°F5.5°C 38.0°F3.3°C 86% 18.0 mph ENE29.0 kmh ENE 26.0 mph41.8 kmh 29.90 in1012.5 mb 0.00 in0.0 mm 0.00 in0.0 mm 0.00 in0.0 mm
05:04 AM 41.9°F5.5°C 38.3°F3.5°C 87% 12.8 mph ENE20.6 kmh ENE 26.0 mph41.8 kmh 29.90 in1012.5 mb 0.00 in0.0 mm 0.00 in0.0 mm 0.00 in0.0 mm
05:05 AM 41.9°F5.5°C 38.3°F3.5°C 87% 12.0 mph NE19.3 kmh NE 16.0 mph25.7 kmh 29.90 in1012.5 mb 0.00 in0.0 mm 0.00 in0.0 mm 0.00 in0.0 mm
05:06 AM 41.9°F5.5°C 38.3°F3.5°C 87% 11.6 mph ENE18.7 kmh ENE 15.0 mph24.1 kmh 29.90 in1012.5 mb 0.00 in0.0 mm 0.00 in0.0 mm 0.00 in0.0 mm
05:07 AM 41.8°F5.4°C 38.2°F3.4°C 87% 15.0 mph NE24.1 kmh NE 20.0 mph32.2 kmh 29.90 in1012.5 mb 0.00 in0.0 mm 0.00 in0.0 mm 0.00 in0.0 mm
05:08 AM 41.8°F5.4°C 38.2°F3.4°C 87% 17.2 mph ENE27.7 kmh ENE 22.0 mph35.4 kmh 29.90 in1012.5 mb 0.00 in0.0 mm 0.00 in0.0 mm 0.00 in0.0 mm
05:09 AM 41.8°F5.4°C 38.2°F3.4°C 87% 18.3 mph ENE29.5 kmh ENE 22.0 mph35.4 kmh 29.90 in1012.5 mb 0.00 in0.0 mm 0.00 in0.0 mm 0.00 in0.0 mm
05:10 AM 41.8°F5.4°C 38.2°F3.4°C 87% 16.4 mph ENE26.4 kmh ENE 25.0 mph40.2 kmh 29.90 in1012.5 mb 0.00 in0.0 mm 0.00 in0.0 mm 0.00 in0.0 mm
05:11 AM 41.7°F5.4°C 38.1°F3.4°C 87% 17.5 mph ENE28.2 kmh ENE 25.0 mph40.2 kmh 29.90 in1012.5 mb 0.00 in0.0 mm 0.00 in0.0 mm 0.00 in0.0 mm
05:12 AM 41.7°F5.4°C 38.1°F3.4°C 87% 14.6 mph NE23.5 kmh NE 25.0 mph40.2 kmh 29.90 in1012.5 mb 0.00 in0.0 mm 0.00 in0.0 mm 0.00 in0.0 mm
05:13 AM 41.6°F5.3°C 38.0°F3.3°C 87% 13.4 mph NE21.6 kmh NE 20.0 mph32.2 kmh 29.90 in1012.5 mb 0.00 in0.0 mm 0.00 in0.0 mm 0.00 in0.0 mm
05:14 AM 41.5°F5.3°C 37.9°F3.3°C 87% 16.1 mph ENE25.9 kmh ENE 21.0 mph33.8 kmh 29.90 in1012.5 mb 0.00 in0.0 mm 0.00 in0.0 mm 0.00 in0.0 mm
05:15 AM 41.5°F5.3°C 37.9°F3.3°C 87% 15.8 mph ENE25.4 kmh ENE 21.0 mph33.8 kmh 29.90 in1012.5 mb 0.00 in0.0 mm 0.00 in0.0 mm 0.00 in0.0 mm
05:16 AM 41.5°F5.3°C 37.9°F3.3°C 87% 14.3 mph ENE23.0 kmh ENE 20.0 mph32.2 kmh 29.90 in1012.5 mb 0.00 in0.0 mm 0.00 in0.0 mm 0.00 in0.0 mm
05:17 AM 41.5°F5.3°C 37.9°F3.3°C 87% 16.5 mph ENE26.6 kmh ENE 22.0 mph35.4 kmh 29.91 in1012.9 mb 0.00 in0.0 mm 0.00 in0.0 mm 0.00 in0.0 mm
05:18 AM 41.4°F5.2°C 37.8°F3.2°C 87% 14.3 mph ENE23.0 kmh ENE 22.0 mph35.4 kmh 29.90 in1012.5 mb 0.00 in0.0 mm 0.00 in0.0 mm 0.00 in0.0 mm
05:19 AM 41.4°F5.2°C 37.8°F3.2°C 87% 16.9 mph ENE27.2 kmh ENE 23.0 mph37.0 kmh 29.90 in1012.5 mb 0.00 in0.0 mm 0.00 in0.0 mm 0.00 in0.0 mm
05:20 AM 41.3°F5.2°C 37.7°F3.2°C 87% 18.1 mph ENE29.1 kmh ENE 23.0 mph37.0 kmh 29.90 in1012.5 mb 0.00 in0.0 mm 0.00 in0.0 mm 0.00 in0.0 mm
05:21 AM 41.3°F5.2°C 37.7°F3.2°C 87% 16.3 mph ENE26.2 kmh ENE 23.0 mph37.0 kmh 29.90 in1012.5 mb 0.00 in0.0 mm 0.00 in0.0 mm 0.00 in0.0 mm
05:22 AM 41.3°F5.2°C 37.7°F3.2°C 87% 16.8 mph ENE27.0 kmh ENE 23.0 mph37.0 kmh 29.90 in1012.5 mb 0.00 in0.0 mm 0.00 in0.0 mm 0.00 in0.0 mm
05:23 AM 41.3°F5.2°C 37.7°F3.2°C 87% 18.0 mph ENE29.0 kmh ENE 22.0 mph35.4 kmh 29.90 in1012.5 mb 0.00 in0.0 mm 0.00 in0.0 mm 0.00 in0.0 mm
05:24 AM 41.2°F5.1°C 37.6°F3.1°C 87% 15.5 mph ENE24.9 kmh ENE 22.0 mph35.4 kmh 29.90 in1012.5 mb 0.00 in0.0 mm 0.00 in0.0 mm 0.00 in0.0 mm
05:25 AM 41.3°F5.2°C 37.7°F3.2°C 87% 16.2 mph ENE26.1 kmh ENE 22.0 mph35.4 kmh 29.90 in1012.5 mb 0.00 in0.0 mm 0.00 in0.0 mm 0.00 in0.0 mm
05:26 AM 41.2°F5.1°C 37.6°F3.1°C 87% 15.3 mph ENE24.6 kmh ENE 22.0 mph35.4 kmh 29.90 in1012.5 mb 0.00 in0.0 mm 0.00 in0.0 mm 0.00 in0.0 mm
05:27 AM 41.2°F5.1°C 37.6°F3.1°C 87% 14.9 mph ENE24.0 kmh ENE 19.0 mph30.6 kmh 29.90 in1012.5 mb 0.00 in0.0 mm 0.00 in0.0 mm 0.00 in0.0 mm
05:28 AM 41.2°F5.1°C 37.6°F3.1°C 87% 15.9 mph ENE25.6 kmh ENE 24.0 mph38.6 kmh 29.91 in1012.9 mb 0.00 in0.0 mm 0.00 in0.0 mm 0.00 in0.0 mm
05:29 AM 41.2°F5.1°C 37.6°F3.1°C 87% 10.8 mph NE17.4 kmh NE 24.0 mph38.6 kmh 29.91 in1012.9 mb 0.00 in0.0 mm 0.00 in0.0 mm 0.00 in0.0 mm
05:30 AM 41.1°F5.1°C 37.5°F3.1°C 87% 12.8 mph ENE20.6 kmh ENE 17.0 mph27.4 kmh 29.91 in1012.9 mb 0.00 in0.0 mm 0.00 in0.0 mm 0.00 in0.0 mm
05:31 AM 41.1°F5.1°C 37.5°F3.1°C 87% 14.8 mph ENE23.8 kmh ENE 18.0 mph29.0 kmh 29.91 in1012.9 mb 0.00 in0.0 mm 0.00 in0.0 mm 0.00 in0.0 mm
05:32 AM 41.1°F5.1°C 37.5°F3.1°C 87% 12.4 mph ENE20.0 kmh ENE 18.0 mph29.0 kmh 29.91 in1012.9 mb 0.00 in0.0 mm 0.00 in0.0 mm 0.00 in0.0 mm
05:33 AM 41.1°F5.1°C 37.8°F3.2°C 88% 12.0 mph ENE19.3 kmh ENE 17.0 mph27.4 kmh 29.91 in1012.9 mb 0.00 in0.0 mm 0.00 in0.0 mm 0.00 in0.0 mm
05:34 AM 41.1°F5.1°C 37.5°F3.1°C 87% 13.0 mph ENE20.9 kmh ENE 17.0 mph27.4 kmh 29.91 in1012.9 mb 0.00 in0.0 mm 0.00 in0.0 mm 0.00 in0.0 mm
05:35 AM 41.1°F5.1°C 37.5°F3.1°C 87% 11.9 mph ENE19.2 kmh ENE 15.0 mph24.1 kmh 29.91 in1012.9 mb 0.00 in0.0 mm 0.00 in0.0 mm 0.00 in0.0 mm
05:36 AM 41.1°F5.1°C 37.5°F3.1°C 87% 12.3 mph ENE19.8 kmh ENE 16.0 mph25.7 kmh 29.91 in1012.9 mb 0.00 in0.0 mm 0.00 in0.0 mm 0.00 in0.0 mm
05:37 AM 41.0°F5.0°C 37.4°F3.0°C 87% 13.0 mph ENE20.9 kmh ENE 17.0 mph27.4 kmh 29.91 in1012.9 mb 0.00 in0.0 mm 0.00 in0.0 mm 0.00 in0.0 mm
05:38 AM 41.1°F5.1°C 37.5°F3.1°C 87% 12.3 mph ENE19.8 kmh ENE 17.0 mph27.4 kmh 29.91 in1012.9 mb 0.00 in0.0 mm 0.00 in0.0 mm 0.00 in0.0 mm
05:39 AM 41.0°F5.0°C 37.4°F3.0°C 87% 10.7 mph ENE17.2 kmh ENE 16.0 mph25.7 kmh 29.91 in1012.9 mb 0.00 in0.0 mm 0.00 in0.0 mm 0.00 in0.0 mm
05:40 AM 41.0°F5.0°C 37.7°F3.2°C 88% 9.4 mph ENE15.1 kmh ENE 13.0 mph20.9 kmh 29.91 in1012.9 mb 0.00 in0.0 mm 0.00 in0.0 mm 0.00 in0.0 mm
05:41 AM 41.0°F5.0°C 37.7°F3.2°C 88% 8.3 mph ENE13.4 kmh ENE 13.0 mph20.9 kmh 29.91 in1012.9 mb 0.00 in0.0 mm 0.00 in0.0 mm 0.00 in0.0 mm
05:42 AM 41.1°F5.1°C 37.8°F3.2°C 88% 6.8 mph NE10.9 kmh NE 11.0 mph17.7 kmh 29.91 in1012.9 mb 0.00 in0.0 mm 0.00 in0.0 mm 0.00 in0.0 mm
05:43 AM 41.0°F5.0°C 37.7°F3.2°C 88% 8.9 mph NE14.3 kmh NE 18.0 mph29.0 kmh 29.91 in1012.9 mb 0.00 in0.0 mm 0.00 in0.0 mm 0.00 in0.0 mm
05:44 AM 41.0°F5.0°C 37.7°F3.2°C 88% 12.7 mph NE20.4 kmh NE 18.0 mph29.0 kmh 29.91 in1012.9 mb 0.00 in0.0 mm 0.00 in0.0 mm 0.00 in0.0 mm
05:45 AM 41.0°F5.0°C 37.7°F3.2°C 88% 11.4 mph ENE18.3 kmh ENE 18.0 mph29.0 kmh 29.91 in1012.9 mb 0.00 in0.0 mm 0.00 in0.0 mm 0.00 in0.0 mm
05:46 AM 41.0°F5.0°C 37.7°F3.2°C 88% 13.3 mph NE21.4 kmh NE 17.0 mph27.4 kmh 29.91 in1012.9 mb 0.00 in0.0 mm 0.00 in0.0 mm 0.00 in0.0 mm
05:47 AM 41.0°F5.0°C 37.7°F3.2°C 88% 11.8 mph NE19.0 kmh NE 17.0 mph27.4 kmh 29.91 in1012.9 mb 0.00 in0.0 mm 0.00 in0.0 mm 0.00 in0.0 mm
05:48 AM 40.9°F4.9°C 37.6°F3.1°C 88% 11.8 mph ENE19.0 kmh ENE 17.0 mph27.4 kmh 29.91 in1012.9 mb 0.00 in0.0 mm 0.00 in0.0 mm 0.00 in0.0 mm
05:49 AM 40.9°F4.9°C 37.6°F3.1°C 88% 13.9 mph NE22.4 kmh NE 17.0 mph27.4 kmh 29.91 in1012.9 mb 0.00 in0.0 mm 0.00 in0.0 mm 0.00 in0.0 mm
05:50 AM 40.9°F4.9°C 37.6°F3.1°C 88% 10.8 mph ENE17.4 kmh ENE 17.0 mph27.4 kmh 29.91 in1012.9 mb 0.00 in0.0 mm 0.00 in0.0 mm 0.00 in0.0 mm
05:51 AM 41.0°F5.0°C 37.7°F3.2°C 88% 9.7 mph NE15.6 kmh NE 14.0 mph22.5 kmh 29.91 in1012.9 mb 0.00 in0.0 mm 0.00 in0.0 mm 0.00 in0.0 mm
05:52 AM 40.9°F4.9°C 37.6°F3.1°C 88% 11.0 mph ENE17.7 kmh ENE 13.0 mph20.9 kmh 29.92 in1013.2 mb 0.00 in0.0 mm 0.00 in0.0 mm 0.00 in0.0 mm
05:53 AM 41.0°F5.0°C 37.7°F3.2°C 88% 13.3 mph ENE21.4 kmh ENE 16.0 mph25.7 kmh 29.92 in1013.2 mb 0.00 in0.0 mm 0.00 in0.0 mm 0.00 in0.0 mm
05:54 AM 40.9°F4.9°C 37.6°F3.1°C 88% 14.0 mph ENE22.5 kmh ENE 19.0 mph30.6 kmh 29.91 in1012.9 mb 0.00 in0.0 mm 0.00 in0.0 mm 0.00 in0.0 mm
05:55 AM 40.9°F4.9°C 37.6°F3.1°C 88% 12.6 mph ENE20.3 kmh ENE 19.0 mph30.6 kmh 29.92 in1013.2 mb 0.00 in0.0 mm 0.00 in0.0 mm 0.00 in0.0 mm
05:56 AM 40.9°F4.9°C 37.6°F3.1°C 88% 10.6 mph NE17.1 kmh NE 17.0 mph27.4 kmh 29.92 in1013.2 mb 0.00 in0.0 mm 0.00 in0.0 mm 0.00 in0.0 mm
05:57 AM 40.9°F4.9°C 37.6°F3.1°C 88% 7.8 mph ENE12.6 kmh ENE 17.0 mph27.4 kmh 29.92 in1013.2 mb 0.00 in0.0 mm 0.00 in0.0 mm 0.00 in0.0 mm
05:58 AM 40.9°F4.9°C 37.6°F3.1°C 88% 10.8 mph E17.4 kmh E 18.0 mph29.0 kmh 29.92 in1013.2 mb 0.00 in0.0 mm 0.00 in0.0 mm 0.00 in0.0 mm
05:59 AM 40.9°F4.9°C 37.6°F3.1°C 88% 14.4 mph ENE23.2 kmh ENE 20.0 mph32.2 kmh 29.92 in1013.2 mb 0.00 in0.0 mm 0.00 in0.0 mm 0.00 in0.0 mm
06:00 AM 40.9°F4.9°C 37.6°F3.1°C 88% 11.8 mph ENE19.0 kmh ENE 20.0 mph32.2 kmh 29.92 in1013.2 mb 0.00 in0.0 mm 0.00 in0.0 mm 0.00 in0.0 mm
06:01 AM 40.9°F4.9°C 37.6°F3.1°C 88% 11.2 mph ENE18.0 kmh ENE 14.0 mph22.5 kmh 29.92 in1013.2 mb 0.00 in0.0 mm 0.00 in0.0 mm 0.00 in0.0 mm
06:02 AM 40.9°F4.9°C 37.6°F3.1°C 88% 14.6 mph NE23.5 kmh NE 19.0 mph30.6 kmh 29.92 in1013.2 mb 0.00 in0.0 mm 0.00 in0.0 mm 0.00 in0.0 mm
06:03 AM 40.8°F4.9°C 37.5°F3.1°C 88% 15.1 mph ENE24.3 kmh ENE 20.0 mph32.2 kmh 29.92 in1013.2 mb 0.00 in0.0 mm 0.00 in0.0 mm 0.00 in0.0 mm
06:04 AM 40.9°F4.9°C 37.6°F3.1°C 88% 15.9 mph ENE25.6 kmh ENE 20.0 mph32.2 kmh 29.91 in1012.9 mb 0.00 in0.0 mm 0.00 in0.0 mm 0.00 in0.0 mm
06:05 AM 40.8°F4.9°C 37.5°F3.1°C 88% 15.5 mph ENE24.9 kmh ENE 20.0 mph32.2 kmh 29.92 in1013.2 mb 0.00 in0.0 mm 0.00 in0.0 mm 0.00 in0.0 mm
06:06 AM 40.8°F4.9°C 37.5°F3.1°C 88% 12.2 mph ENE19.6 kmh ENE 19.0 mph30.6 kmh 29.92 in1013.2 mb 0.00 in0.0 mm 0.00 in0.0 mm 0.00 in0.0 mm
06:07 AM 40.9°F4.9°C 37.6°F3.1°C 88% 12.3 mph NE19.8 kmh NE 18.0 mph29.0 kmh 29.92 in1013.2 mb 0.00 in0.0 mm 0.00 in0.0 mm 0.00 in0.0 mm
06:08 AM 40.9°F4.9°C 37.6°F3.1°C 88% 13.1 mph ENE21.1 kmh ENE 18.0 mph29.0 kmh 29.92 in1013.2 mb 0.00 in0.0 mm 0.00 in0.0 mm 0.00 in0.0 mm
06:09 AM 40.9°F4.9°C 37.6°F3.1°C 88% 12.7 mph ENE20.4 kmh ENE 17.0 mph27.4 kmh 29.92 in1013.2 mb 0.00 in0.0 mm 0.00 in0.0 mm 0.00 in0.0 mm
06:10 AM 40.8°F4.9°C 37.5°F3.1°C 88% 13.3 mph E21.4 kmh E 17.0 mph27.4 kmh 29.92 in1013.2 mb 0.00 in0.0 mm 0.00 in0.0 mm 0.00 in0.0 mm
06:11 AM 40.9°F4.9°C 37.6°F3.1°C 88% 8.5 mph ENE13.7 kmh ENE 17.0 mph27.4 kmh 29.92 in1013.2 mb 0.00 in0.0 mm 0.00 in0.0 mm 0.00 in0.0 mm
06:12 AM 40.8°F4.9°C 37.5°F3.1°C 88% 12.4 mph ENE20.0 kmh ENE 17.0 mph27.4 kmh 29.92 in1013.2 mb 0.00 in0.0 mm 0.00 in0.0 mm 0.00 in0.0 mm
06:13 AM 40.9°F4.9°C 37.6°F3.1°C 88% 11.1 mph ENE17.9 kmh ENE 17.0 mph27.4 kmh 29.92 in1013.2 mb 0.00 in0.0 mm 0.00 in0.0 mm 0.00 in0.0 mm
06:14 AM 40.9°F4.9°C 37.6°F3.1°C 88% 12.7 mph ENE20.4 kmh ENE 16.0 mph25.7 kmh 29.92 in1013.2 mb 0.00 in0.0 mm 0.00 in0.0 mm 0.00 in0.0 mm
06:15 AM 40.9°F4.9°C 37.6°F3.1°C 88% 8.6 mph NE13.8 kmh NE 16.0 mph25.7 kmh 29.92 in1013.2 mb 0.00 in0.0 mm 0.00 in0.0 mm 0.00 in0.0 mm
06:16 AM 40.9°F4.9°C 37.9°F3.3°C 89% 12.7 mph NE20.4 kmh NE 17.0 mph27.4 kmh 29.92 in1013.2 mb 0.00 in0.0 mm 0.00 in0.0 mm 0.00 in0.0 mm
06:17 AM 40.9°F4.9°C 37.9°F3.3°C 89% 14.5 mph NE23.3 kmh NE 18.0 mph29.0 kmh 29.92 in1013.2 mb 0.00 in0.0 mm 0.00 in0.0 mm 0.00 in0.0 mm
06:18 AM 40.9°F4.9°C 37.6°F3.1°C 88% 11.9 mph NE19.2 kmh NE 18.0 mph29.0 kmh 29.92 in1013.2 mb 0.00 in0.0 mm 0.00 in0.0 mm 0.00 in0.0 mm
06:19 AM 40.9°F4.9°C 37.6°F3.1°C 88% 13.2 mph NE21.2 kmh NE 17.0 mph27.4 kmh 29.92 in1013.2 mb 0.00 in0.0 mm 0.00 in0.0 mm 0.00 in0.0 mm
06:20 AM 40.8°F4.9°C 37.5°F3.1°C 88% 12.3 mph NE19.8 kmh NE 17.0 mph27.4 kmh 29.92 in1013.2 mb 0.00 in0.0 mm 0.00 in0.0 mm 0.00 in0.0 mm
06:21 AM 40.9°F4.9°C 37.6°F3.1°C 88% 12.9 mph NE20.8 kmh NE 18.0 mph29.0 kmh 29.92 in1013.2 mb 0.00 in0.0 mm 0.00 in0.0 mm 0.00 in0.0 mm
06:22 AM 40.9°F4.9°C 37.6°F3.1°C 88% 12.5 mph ENE20.1 kmh ENE 18.0 mph29.0 kmh 29.92 in1013.2 mb 0.00 in0.0 mm 0.00 in0.0 mm 0.00 in0.0 mm
06:23 AM 40.9°F4.9°C 37.6°F3.1°C 88% 12.8 mph NE20.6 kmh NE 16.0 mph25.7 kmh 29.92 in1013.2 mb 0.00 in0.0 mm 0.00 in0.0 mm 0.00 in0.0 mm
06:24 AM 40.8°F4.9°C 37.5°F3.1°C 88% 15.2 mph ENE24.5 kmh ENE 19.0 mph30.6 kmh 29.92 in1013.2 mb 0.00 in0.0 mm 0.00 in0.0 mm 0.00 in0.0 mm
06:25 AM 40.8°F4.9°C 37.5°F3.1°C 88% 12.9 mph ENE20.8 kmh ENE 19.0 mph30.6 kmh 29.92 in1013.2 mb 0.00 in0.0 mm 0.00 in0.0 mm 0.00 in0.0 mm
06:26 AM 40.9°F4.9°C 37.6°F3.1°C 88% 12.2 mph ENE19.6 kmh ENE 17.0 mph27.4 kmh 29.92 in1013.2 mb 0.00 in0.0 mm 0.00 in0.0 mm 0.00 in0.0 mm
06:27 AM 40.8°F4.9°C 37.5°F3.1°C 88% 10.7 mph NE17.2 kmh NE 17.0 mph27.4 kmh 29.92 in1013.2 mb 0.00 in0.0 mm 0.00 in0.0 mm 0.00 in0.0 mm
06:28 AM 40.9°F4.9°C 37.6°F3.1°C 88% 12.7 mph NE20.4 kmh NE 18.0 mph29.0 kmh 29.92 in1013.2 mb 0.00 in0.0 mm 0.00 in0.0 mm 0.00 in0.0 mm
06:29 AM 40.9°F4.9°C 37.6°F3.1°C 88% 11.9 mph NE19.2 kmh NE 18.0 mph29.0 kmh 29.92 in1013.2 mb 0.00 in0.0 mm 0.00 in0.0 mm 0.00 in0.0 mm
06:30 AM 40.8°F4.9°C 37.5°F3.1°C 88% 11.6 mph NE18.7 kmh NE 17.0 mph27.4 kmh 29.92 in1013.2 mb 0.00 in0.0 mm 0.00 in0.0 mm 0.00 in0.0 mm
06:31 AM 40.8°F4.9°C 37.5°F3.1°C 88% 11.1 mph ENE17.9 kmh ENE 15.0 mph24.1 kmh 29.92 in1013.2 mb 0.00 in0.0 mm 0.00 in0.0 mm 0.00 in0.0 mm
06:32 AM 40.8°F4.9°C 37.5°F3.1°C 88% 12.2 mph NE19.6 kmh NE 16.0 mph25.7 kmh 29.92 in1013.2 mb 0.00 in0.0 mm 0.00 in0.0 mm 0.00 in0.0 mm
06:33 AM 40.8°F4.9°C 37.5°F3.1°C 88% 14.4 mph NE23.2 kmh NE 17.0 mph27.4 kmh 29.92 in1013.2 mb 0.00 in0.0 mm 0.00 in0.0 mm 0.00 in0.0 mm
06:34 AM 40.9°F4.9°C 37.6°F3.1°C 88% 13.0 mph NE20.9 kmh NE 17.0 mph27.4 kmh 29.92 in1013.2 mb 0.00 in0.0 mm 0.00 in0.0 mm 0.00 in0.0 mm
06:35 AM 40.8°F4.9°C 37.5°F3.1°C 88% 13.1 mph NE21.1 kmh NE 19.0 mph30.6 kmh 29.92 in1013.2 mb 0.00 in0.0 mm 0.00 in0.0 mm 0.00 in0.0 mm
06:36 AM 40.8°F4.9°C 37.5°F3.1°C 88% 14.1 mph NE22.7 kmh NE 19.0 mph30.6 kmh 29.92 in1013.2 mb 0.00 in0.0 mm 0.00 in0.0 mm 0.00 in0.0 mm
06:37 AM 40.9°F4.9°C 37.6°F3.1°C 88% 11.7 mph NE18.8 kmh NE 19.0 mph30.6 kmh 29.92 in1013.2 mb 0.00 in0.0 mm 0.00 in0.0 mm 0.00 in0.0 mm
06:38 AM 40.8°F4.9°C 37.5°F3.1°C 88% 16.2 mph ENE26.1 kmh ENE 20.0 mph32.2 kmh 29.92 in1013.2 mb 0.00 in0.0 mm 0.00 in0.0 mm 0.00 in0.0 mm
06:39 AM 40.9°F4.9°C 37.6°F3.1°C 88% 15.3 mph ENE24.6 kmh ENE 22.0 mph35.4 kmh 29.92 in1013.2 mb 0.00 in0.0 mm 0.00 in0.0 mm 0.00 in0.0 mm
06:40 AM 40.9°F4.9°C 37.6°F3.1°C 88% 14.0 mph NE22.5 kmh NE 22.0 mph35.4 kmh 29.92 in1013.2 mb 0.00 in0.0 mm 0.00 in0.0 mm 0.00 in0.0 mm
06:41 AM 40.8°F4.9°C 37.5°F3.1°C 88% 13.5 mph NE21.7 kmh NE 22.0 mph35.4 kmh 29.92 in1013.2 mb 0.00 in0.0 mm 0.00 in0.0 mm 0.00 in0.0 mm
06:42 AM 40.9°F4.9°C 37.6°F3.1°C 88% 12.2 mph NE19.6 kmh NE 18.0 mph29.0 kmh 29.92 in1013.2 mb 0.00 in0.0 mm 0.00 in0.0 mm 0.00 in0.0 mm
06:43 AM 40.9°F4.9°C 37.6°F3.1°C 88% 15.6 mph NE25.1 kmh NE 21.0 mph33.8 kmh 29.92 in1013.2 mb 0.00 in0.0 mm 0.00 in0.0 mm 0.00 in0.0 mm
06:44 AM 40.9°F4.9°C 37.6°F3.1°C 88% 17.4 mph NE28.0 kmh NE 21.0 mph33.8 kmh 29.92 in1013.2 mb 0.00 in0.0 mm 0.00 in0.0 mm 0.00 in0.0 mm
06:45 AM 40.9°F4.9°C 37.6°F3.1°C 88% 15.3 mph ENE24.6 kmh ENE 21.0 mph33.8 kmh 29.92 in1013.2 mb 0.00 in0.0 mm 0.00 in0.0 mm 0.00 in0.0 mm
06:46 AM 41.0°F5.0°C 37.7°F3.2°C 88% 14.4 mph NE23.2 kmh NE 21.0 mph33.8 kmh 29.92 in1013.2 mb 0.00 in0.0 mm 0.00 in0.0 mm 0.00 in0.0 mm
06:47 AM 41.0°F5.0°C 37.7°F3.2°C 88% 13.8 mph NE22.2 kmh NE 21.0 mph33.8 kmh 29.93 in1013.5 mb 0.00 in0.0 mm 0.00 in0.0 mm 0.00 in0.0 mm
06:48 AM 41.0°F5.0°C 37.7°F3.2°C 88% 13.9 mph NE22.4 kmh NE 21.0 mph33.8 kmh 29.93 in1013.5 mb 0.00 in0.0 mm 0.00 in0.0 mm 0.00 in0.0 mm
06:49 AM 41.0°F5.0°C 37.7°F3.2°C 88% 14.1 mph NE22.7 kmh NE 21.0 mph33.8 kmh 29.92 in1013.2 mb 0.00 in0.0 mm 0.00 in0.0 mm 0.00 in0.0 mm
06:50 AM 41.1°F5.1°C 37.8°F3.2°C 88% 10.5 mph NE16.9 kmh NE 20.0 mph32.2 kmh 29.93 in1013.5 mb 0.00 in0.0 mm 0.00 in0.0 mm 0.00 in0.0 mm
06:51 AM 41.0°F5.0°C 37.7°F3.2°C 88% 12.6 mph NE20.3 kmh NE 15.0 mph24.1 kmh 29.93 in1013.5 mb 0.00 in0.0 mm 0.00 in0.0 mm 0.00 in0.0 mm
06:52 AM 41.0°F5.0°C 37.7°F3.2°C 88% 15.2 mph NE24.5 kmh NE 22.0 mph35.4 kmh 29.93 in1013.5 mb 0.00 in0.0 mm 0.00 in0.0 mm 0.00 in0.0 mm
06:53 AM 41.1°F5.1°C 37.8°F3.2°C 88% 13.7 mph ENE22.0 kmh ENE 22.0 mph35.4 kmh 29.93 in1013.5 mb 0.00 in0.0 mm 0.00 in0.0 mm 0.00 in0.0 mm
06:54 AM 41.1°F5.1°C 37.8°F3.2°C 88% 13.5 mph ENE21.7 kmh ENE 19.0 mph30.6 kmh 29.93 in1013.5 mb 0.00 in0.0 mm 0.00 in0.0 mm 0.00 in0.0 mm
06:55 AM 41.1°F5.1°C 37.8°F3.2°C 88% 9.8 mph ENE15.8 kmh ENE 19.0 mph30.6 kmh 29.93 in1013.5 mb 0.00 in0.0 mm 0.00 in0.0 mm 0.00 in0.0 mm
06:56 AM 41.1°F5.1°C 37.8°F3.2°C 88% 13.3 mph ENE21.4 kmh ENE 20.0 mph32.2 kmh 29.93 in1013.5 mb 0.00 in0.0 mm 0.00 in0.0 mm 0.00 in0.0 mm
06:57 AM 41.1°F5.1°C 37.8°F3.2°C 88% 14.0 mph NE22.5 kmh NE 20.0 mph32.2 kmh 29.93 in1013.5 mb 0.00 in0.0 mm 0.00 in0.0 mm 0.00 in0.0 mm
06:58 AM 41.1°F5.1°C 37.8°F3.2°C 88% 11.4 mph E18.3 kmh E 20.0 mph32.2 kmh 29.93 in1013.5 mb 0.00 in0.0 mm 0.00 in0.0 mm 0.00 in0.0 mm
06:59 AM 41.2°F5.1°C 37.9°F3.3°C 88% 14.0 mph NE22.5 kmh NE 20.0 mph32.2 kmh 29.93 in1013.5 mb 0.00 in0.0 mm 0.00 in0.0 mm 0.00 in0.0 mm
07:00 AM 41.2°F5.1°C 37.9°F3.3°C 88% 13.3 mph ENE21.4 kmh ENE 20.0 mph32.2 kmh 29.93 in1013.5 mb 0.00 in0.0 mm 0.00 in0.0 mm 0.00 in0.0 mm
07:01 AM 41.2°F5.1°C 37.9°F3.3°C 88% 8.8 mph ENE14.2 kmh ENE 19.0 mph30.6 kmh 29.93 in1013.5 mb 0.00 in0.0 mm 0.00 in0.0 mm 0.00 in0.0 mm
07:02 AM 41.2°F5.1°C 37.9°F3.3°C 88% 7.7 mph ENE12.4 kmh ENE 15.0 mph24.1 kmh 29.93 in1013.5 mb 0.00 in0.0 mm 0.00 in0.0 mm 0.00 in0.0 mm
07:03 AM 41.2°F5.1°C 37.9°F3.3°C 88% 7.3 mph NE11.7 kmh NE 10.0 mph16.1 kmh 29.93 in1013.5 mb 0.00 in0.0 mm 0.00 in0.0 mm 0.00 in0.0 mm
07:04 AM 41.3°F5.2°C 38.0°F3.3°C 88% 10.6 mph ENE17.1 kmh ENE 17.0 mph27.4 kmh 29.93 in1013.5 mb 0.00 in0.0 mm 0.00 in0.0 mm 0.00 in0.0 mm
07:05 AM 41.2°F5.1°C 37.9°F3.3°C 88% 14.5 mph ENE23.3 kmh ENE 18.0 mph29.0 kmh 29.93 in1013.5 mb 0.00 in0.0 mm 0.00 in0.0 mm 0.00 in0.0 mm
07:06 AM 41.3°F5.2°C 38.0°F3.3°C 88% 17.3 mph ENE27.8 kmh ENE 22.0 mph35.4 kmh 29.93 in1013.5 mb 0.00 in0.0 mm 0.00 in0.0 mm 0.00 in0.0 mm
07:07 AM 41.3°F5.2°C 38.0°F3.3°C 88% 14.9 mph ENE24.0 kmh ENE 22.0 mph35.4 kmh 29.93 in1013.5 mb 0.00 in0.0 mm 0.00 in0.0 mm 0.00 in0.0 mm
07:08 AM 41.3°F5.2°C 38.0°F3.3°C 88% 11.3 mph ENE18.2 kmh ENE 17.0 mph27.4 kmh 29.93 in1013.5 mb 0.00 in0.0 mm 0.00 in0.0 mm 0.00 in0.0 mm
07:09 AM 41.3°F5.2°C 38.0°F3.3°C 88% 10.4 mph NE16.7 kmh NE 14.0 mph22.5 kmh 29.93 in1013.5 mb 0.00 in0.0 mm 0.00 in0.0 mm 0.00 in0.0 mm
07:10 AM 41.3°F5.2°C 38.0°F3.3°C 88% 12.9 mph NE20.8 kmh NE 21.0 mph33.8 kmh 29.93 in1013.5 mb 0.00 in0.0 mm 0.00 in0.0 mm 0.00 in0.0 mm
07:11 AM 41.4°F5.2°C 38.1°F3.4°C 88% 15.3 mph NE24.6 kmh NE 21.0 mph33.8 kmh 29.93 in1013.5 mb 0.00 in0.0 mm 0.00 in0.0 mm 0.00 in0.0 mm
07:12 AM 41.4°F5.2°C 38.1°F3.4°C 88% 12.8 mph NE20.6 kmh NE 21.0 mph33.8 kmh 29.93 in1013.5 mb 0.00 in0.0 mm 0.00 in0.0 mm 0.00 in0.0 mm
07:13 AM 41.5°F5.3°C 37.9°F3.3°C 87% 15.6 mph ENE25.1 kmh ENE 22.0 mph35.4 kmh 29.93 in1013.5 mb 0.00 in0.0 mm 0.00 in0.0 mm 0.00 in0.0 mm
07:14 AM 41.4°F5.2°C 37.8°F3.2°C 87% 14.5 mph ENE23.3 kmh ENE 22.0 mph35.4 kmh 29.93 in1013.5 mb 0.00 in0.0 mm 0.00 in0.0 mm 0.00 in0.0 mm
07:15 AM 41.5°F5.3°C 37.9°F3.3°C 87% 14.1 mph ENE22.7 kmh ENE 21.0 mph33.8 kmh 29.93 in1013.5 mb 0.00 in0.0 mm 0.00 in0.0 mm 0.00 in0.0 mm
07:16 AM 41.5°F5.3°C 37.9°F3.3°C 87% 14.2 mph ENE22.9 kmh ENE 18.0 mph29.0 kmh 29.93 in1013.5 mb 0.00 in0.0 mm 0.00 in0.0 mm 0.00 in0.0 mm
07:17 AM 41.5°F5.3°C 37.9°F3.3°C 87% 12.1 mph NE19.5 kmh NE 18.0 mph29.0 kmh 29.93 in1013.5 mb 0.00 in0.0 mm 0.00 in0.0 mm 0.00 in0.0 mm
07:18 AM 41.5°F5.3°C 37.9°F3.3°C 87% 10.1 mph NE16.3 kmh NE 16.0 mph25.7 kmh 29.93 in1013.5 mb 0.00 in0.0 mm 0.00 in0.0 mm 0.00 in0.0 mm
07:19 AM 41.5°F5.3°C 37.9°F3.3°C 87% 12.0 mph NE19.3 kmh NE 15.0 mph24.1 kmh 29.93 in1013.5 mb 0.00 in0.0 mm 0.00 in0.0 mm 0.00 in0.0 mm
07:20 AM 41.6°F5.3°C 38.0°F3.3°C 87% 12.6 mph NE20.3 kmh NE 17.0 mph27.4 kmh 29.93 in1013.5 mb 0.00 in0.0 mm 0.00 in0.0 mm 0.00 in0.0 mm
07:21 AM 41.6°F5.3°C 38.0°F3.3°C 87% 14.5 mph ENE23.3 kmh ENE 19.0 mph30.6 kmh 29.93 in1013.5 mb 0.00 in0.0 mm 0.00 in0.0 mm 0.00 in0.0 mm
07:22 AM 41.7°F5.4°C 38.1°F3.4°C 87% 11.2 mph ENE18.0 kmh ENE 19.0 mph30.6 kmh 29.93 in1013.5 mb 0.00 in0.0 mm 0.00 in0.0 mm 0.00 in0.0 mm
07:23 AM 41.6°F5.3°C 38.0°F3.3°C 87% 11.7 mph NE18.8 kmh NE 18.0 mph29.0 kmh 29.93 in1013.5 mb 0.00 in0.0 mm 0.00 in0.0 mm 0.00 in0.0 mm
07:24 AM 41.6°F5.3°C 38.0°F3.3°C 87% 10.4 mph NE16.7 kmh NE 18.0 mph29.0 kmh 29.94 in1013.9 mb 0.00 in0.0 mm 0.00 in0.0 mm 0.00 in0.0 mm
07:25 AM 41.7°F5.4°C 38.1°F3.4°C 87% 17.5 mph ENE28.2 kmh ENE 22.0 mph35.4 kmh 29.94 in1013.9 mb 0.00 in0.0 mm 0.00 in0.0 mm 0.00 in0.0 mm
07:26 AM 41.6°F5.3°C 38.0°F3.3°C 87% 14.3 mph ENE23.0 kmh ENE 22.0 mph35.4 kmh 29.93 in1013.5 mb 0.00 in0.0 mm 0.00 in0.0 mm 0.00 in0.0 mm
07:27 AM 41.6°F5.3°C 38.0°F3.3°C 87% 16.0 mph NE25.7 kmh NE 21.0 mph33.8 kmh 29.93 in1013.5 mb 0.00 in0.0 mm 0.00 in0.0 mm 0.00 in0.0 mm
07:28 AM 41.7°F5.4°C 38.1°F3.4°C 87% 10.8 mph NE17.4 kmh NE 19.0 mph30.6 kmh 29.94 in1013.9 mb 0.00 in0.0 mm 0.00 in0.0 mm 0.00 in0.0 mm
07:29 AM 41.7°F5.4°C 38.1°F3.4°C 87% 12.0 mph NE19.3 kmh NE 16.0 mph25.7 kmh 29.93 in1013.5 mb 0.00 in0.0 mm 0.00 in0.0 mm 0.00 in0.0 mm
07:30 AM 41.8°F5.4°C 38.2°F3.4°C 87% 11.5 mph ENE18.5 kmh ENE 16.0 mph25.7 kmh 29.94 in1013.9 mb 0.00 in0.0 mm 0.00 in0.0 mm 0.00 in0.0 mm
07:31 AM 41.7°F5.4°C 38.1°F3.4°C 87% 12.9 mph ENE20.8 kmh ENE 17.0 mph27.4 kmh 29.94 in1013.9 mb 0.00 in0.0 mm 0.00 in0.0 mm 0.00 in0.0 mm
07:32 AM 41.8°F5.4°C 38.2°F3.4°C 87% 11.3 mph ENE18.2 kmh ENE 17.0 mph27.4 kmh 29.94 in1013.9 mb 0.00 in0.0 mm 0.00 in0.0 mm 0.00 in0.0 mm
07:33 AM 41.7°F5.4°C 38.1°F3.4°C 87% 14.4 mph NE23.2 kmh NE 17.0 mph27.4 kmh 29.94 in1013.9 mb 0.00 in0.0 mm 0.00 in0.0 mm 0.00 in0.0 mm
07:34 AM 41.8°F5.4°C 38.2°F3.4°C 87% 15.0 mph NE24.1 kmh NE 18.0 mph29.0 kmh 29.93 in1013.5 mb 0.00 in0.0 mm 0.00 in0.0 mm 0.00 in0.0 mm
07:35 AM 41.8°F5.4°C 38.2°F3.4°C 87% 13.8 mph ENE22.2 kmh ENE 18.0 mph29.0 kmh 29.94 in1013.9 mb 0.00 in0.0 mm 0.00 in0.0 mm 0.00 in0.0 mm
07:36 AM 41.8°F5.4°C 37.9°F3.3°C 86% 14.3 mph ENE23.0 kmh ENE 18.0 mph29.0 kmh 29.94 in1013.9 mb 0.00 in0.0 mm 0.00 in0.0 mm 0.00 in0.0 mm
07:37 AM 41.8°F5.4°C 37.9°F3.3°C 86% 12.9 mph ENE20.8 kmh ENE 18.0 mph29.0 kmh 29.94 in1013.9 mb 0.00 in0.0 mm 0.00 in0.0 mm 0.00 in0.0 mm
07:38 AM 41.8°F5.4°C 37.9°F3.3°C 86% 11.4 mph ENE18.3 kmh ENE 17.0 mph27.4 kmh 29.94 in1013.9 mb 0.00 in0.0 mm 0.00 in0.0 mm 0.00 in0.0 mm
07:39 AM 41.8°F5.4°C 37.9°F3.3°C 86% 14.6 mph E23.5 kmh E 19.0 mph30.6 kmh 29.94 in1013.9 mb 0.00 in0.0 mm 0.00 in0.0 mm 0.00 in0.0 mm
07:40 AM 41.9°F5.5°C 38.0°F3.3°C 86% 9.7 mph NE15.6 kmh NE 19.0 mph30.6 kmh 29.94 in1013.9 mb 0.00 in0.0 mm 0.00 in0.0 mm 0.00 in0.0 mm
07:41 AM 41.9°F5.5°C 38.0°F3.3°C 86% 13.1 mph NE21.1 kmh NE 17.0 mph27.4 kmh 29.94 in1013.9 mb 0.00 in0.0 mm 0.00 in0.0 mm 0.00 in0.0 mm
07:42 AM 41.8°F5.4°C 37.9°F3.3°C 86% 12.1 mph ENE19.5 kmh ENE 19.0 mph30.6 kmh 29.94 in1013.9 mb 0.00 in0.0 mm 0.00 in0.0 mm 0.00 in0.0 mm
07:43 AM 41.9°F5.5°C 38.0°F3.3°C 86% 17.4 mph NE28.0 kmh NE 21.0 mph33.8 kmh 29.94 in1013.9 mb 0.00 in0.0 mm 0.00 in0.0 mm 0.00 in0.0 mm
07:44 AM 41.9°F5.5°C 38.0°F3.3°C 86% 13.1 mph ENE21.1 kmh ENE 21.0 mph33.8 kmh 29.94 in1013.9 mb 0.00 in0.0 mm 0.00 in0.0 mm 0.00 in0.0 mm
07:45 AM 41.9°F5.5°C 38.0°F3.3°C 86% 10.5 mph ENE16.9 kmh ENE 18.0 mph29.0 kmh 29.94 in1013.9 mb 0.00 in0.0 mm 0.00 in0.0 mm 0.00 in0.0 mm
07:46 AM 41.9°F5.5°C 38.0°F3.3°C 86% 9.8 mph NE15.8 kmh NE 14.0 mph22.5 kmh 29.94 in1013.9 mb 0.00 in0.0 mm 0.00 in0.0 mm 0.00 in0.0 mm
07:47 AM 41.9°F5.5°C 38.0°F3.3°C 86% 7.7 mph ENE12.4 kmh ENE 13.0 mph20.9 kmh 29.94 in1013.9 mb 0.00 in0.0 mm 0.00 in0.0 mm 0.00 in0.0 mm
07:48 AM 42.0°F5.6°C 38.1°F3.4°C 86% 10.5 mph NE16.9 kmh NE 16.0 mph25.7 kmh 29.94 in1013.9 mb 0.00 in0.0 mm 0.00 in0.0 mm 0.00 in0.0 mm
07:49 AM 42.0°F5.6°C 38.1°F3.4°C 86% 10.4 mph ENE16.7 kmh ENE 16.0 mph25.7 kmh 29.94 in1013.9 mb 0.00 in0.0 mm 0.00 in0.0 mm 0.00 in0.0 mm
07:50 AM 42.0°F5.6°C 38.1°F3.4°C 86% 10.3 mph ENE16.6 kmh ENE 14.0 mph22.5 kmh 29.95 in1014.2 mb 0.00 in0.0 mm 0.00 in0.0 mm 0.00 in0.0 mm
07:51 AM 42.0°F5.6°C 38.1°F3.4°C 86% 10.7 mph ENE17.2 kmh ENE 14.0 mph22.5 kmh 29.95 in1014.2 mb 0.00 in0.0 mm 0.00 in0.0 mm 0.00 in0.0 mm
07:52 AM 42.0°F5.6°C 38.1°F3.4°C 86% 7.8 mph E12.6 kmh E 13.0 mph20.9 kmh 29.95 in1014.2 mb 0.00 in0.0 mm 0.00 in0.0 mm 0.00 in0.0 mm
07:53 AM 42.1°F5.6°C 38.2°F3.4°C 86% 11.1 mph NE17.9 kmh NE 16.0 mph25.7 kmh 29.95 in1014.2 mb 0.00 in0.0 mm 0.00 in0.0 mm 0.00 in0.0 mm
07:54 AM 42.0°F5.6°C 38.1°F3.4°C 86% 12.1 mph E19.5 kmh E 20.0 mph32.2 kmh 29.95 in1014.2 mb 0.00 in0.0 mm 0.00 in0.0 mm 0.00 in0.0 mm
07:55 AM 42.1°F5.6°C 38.2°F3.4°C 86% 14.6 mph E23.5 kmh E 20.0 mph32.2 kmh 29.95 in1014.2 mb 0.00 in0.0 mm 0.00 in0.0 mm 0.00 in0.0 mm
07:56 AM 42.0°F5.6°C 38.1°F3.4°C 86% 15.4 mph NE24.8 kmh NE 20.0 mph32.2 kmh 29.95 in1014.2 mb 0.00 in0.0 mm 0.00 in0.0 mm 0.00 in0.0 mm
07:57 AM 42.1°F5.6°C 38.2°F3.4°C 86% 16.9 mph NE27.2 kmh NE 22.0 mph35.4 kmh 29.95 in1014.2 mb 0.00 in0.0 mm 0.00 in0.0 mm 0.00 in0.0 mm
07:58 AM 42.1°F5.6°C 38.2°F3.4°C 86% 17.9 mph ENE28.8 kmh ENE 28.0 mph45.1 kmh 29.95 in1014.2 mb 0.00 in0.0 mm 0.00 in0.0 mm 0.00 in0.0 mm
07:59 AM 42.1°F5.6°C 38.2°F3.4°C 86% 11.2 mph ENE18.0 kmh ENE 28.0 mph45.1 kmh 29.95 in1014.2 mb 0.00 in0.0 mm 0.00 in0.0 mm 0.00 in0.0 mm
08:00 AM 42.1°F5.6°C 38.2°F3.4°C 86% 9.8 mph E15.8 kmh E 14.0 mph22.5 kmh 29.95 in1014.2 mb 0.00 in0.0 mm 0.00 in0.0 mm 0.00 in0.0 mm
08:01 AM 42.1°F5.6°C 38.2°F3.4°C 86% 11.9 mph E19.2 kmh E 16.0 mph25.7 kmh 29.95 in1014.2 mb 0.00 in0.0 mm 0.00 in0.0 mm 0.00 in0.0 mm
08:02 AM 42.1°F5.6°C 38.2°F3.4°C 86% 12.8 mph ENE20.6 kmh ENE 16.0 mph25.7 kmh 29.95 in1014.2 mb 0.00 in0.0 mm 0.00 in0.0 mm 0.00 in0.0 mm
08:03 AM 42.1°F5.6°C 38.2°F3.4°C 86% 13.7 mph E22.0 kmh E 19.0 mph30.6 kmh 29.95 in1014.2 mb 0.00 in0.0 mm 0.00 in0.0 mm 0.00 in0.0 mm
08:04 AM 42.2°F5.7°C 38.0°F3.3°C 85% 13.5 mph ENE21.7 kmh ENE 19.0 mph30.6 kmh 29.95 in1014.2 mb 0.00 in0.0 mm 0.00 in0.0 mm 0.00 in0.0 mm
08:05 AM 42.1°F5.6°C 37.9°F3.3°C 85% 10.9 mph ENE17.5 kmh ENE 16.0 mph25.7 kmh 29.95 in1014.2 mb 0.00 in0.0 mm 0.00 in0.0 mm 0.00 in0.0 mm
08:06 AM 42.2°F5.7°C 38.0°F3.3°C 85% 12.8 mph ENE20.6 kmh ENE 16.0 mph25.7 kmh 29.95 in1014.2 mb 0.00 in0.0 mm 0.00 in0.0 mm 0.00 in0.0 mm
08:07 AM 42.1°F5.6°C 38.2°F3.4°C 86% 11.3 mph E18.2 kmh E 17.0 mph27.4 kmh 29.95 in1014.2 mb 0.00 in0.0 mm 0.00 in0.0 mm 0.00 in0.0 mm
08:08 AM 42.2°F5.7°C 38.3°F3.5°C 86% 13.8 mph ENE22.2 kmh ENE 19.0 mph30.6 kmh 29.95 in1014.2 mb 0.00 in0.0 mm 0.00 in0.0 mm 0.00 in0.0 mm
08:09 AM 42.2°F5.7°C 38.3°F3.5°C 86% 13.6 mph E21.9 kmh E 19.0 mph30.6 kmh 29.95 in1014.2 mb 0.00 in0.0 mm 0.00 in0.0 mm 0.00 in0.0 mm
08:10 AM 42.2°F5.7°C 38.0°F3.3°C 85% 14.8 mph E23.8 kmh E 21.0 mph33.8 kmh 29.95 in1014.2 mb 0.00 in0.0 mm 0.00 in0.0 mm 0.00 in0.0 mm
08:11 AM 42.2°F5.7°C 38.0°F3.3°C 85% 17.2 mph ENE27.7 kmh ENE 21.0 mph33.8 kmh 29.95 in1014.2 mb 0.00 in0.0 mm 0.00 in0.0 mm 0.00 in0.0 mm
08:12 AM 42.2°F5.7°C 38.0°F3.3°C 85% 14.5 mph E23.3 kmh E 21.0 mph33.8 kmh 29.95 in1014.2 mb 0.00 in0.0 mm 0.00 in0.0 mm 0.00 in0.0 mm
08:13 AM 42.2°F5.7°C 38.0°F3.3°C 85% 9.3 mph ENE15.0 kmh ENE 18.0 mph29.0 kmh 29.95 in1014.2 mb 0.00 in0.0 mm 0.00 in0.0 mm 0.00 in0.0 mm
08:14 AM 42.2°F5.7°C 38.0°F3.3°C 85% 9.8 mph ENE15.8 kmh ENE 15.0 mph24.1 kmh 29.95 in1014.2 mb 0.00 in0.0 mm 0.00 in0.0 mm 0.00 in0.0 mm
08:15 AM 42.2°F5.7°C 38.0°F3.3°C 85% 13.4 mph ENE21.6 kmh ENE 22.0 mph35.4 kmh 29.95 in1014.2 mb 0.00 in0.0 mm 0.00 in0.0 mm 0.00 in0.0 mm
08:16 AM 42.2°F5.7°C 38.0°F3.3°C 85% 13.3 mph ENE21.4 kmh ENE 22.0 mph35.4 kmh 29.95 in1014.2 mb 0.00 in0.0 mm 0.00 in0.0 mm 0.00 in0.0 mm
08:17 AM 42.2°F5.7°C 38.0°F3.3°C 85% 13.8 mph ENE22.2 kmh ENE 20.0 mph32.2 kmh 29.95 in1014.2 mb 0.00 in0.0 mm 0.00 in0.0 mm 0.00 in0.0 mm
08:18 AM 42.2°F5.7°C 38.0°F3.3°C 85% 12.9 mph NE20.8 kmh NE 20.0 mph32.2 kmh 29.95 in1014.2 mb 0.00 in0.0 mm 0.00 in0.0 mm 0.00 in0.0 mm
08:19 AM 42.2°F5.7°C 38.0°F3.3°C 85% 13.5 mph ENE21.7 kmh ENE 18.0 mph29.0 kmh 29.95 in1014.2 mb 0.00 in0.0 mm 0.00 in0.0 mm 0.00 in0.0 mm
08:20 AM 42.3°F5.7°C 38.1°F3.4°C 85% 13.5 mph ENE21.7 kmh ENE 18.0 mph29.0 kmh 29.95 in1014.2 mb 0.00 in0.0 mm 0.00 in0.0 mm 0.00 in0.0 mm
08:21 AM 42.3°F5.7°C 38.1°F3.4°C 85% 11.9 mph NE19.2 kmh NE 17.0 mph27.4 kmh 29.95 in1014.2 mb 0.00 in0.0 mm 0.00 in0.0 mm 0.00 in0.0 mm
08:22 AM 42.3°F5.7°C 38.1°F3.4°C 85% 13.5 mph ENE21.7 kmh ENE 18.0 mph29.0 kmh 29.95 in1014.2 mb 0.00 in0.0 mm 0.00 in0.0 mm 0.00 in0.0 mm
08:23 AM 42.3°F5.7°C 38.1°F3.4°C 85% 13.4 mph ENE21.6 kmh ENE 18.0 mph29.0 kmh 29.95 in1014.2 mb 0.00 in0.0 mm 0.00 in0.0 mm 0.00 in0.0 mm
08:24 AM 42.3°F5.7°C 38.1°F3.4°C 85% 10.3 mph ENE16.6 kmh ENE 17.0 mph27.4 kmh 29.95 in1014.2 mb 0.00 in0.0 mm 0.00 in0.0 mm 0.00 in0.0 mm
08:25 AM 42.3°F5.7°C 38.1°F3.4°C 85% 9.0 mph ENE14.5 kmh ENE 14.0 mph22.5 kmh 29.95 in1014.2 mb 0.00 in0.0 mm 0.00 in0.0 mm 0.00 in0.0 mm
08:26 AM 42.3°F5.7°C 38.1°F3.4°C 85% 9.0 mph ENE14.5 kmh ENE 14.0 mph22.5 kmh 29.95 in1014.2 mb 0.00 in0.0 mm 0.00 in0.0 mm 0.00 in0.0 mm
08:27 AM 42.4°F5.8°C 38.2°F3.4°C 85% 10.4 mph NE16.7 kmh NE 15.0 mph24.1 kmh 29.95 in1014.2 mb 0.00 in0.0 mm 0.00 in0.0 mm 0.00 in0.0 mm
08:28 AM 42.4°F5.8°C 38.2°F3.4°C 85% 12.9 mph ENE20.8 kmh ENE 18.0 mph29.0 kmh 29.95 in1014.2 mb 0.00 in0.0 mm 0.00 in0.0 mm 0.00 in0.0 mm
08:29 AM 42.4°F5.8°C 38.2°F3.4°C 85% 15.5 mph NE24.9 kmh NE 26.0 mph41.8 kmh 29.95 in1014.2 mb 0.00 in0.0 mm 0.00 in0.0 mm 0.00 in0.0 mm
08:30 AM 42.3°F5.7°C 38.1°F3.4°C 85% 13.9 mph ENE22.4 kmh ENE 26.0 mph41.8 kmh 29.95 in1014.2 mb 0.00 in0.0 mm 0.00 in0.0 mm 0.00 in0.0 mm
08:31 AM 42.3°F5.7°C 38.1°F3.4°C 85% 14.1 mph NE22.7 kmh NE 20.0 mph32.2 kmh 29.95 in1014.2 mb 0.00 in0.0 mm 0.00 in0.0 mm 0.00 in0.0 mm
08:32 AM 42.3°F5.7°C 38.1°F3.4°C 85% 10.7 mph E17.2 kmh E 20.0 mph32.2 kmh 29.95 in1014.2 mb 0.00 in0.0 mm 0.00 in0.0 mm 0.00 in0.0 mm
08:33 AM 42.4°F5.8°C 37.9°F3.3°C 84% 15.2 mph ENE24.5 kmh ENE 21.0 mph33.8 kmh 29.96 in1014.6 mb 0.00 in0.0 mm 0.00 in0.0 mm 0.00 in0.0 mm
08:34 AM 42.3°F5.7°C 38.1°F3.4°C 85% 15.8 mph ENE25.4 kmh ENE 21.0 mph33.8 kmh 29.95 in1014.2 mb 0.00 in0.0 mm 0.00 in0.0 mm 0.00 in0.0 mm
08:35 AM 42.3°F5.7°C 37.8°F3.2°C 84% 15.0 mph ENE24.1 kmh ENE 22.0 mph35.4 kmh 29.95 in1014.2 mb 0.00 in0.0 mm 0.00 in0.0 mm 0.00 in0.0 mm
08:36 AM 42.3°F5.7°C 37.8°F3.2°C 84% 12.2 mph ENE19.6 kmh ENE 22.0 mph35.4 kmh 29.95 in1014.2 mb 0.00 in0.0 mm 0.00 in0.0 mm 0.00 in0.0 mm
08:37 AM 42.3°F5.7°C 37.8°F3.2°C 84% 10.5 mph ENE16.9 kmh ENE 16.0 mph25.7 kmh 29.95 in1014.2 mb 0.00 in0.0 mm 0.00 in0.0 mm 0.00 in0.0 mm
08:38 AM 42.3°F5.7°C 37.8°F3.2°C 84% 13.7 mph ENE22.0 kmh ENE 19.0 mph30.6 kmh 29.96 in1014.6 mb 0.00 in0.0 mm 0.00 in0.0 mm 0.00 in0.0 mm
08:39 AM 42.3°F5.7°C 38.1°F3.4°C 85% 11.0 mph ENE17.7 kmh ENE 19.0 mph30.6 kmh 29.95 in1014.2 mb 0.00 in0.0 mm 0.00 in0.0 mm 0.00 in0.0 mm
08:40 AM 42.3°F5.7°C 37.8°F3.2°C 84% 10.8 mph ENE17.4 kmh ENE 16.0 mph25.7 kmh 29.95 in1014.2 mb 0.00 in0.0 mm 0.00 in0.0 mm 0.00 in0.0 mm
08:41 AM 42.4°F5.8°C 37.9°F3.3°C 84% 14.0 mph ENE22.5 kmh ENE 20.0 mph32.2 kmh 29.96 in1014.6 mb 0.00 in0.0 mm 0.00 in0.0 mm 0.00 in0.0 mm
08:42 AM 42.4°F5.8°C 38.2°F3.4°C 85% 10.0 mph ENE16.1 kmh ENE 20.0 mph32.2 kmh 29.95 in1014.2 mb 0.00 in0.0 mm 0.00 in0.0 mm 0.00 in0.0 mm
08:43 AM 42.4°F5.8°C 38.2°F3.4°C 85% 15.5 mph ENE24.9 kmh ENE 21.0 mph33.8 kmh 29.96 in1014.6 mb 0.00 in0.0 mm 0.00 in0.0 mm 0.00 in0.0 mm
08:44 AM 42.3°F5.7°C 37.8°F3.2°C 84% 17.7 mph E28.5 kmh E 22.0 mph35.4 kmh 29.95 in1014.2 mb 0.00 in0.0 mm 0.00 in0.0 mm 0.00 in0.0 mm
08:45 AM 42.4°F5.8°C 37.9°F3.3°C 84% 14.6 mph ENE23.5 kmh ENE 22.0 mph35.4 kmh 29.95 in1014.2 mb 0.00 in0.0 mm 0.00 in0.0 mm 0.00 in0.0 mm
08:46 AM 42.4°F5.8°C 37.9°F3.3°C 84% 11.8 mph ENE19.0 kmh ENE 17.0 mph27.4 kmh 29.96 in1014.6 mb 0.00 in0.0 mm 0.00 in0.0 mm 0.00 in0.0 mm
08:47 AM 42.4°F5.8°C 37.9°F3.3°C 84% 8.8 mph ENE14.2 kmh ENE 14.0 mph22.5 kmh 29.95 in1014.2 mb 0.00 in0.0 mm 0.00 in0.0 mm 0.00 in0.0 mm
08:48 AM 42.4°F5.8°C 37.9°F3.3°C 84% 12.2 mph ENE19.6 kmh ENE 15.0 mph24.1 kmh 29.95 in1014.2 mb 0.00 in0.0 mm 0.00 in0.0 mm 0.00 in0.0 mm
08:49 AM 42.4°F5.8°C 37.9°F3.3°C 84% 15.3 mph NE24.6 kmh NE 21.0 mph33.8 kmh 29.96 in1014.6 mb 0.00 in0.0 mm 0.00 in0.0 mm 0.00 in0.0 mm
08:50 AM 42.4°F5.8°C 37.9°F3.3°C 84% 13.3 mph ENE21.4 kmh ENE 21.0 mph33.8 kmh 29.95 in1014.2 mb 0.00 in0.0 mm 0.00 in0.0 mm 0.00 in0.0 mm
08:51 AM 42.4°F5.8°C 37.9°F3.3°C 84% 11.3 mph ENE18.2 kmh ENE 18.0 mph29.0 kmh 29.96 in1014.6 mb 0.00 in0.0 mm 0.00 in0.0 mm 0.00 in0.0 mm
08:52 AM 42.5°F5.8°C 38.0°F3.3°C 84% 10.4 mph NE16.7 kmh NE 15.0 mph24.1 kmh 29.96 in1014.6 mb 0.00 in0.0 mm 0.00 in0.0 mm 0.00 in0.0 mm
08:53 AM 42.5°F5.8°C 38.0°F3.3°C 84% 16.9 mph ENE27.2 kmh ENE 23.0 mph37.0 kmh 29.95 in1014.2 mb 0.00 in0.0 mm 0.00 in0.0 mm 0.00 in0.0 mm
08:54 AM 42.4°F5.8°C 37.9°F3.3°C 84% 16.8 mph ENE27.0 kmh ENE 23.0 mph37.0 kmh 29.95 in1014.2 mb 0.00 in0.0 mm 0.00 in0.0 mm 0.00 in0.0 mm
08:55 AM 42.4°F5.8°C 37.9°F3.3°C 84% 15.0 mph ENE24.1 kmh ENE 22.0 mph35.4 kmh 29.95 in1014.2 mb 0.00 in0.0 mm 0.00 in0.0 mm 0.00 in0.0 mm
08:56 AM 42.4°F5.8°C 37.9°F3.3°C 84% 15.0 mph ENE24.1 kmh ENE 18.0 mph29.0 kmh 29.95 in1014.2 mb 0.00 in0.0 mm 0.00 in0.0 mm 0.00 in0.0 mm
08:57 AM 42.4°F5.8°C 37.9°F3.3°C 84% 7.5 mph NNE12.1 kmh NNE 9.0 mph14.5 kmh 29.95 in1014.2 mb 0.00 in0.0 mm 0.00 in0.0 mm 0.00 in0.0 mm
08:58 AM 42.4°F5.8°C 37.9°F3.3°C 84% 11.4 mph ENE18.3 kmh ENE 23.0 mph37.0 kmh 29.95 in1014.2 mb 0.00 in0.0 mm 0.00 in0.0 mm 0.00 in0.0 mm
08:59 AM 42.5°F5.8°C 38.0°F3.3°C 84% 17.9 mph ENE28.8 kmh ENE 23.0 mph37.0 kmh 29.95 in1014.2 mb 0.00 in0.0 mm 0.00 in0.0 mm 0.00 in0.0 mm
09:00 AM 42.4°F5.8°C 37.9°F3.3°C 84% 14.5 mph NE23.3 kmh NE 22.0 mph35.4 kmh 29.95 in1014.2 mb 0.00 in0.0 mm 0.00 in0.0 mm 0.00 in0.0 mm
09:01 AM 42.5°F5.8°C 38.0°F3.3°C 84% 14.6 mph ENE23.5 kmh ENE 19.0 mph30.6 kmh 29.95 in1014.2 mb 0.00 in0.0 mm 0.00 in0.0 mm 0.00 in0.0 mm
09:02 AM 42.5°F5.8°C 38.0°F3.3°C 84% 20.3 mph ENE32.7 kmh ENE 25.0 mph40.2 kmh 29.95 in1014.2 mb 0.00 in0.0 mm 0.00 in0.0 mm 0.00 in0.0 mm
09:03 AM 42.4°F5.8°C 37.9°F3.3°C 84% 15.9 mph ENE25.6 kmh ENE 25.0 mph40.2 kmh 29.95 in1014.2 mb 0.00 in0.0 mm 0.00 in0.0 mm 0.00 in0.0 mm
09:04 AM 42.5°F5.8°C 38.0°F3.3°C 84% 12.2 mph ENE19.6 kmh ENE 20.0 mph32.2 kmh 29.95 in1014.2 mb 0.00 in0.0 mm 0.00 in0.0 mm 0.00 in0.0 mm
09:05 AM 42.5°F5.8°C 38.0°F3.3°C 84% 12.3 mph ENE19.8 kmh ENE 19.0 mph30.6 kmh 29.96 in1014.6 mb 0.00 in0.0 mm 0.00 in0.0 mm 0.00 in0.0 mm
09:06 AM 42.5°F5.8°C 38.0°F3.3°C 84% 11.2 mph ENE18.0 kmh ENE 19.0 mph30.6 kmh 29.96 in1014.6 mb 0.00 in0.0 mm 0.00 in0.0 mm 0.00 in0.0 mm
09:07 AM 42.5°F5.8°C 38.0°F3.3°C 84% 9.5 mph ENE15.3 kmh ENE 14.0 mph22.5 kmh 29.96 in1014.6 mb 0.00 in0.0 mm 0.00 in0.0 mm 0.00 in0.0 mm
09:08 AM 42.5°F5.8°C 38.0°F3.3°C 84% 14.6 mph ENE23.5 kmh ENE 20.0 mph32.2 kmh 29.95 in1014.2 mb 0.00 in0.0 mm 0.00 in0.0 mm 0.00 in0.0 mm
09:09 AM 42.5°F5.8°C 38.0°F3.3°C 84% 18.8 mph ENE30.3 kmh ENE 23.0 mph37.0 kmh 29.96 in1014.6 mb 0.00 in0.0 mm 0.00 in0.0 mm 0.00 in0.0 mm
09:10 AM 42.5°F5.8°C 37.7°F3.2°C 83% 19.8 mph ENE31.9 kmh ENE 26.0 mph41.8 kmh 29.95 in1014.2 mb 0.00 in0.0 mm 0.00 in0.0 mm 0.00 in0.0 mm
09:11 AM 42.5°F5.8°C 37.7°F3.2°C 83% 17.4 mph ENE28.0 kmh ENE 26.0 mph41.8 kmh 29.96 in1014.6 mb 0.00 in0.0 mm 0.00 in0.0 mm 0.00 in0.0 mm
09:12 AM 42.5°F5.8°C 37.7°F3.2°C 83% 13.5 mph ENE21.7 kmh ENE 24.0 mph38.6 kmh 29.96 in1014.6 mb 0.00 in0.0 mm 0.00 in0.0 mm 0.00 in0.0 mm
09:13 AM 42.5°F5.8°C 37.7°F3.2°C 83% 11.5 mph ENE18.5 kmh ENE 19.0 mph30.6 kmh 29.96 in1014.6 mb 0.00 in0.0 mm 0.00 in0.0 mm 0.00 in0.0 mm
09:14 AM 42.5°F5.8°C 37.7°F3.2°C 83% 11.3 mph ENE18.2 kmh ENE 15.0 mph24.1 kmh 29.96 in1014.6 mb 0.00 in0.0 mm 0.00 in0.0 mm 0.00 in0.0 mm
09:15 AM 42.5°F5.8°C 37.7°F3.2°C 83% 15.6 mph ENE25.1 kmh ENE 21.0 mph33.8 kmh 29.96 in1014.6 mb 0.00 in0.0 mm 0.00 in0.0 mm 0.00 in0.0 mm
09:16 AM 42.5°F5.8°C 37.7°F3.2°C 83% 15.7 mph ENE25.3 kmh ENE 21.0 mph33.8 kmh 29.96 in1014.6 mb 0.00 in0.0 mm 0.00 in0.0 mm 0.00 in0.0 mm
09:17 AM 42.4°F5.8°C 37.6°F3.1°C 83% 16.1 mph ENE25.9 kmh ENE 23.0 mph37.0 kmh 29.96 in1014.6 mb 0.00 in0.0 mm 0.00 in0.0 mm 0.00 in0.0 mm
09:18 AM 42.4°F5.8°C 37.6°F3.1°C 83% 16.8 mph ENE27.0 kmh ENE 23.0 mph37.0 kmh 29.96 in1014.6 mb 0.00 in0.0 mm 0.00 in0.0 mm 0.00 in0.0 mm
09:19 AM 42.4°F5.8°C 37.6°F3.1°C 83% 14.8 mph ENE23.8 kmh ENE 22.0 mph35.4 kmh 29.96 in1014.6 mb 0.00 in0.0 mm 0.00 in0.0 mm 0.00 in0.0 mm
09:20 AM 42.4°F5.8°C 37.6°F3.1°C 83% 17.9 mph E28.8 kmh E 24.0 mph38.6 kmh 29.96 in1014.6 mb 0.00 in0.0 mm 0.00 in0.0 mm 0.00 in0.0 mm
09:21 AM 42.4°F5.8°C 37.6°F3.1°C 83% 16.7 mph ENE26.9 kmh ENE 24.0 mph38.6 kmh 29.96 in1014.6 mb 0.00 in0.0 mm 0.00 in0.0 mm 0.00 in0.0 mm
09:22 AM 42.4°F5.8°C 37.6°F3.1°C 83% 16.3 mph ENE26.2 kmh ENE 22.0 mph35.4 kmh 29.96 in1014.6 mb 0.00 in0.0 mm 0.00 in0.0 mm 0.00 in0.0 mm
09:23 AM 42.4°F5.8°C 37.6°F3.1°C 83% 16.5 mph ENE26.6 kmh ENE 22.0 mph35.4 kmh 29.96 in1014.6 mb 0.00 in0.0 mm 0.00 in0.0 mm 0.00 in0.0 mm
09:24 AM 42.4°F5.8°C 37.6°F3.1°C 83% 16.5 mph ENE26.6 kmh ENE 22.0 mph35.4 kmh 29.96 in1014.6 mb 0.00 in0.0 mm 0.00 in0.0 mm 0.00 in0.0 mm
09:25 AM 42.4°F5.8°C 37.6°F3.1°C 83% 18.0 mph ENE29.0 kmh ENE 23.0 mph37.0 kmh 29.96 in1014.6 mb 0.00 in0.0 mm 0.00 in0.0 mm 0.00 in0.0 mm
09:26 AM 42.4°F5.8°C 37.6°F3.1°C 83% 17.1 mph ENE27.5 kmh ENE 23.0 mph37.0 kmh 29.96 in1014.6 mb 0.00 in0.0 mm 0.00 in0.0 mm 0.00 in0.0 mm
09:27 AM 42.4°F5.8°C 37.6°F3.1°C 83% 18.0 mph ENE29.0 kmh ENE 24.0 mph38.6 kmh 29.96 in1014.6 mb 0.00 in0.0 mm 0.00 in0.0 mm 0.00 in0.0 mm
09:28 AM 42.4°F5.8°C 37.6°F3.1°C 83% 16.9 mph ENE27.2 kmh ENE 24.0 mph38.6 kmh 29.96 in1014.6 mb 0.00 in0.0 mm 0.00 in0.0 mm 0.00 in0.0 mm
09:29 AM 42.4°F5.8°C 37.6°F3.1°C 83% 16.2 mph ENE26.1 kmh ENE 22.0 mph35.4 kmh 29.96 in1014.6 mb 0.00 in0.0 mm 0.00 in0.0 mm 0.00 in0.0 mm
09:30 AM 42.4°F5.8°C 37.6°F3.1°C 83% 12.9 mph ENE20.8 kmh ENE 22.0 mph35.4 kmh 29.96 in1014.6 mb 0.00 in0.0 mm 0.00 in0.0 mm 0.00 in0.0 mm
09:31 AM 42.4°F5.8°C 37.6°F3.1°C 83% 12.1 mph ENE19.5 kmh ENE 18.0 mph29.0 kmh 29.96 in1014.6 mb 0.00 in0.0 mm 0.00 in0.0 mm 0.00 in0.0 mm
09:32 AM 42.4°F5.8°C 37.6°F3.1°C 83% 16.9 mph ENE27.2 kmh ENE 21.0 mph33.8 kmh 29.96 in1014.6 mb 0.00 in0.0 mm 0.00 in0.0 mm 0.00 in0.0 mm
09:33 AM 42.4°F5.8°C 37.6°F3.1°C 83% 13.8 mph E22.2 kmh E 21.0 mph33.8 kmh 29.96 in1014.6 mb 0.00 in0.0 mm 0.00 in0.0 mm 0.00 in0.0 mm
09:34 AM 42.5°F5.8°C 37.7°F3.2°C 83% 17.7 mph ENE28.5 kmh ENE 21.0 mph33.8 kmh 29.96 in1014.6 mb 0.00 in0.0 mm 0.00 in0.0 mm 0.00 in0.0 mm
09:35 AM 42.4°F5.8°C 37.6°F3.1°C 83% 17.2 mph ENE27.7 kmh ENE 23.0 mph37.0 kmh 29.96 in1014.6 mb 0.00 in0.0 mm 0.00 in0.0 mm 0.00 in0.0 mm
09:36 AM 42.4°F5.8°C 37.6°F3.1°C 83% 14.1 mph ENE22.7 kmh ENE 23.0 mph37.0 kmh 29.96 in1014.6 mb 0.00 in0.0 mm 0.00 in0.0 mm 0.00 in0.0 mm
09:37 AM 42.4°F5.8°C 37.6°F3.1°C 83% 16.7 mph ENE26.9 kmh ENE 23.0 mph37.0 kmh 29.96 in1014.6 mb 0.00 in0.0 mm 0.00 in0.0 mm 0.00 in0.0 mm
09:38 AM 42.4°F5.8°C 37.6°F3.1°C 83% 13.5 mph NE21.7 kmh NE 23.0 mph37.0 kmh 29.96 in1014.6 mb 0.00 in0.0 mm 0.00 in0.0 mm 0.00 in0.0 mm
09:39 AM 42.4°F5.8°C 37.6°F3.1°C 83% 12.3 mph ENE19.8 kmh ENE 21.0 mph33.8 kmh 29.96 in1014.6 mb 0.00 in0.0 mm 0.00 in0.0 mm 0.00 in0.0 mm
09:40 AM 42.5°F5.8°C 37.7°F3.2°C 83% 14.8 mph NE23.8 kmh NE 20.0 mph32.2 kmh 29.97 in1014.9 mb 0.00 in0.0 mm 0.00 in0.0 mm 0.00 in0.0 mm
09:41 AM 42.5°F5.8°C 37.7°F3.2°C 83% 20.3 mph NE32.7 kmh NE 27.0 mph43.5 kmh 29.97 in1014.9 mb 0.00 in0.0 mm 0.00 in0.0 mm 0.00 in0.0 mm
09:42 AM 42.5°F5.8°C 37.7°F3.2°C 83% 17.5 mph ENE28.2 kmh ENE 27.0 mph43.5 kmh 29.97 in1014.9 mb 0.00 in0.0 mm 0.00 in0.0 mm 0.00 in0.0 mm
09:43 AM 42.4°F5.8°C 37.6°F3.1°C 83% 16.2 mph ENE26.1 kmh ENE 24.0 mph38.6 kmh 29.97 in1014.9 mb 0.00 in0.0 mm 0.00 in0.0 mm 0.00 in0.0 mm
09:44 AM 42.4°F5.8°C 37.6°F3.1°C 83% 16.3 mph ENE26.2 kmh ENE 26.0 mph41.8 kmh 29.97 in1014.9 mb 0.00 in0.0 mm 0.00 in0.0 mm 0.00 in0.0 mm
09:45 AM 42.4°F5.8°C 37.6°F3.1°C 83% 16.3 mph ENE26.2 kmh ENE 26.0 mph41.8 kmh 29.97 in1014.9 mb 0.00 in0.0 mm 0.00 in0.0 mm 0.00 in0.0 mm
09:46 AM 42.4°F5.8°C 37.6°F3.1°C 83% 14.3 mph ENE23.0 kmh ENE 23.0 mph37.0 kmh 29.97 in1014.9 mb 0.00 in0.0 mm 0.00 in0.0 mm 0.00 in0.0 mm
09:47 AM 42.4°F5.8°C 37.6°F3.1°C 83% 15.7 mph ENE25.3 kmh ENE 23.0 mph37.0 kmh 29.97 in1014.9 mb 0.00 in0.0 mm 0.00 in0.0 mm 0.00 in0.0 mm
09:48 AM 42.4°F5.8°C 37.6°F3.1°C 83% 16.8 mph ENE27.0 kmh ENE 21.0 mph33.8 kmh 29.97 in1014.9 mb 0.00 in0.0 mm 0.00 in0.0 mm 0.00 in0.0 mm
09:49 AM 42.5°F5.8°C 37.7°F3.2°C 83% 13.8 mph ENE22.2 kmh ENE 20.0 mph32.2 kmh 29.97 in1014.9 mb 0.00 in0.0 mm 0.00 in0.0 mm 0.00 in0.0 mm
09:50 AM 42.4°F5.8°C 37.6°F3.1°C 83% 13.0 mph ENE20.9 kmh ENE 20.0 mph32.2 kmh 29.97 in1014.9 mb 0.00 in0.0 mm 0.00 in0.0 mm 0.00 in0.0 mm
09:51 AM 42.5°F5.8°C 37.7°F3.2°C 83% 11.7 mph E18.8 kmh E 19.0 mph30.6 kmh 29.97 in1014.9 mb 0.00 in0.0 mm 0.00 in0.0 mm 0.00 in0.0 mm
09:52 AM 42.5°F5.8°C 37.7°F3.2°C 83% 12.5 mph ENE20.1 kmh ENE 16.0 mph25.7 kmh 29.97 in1014.9 mb 0.00 in0.0 mm 0.00 in0.0 mm 0.00 in0.0 mm
09:53 AM 42.6°F5.9°C 37.8°F3.2°C 83% 10.1 mph ENE16.3 kmh ENE 16.0 mph25.7 kmh 29.97 in1014.9 mb 0.00 in0.0 mm 0.00 in0.0 mm 0.00 in0.0 mm
09:54 AM 42.6°F5.9°C 37.8°F3.2°C 83% 10.4 mph E16.7 kmh E 14.0 mph22.5 kmh 29.97 in1014.9 mb 0.00 in0.0 mm 0.00 in0.0 mm 0.00 in0.0 mm
09:55 AM 42.7°F5.9°C 37.9°F3.3°C 83% 14.2 mph ENE22.9 kmh ENE 20.0 mph32.2 kmh 29.97 in1014.9 mb 0.00 in0.0 mm 0.00 in0.0 mm 0.00 in0.0 mm
09:56 AM 42.7°F5.9°C 37.9°F3.3°C 83% 15.6 mph NE25.1 kmh NE 26.0 mph41.8 kmh 29.97 in1014.9 mb 0.00 in0.0 mm 0.00 in0.0 mm 0.00 in0.0 mm
09:57 AM 42.6°F5.9°C 37.5°F3.1°C 82% 16.1 mph ENE25.9 kmh ENE 26.0 mph41.8 kmh 29.97 in1014.9 mb 0.00 in0.0 mm 0.00 in0.0 mm 0.00 in0.0 mm
09:58 AM 42.6°F5.9°C 37.5°F3.1°C 82% 12.6 mph NE20.3 kmh NE 24.0 mph38.6 kmh 29.97 in1014.9 mb 0.00 in0.0 mm 0.00 in0.0 mm 0.00 in0.0 mm
09:59 AM 42.7°F5.9°C 37.9°F3.3°C 83% 11.5 mph ENE18.5 kmh ENE 16.0 mph25.7 kmh 29.97 in1014.9 mb 0.00 in0.0 mm 0.00 in0.0 mm 0.00 in0.0 mm
10:00 AM 42.7°F5.9°C 37.9°F3.3°C 83% 11.8 mph ENE19.0 kmh ENE 18.0 mph29.0 kmh 29.97 in1014.9 mb 0.00 in0.0 mm 0.00 in0.0 mm 0.00 in0.0 mm
10:01 AM 42.7°F5.9°C 37.9°F3.3°C 83% 13.7 mph ENE22.0 kmh ENE 20.0 mph32.2 kmh 29.97 in1014.9 mb 0.00 in0.0 mm 0.00 in0.0 mm 0.00 in0.0 mm
10:02 AM 42.7°F5.9°C 37.6°F3.1°C 82% 13.9 mph ENE22.4 kmh ENE 22.0 mph35.4 kmh 29.97 in1014.9 mb 0.00 in0.0 mm 0.00 in0.0 mm 0.00 in0.0 mm
10:03 AM 42.7°F5.9°C 37.6°F3.1°C 82% 13.2 mph ENE21.2 kmh ENE 22.0 mph35.4 kmh 29.97 in1014.9 mb 0.00 in0.0 mm 0.00 in0.0 mm 0.00 in0.0 mm
10:04 AM 42.7°F5.9°C 37.6°F3.1°C 82% 15.4 mph E24.8 kmh E 20.0 mph32.2 kmh 29.97 in1014.9 mb 0.00 in0.0 mm 0.00 in0.0 mm 0.00 in0.0 mm
10:05 AM 42.7°F5.9°C 37.6°F3.1°C 82% 12.6 mph ENE20.3 kmh ENE 20.0 mph32.2 kmh 29.97 in1014.9 mb 0.00 in0.0 mm 0.00 in0.0 mm 0.00 in0.0 mm
10:06 AM 42.6°F5.9°C 37.5°F3.1°C 82% 15.3 mph E24.6 kmh E 20.0 mph32.2 kmh 29.97 in1014.9 mb 0.00 in0.0 mm 0.00 in0.0 mm 0.00 in0.0 mm
10:07 AM 42.6°F5.9°C 37.5°F3.1°C 82% 11.9 mph ENE19.2 kmh ENE 20.0 mph32.2 kmh 29.97 in1014.9 mb 0.00 in0.0 mm 0.00 in0.0 mm 0.00 in0.0 mm
10:08 AM 42.6°F5.9°C 37.5°F3.1°C 82% 13.5 mph ENE21.7 kmh ENE 21.0 mph33.8 kmh 29.97 in1014.9 mb 0.00 in0.0 mm 0.00 in0.0 mm 0.00 in0.0 mm
10:09 AM 42.6°F5.9°C 37.5°F3.1°C 82% 13.0 mph E20.9 kmh E 21.0 mph33.8 kmh 29.97 in1014.9 mb 0.00 in0.0 mm 0.00 in0.0 mm 0.00 in0.0 mm
10:10 AM 42.6°F5.9°C 37.5°F3.1°C 82% 9.5 mph ENE15.3 kmh ENE 17.0 mph27.4 kmh 29.97 in1014.9 mb 0.00 in0.0 mm 0.00 in0.0 mm 0.00 in0.0 mm
10:11 AM 42.6°F5.9°C 37.5°F3.1°C 82% 15.8 mph ENE25.4 kmh ENE 24.0 mph38.6 kmh 29.97 in1014.9 mb 0.00 in0.0 mm 0.00 in0.0 mm 0.00 in0.0 mm
10:12 AM 42.6°F5.9°C 37.5°F3.1°C 82% 16.3 mph E26.2 kmh E 24.0 mph38.6 kmh 29.97 in1014.9 mb 0.00 in0.0 mm 0.00 in0.0 mm 0.00 in0.0 mm
10:13 AM 42.6°F5.9°C 37.5°F3.1°C 82% 17.7 mph ENE28.5 kmh ENE 24.0 mph38.6 kmh 29.97 in1014.9 mb 0.00 in0.0 mm 0.00 in0.0 mm 0.00 in0.0 mm
10:14 AM 42.6°F5.9°C 37.5°F3.1°C 82% 13.6 mph E21.9 kmh E 24.0 mph38.6 kmh 29.97 in1014.9 mb 0.00 in0.0 mm 0.00 in0.0 mm 0.00 in0.0 mm
10:15 AM 42.6°F5.9°C 37.5°F3.1°C 82% 16.0 mph ENE25.7 kmh ENE 24.0 mph38.6 kmh 29.97 in1014.9 mb 0.00 in0.0 mm 0.00 in0.0 mm 0.00 in0.0 mm
10:16 AM 42.6°F5.9°C 37.5°F3.1°C 82% 13.5 mph E21.7 kmh E 24.0 mph38.6 kmh 29.97 in1014.9 mb 0.00 in0.0 mm 0.00 in0.0 mm 0.00 in0.0 mm
10:17 AM 42.6°F5.9°C 37.5°F3.1°C 82% 12.2 mph ENE19.6 kmh ENE 17.0 mph27.4 kmh 29.98 in1015.2 mb 0.00 in0.0 mm 0.00 in0.0 mm 0.00 in0.0 mm
10:18 AM 42.6°F5.9°C 37.5°F3.1°C 82% 15.9 mph ENE25.6 kmh ENE 25.0 mph40.2 kmh 29.98 in1015.2 mb 0.00 in0.0 mm 0.00 in0.0 mm 0.00 in0.0 mm
10:19 AM 42.6°F5.9°C 37.5°F3.1°C 82% 20.2 mph ENE32.5 kmh ENE 27.0 mph43.5 kmh 29.97 in1014.9 mb 0.00 in0.0 mm 0.00 in0.0 mm 0.00 in0.0 mm
10:20 AM 42.5°F5.8°C 37.4°F3.0°C 82% 19.2 mph ENE30.9 kmh ENE 27.0 mph43.5 kmh 29.98 in1015.2 mb 0.00 in0.0 mm 0.00 in0.0 mm 0.00 in0.0 mm
10:21 AM 42.5°F5.8°C 37.4°F3.0°C 82% 18.0 mph E29.0 kmh E 24.0 mph38.6 kmh 29.98 in1015.2 mb 0.00 in0.0 mm 0.00 in0.0 mm 0.00 in0.0 mm
10:22 AM 42.4°F5.8°C 37.3°F2.9°C 82% 16.9 mph E27.2 kmh E 23.0 mph37.0 kmh 29.98 in1015.2 mb 0.00 in0.0 mm 0.00 in0.0 mm 0.00 in0.0 mm
10:23 AM 42.4°F5.8°C 37.3°F2.9°C 82% 17.7 mph ENE28.5 kmh ENE 22.0 mph35.4 kmh 29.98 in1015.2 mb 0.00 in0.0 mm 0.00 in0.0 mm 0.00 in0.0 mm
10:24 AM 42.4°F5.8°C 37.3°F2.9°C 82% 13.8 mph ENE22.2 kmh ENE 22.0 mph35.4 kmh 29.98 in1015.2 mb 0.00 in0.0 mm 0.00 in0.0 mm 0.00 in0.0 mm
10:25 AM 42.4°F5.8°C 37.3°F2.9°C 82% 14.5 mph ENE23.3 kmh ENE 22.0 mph35.4 kmh 29.98 in1015.2 mb 0.00 in0.0 mm 0.00 in0.0 mm 0.00 in0.0 mm
10:26 AM 42.4°F5.8°C 37.6°F3.1°C 83% 14.0 mph ENE22.5 kmh ENE 20.0 mph32.2 kmh 29.98 in1015.2 mb 0.00 in0.0 mm 0.00 in0.0 mm 0.00 in0.0 mm
10:27 AM 42.4°F5.8°C 37.6°F3.1°C 83% 13.1 mph ENE21.1 kmh ENE 18.0 mph29.0 kmh 29.98 in1015.2 mb 0.00 in0.0 mm 0.00 in0.0 mm 0.00 in0.0 mm
10:28 AM 42.4°F5.8°C 37.6°F3.1°C 83% 13.3 mph E21.4 kmh E 18.0 mph29.0 kmh 29.98 in1015.2 mb 0.00 in0.0 mm 0.00 in0.0 mm 0.00 in0.0 mm
10:29 AM 42.5°F5.8°C 37.7°F3.2°C 83% 7.9 mph E12.7 kmh E 18.0 mph29.0 kmh 29.98 in1015.2 mb 0.00 in0.0 mm 0.00 in0.0 mm 0.00 in0.0 mm
10:30 AM 42.5°F5.8°C 37.7°F3.2°C 83% 11.7 mph ENE18.8 kmh ENE 15.0 mph24.1 kmh 29.98 in1015.2 mb 0.00 in0.0 mm 0.00 in0.0 mm 0.00 in0.0 mm
10:31 AM 42.4°F5.8°C 37.6°F3.1°C 83% 11.2 mph ENE18.0 kmh ENE 16.0 mph25.7 kmh 29.98 in1015.2 mb 0.00 in0.0 mm 0.00 in0.0 mm 0.00 in0.0 mm
10:32 AM 42.5°F5.8°C 37.7°F3.2°C 83% 12.3 mph ENE19.8 kmh ENE 16.0 mph25.7 kmh 29.98 in1015.2 mb 0.00 in0.0 mm 0.00 in0.0 mm 0.00 in0.0 mm
10:33 AM 42.5°F5.8°C 37.4°F3.0°C 82% 17.1 mph ENE27.5 kmh ENE 21.0 mph33.8 kmh 29.98 in1015.2 mb 0.00 in0.0 mm 0.00 in0.0 mm 0.00 in0.0 mm
10:34 AM 42.5°F5.8°C 37.4°F3.0°C 82% 15.2 mph NE24.5 kmh NE 21.0 mph33.8 kmh 29.98 in1015.2 mb 0.00 in0.0 mm 0.00 in0.0 mm 0.00 in0.0 mm
10:35 AM 42.4°F5.8°C 37.3°F2.9°C 82% 14.9 mph E24.0 kmh E 20.0 mph32.2 kmh 29.98 in1015.2 mb 0.00 in0.0 mm 0.00 in0.0 mm 0.00 in0.0 mm
10:36 AM 42.4°F5.8°C 37.6°F3.1°C 83% 12.8 mph ENE20.6 kmh ENE 19.0 mph30.6 kmh 29.98 in1015.2 mb 0.00 in0.0 mm 0.00 in0.0 mm 0.00 in0.0 mm
10:37 AM 42.4°F5.8°C 37.6°F3.1°C 83% 12.9 mph ENE20.8 kmh ENE 18.0 mph29.0 kmh 29.98 in1015.2 mb 0.00 in0.0 mm 0.00 in0.0 mm 0.00 in0.0 mm
10:38 AM 42.4°F5.8°C 37.6°F3.1°C 83% 15.0 mph E24.1 kmh E 18.0 mph29.0 kmh 29.98 in1015.2 mb 0.00 in0.0 mm 0.00 in0.0 mm 0.00 in0.0 mm
10:39 AM 42.3°F5.7°C 37.5°F3.1°C 83% 14.0 mph ENE22.5 kmh ENE 20.0 mph32.2 kmh 29.98 in1015.2 mb 0.00 in0.0 mm 0.00 in0.0 mm 0.00 in0.0 mm
10:40 AM 42.3°F5.7°C 37.2°F2.9°C 82% 20.6 mph NE33.2 kmh NE 27.0 mph43.5 kmh 29.98 in1015.2 mb 0.00 in0.0 mm 0.00 in0.0 mm 0.00 in0.0 mm
10:41 AM 42.3°F5.7°C 37.2°F2.9°C 82% 17.5 mph ENE28.2 kmh ENE 27.0 mph43.5 kmh 29.98 in1015.2 mb 0.00 in0.0 mm 0.00 in0.0 mm 0.00 in0.0 mm
10:42 AM 42.2°F5.7°C 37.1°F2.8°C 82% 12.9 mph ENE20.8 kmh ENE 21.0 mph33.8 kmh 29.98 in1015.2 mb 0.00 in0.0 mm 0.00 in0.0 mm 0.00 in0.0 mm
10:43 AM 42.2°F5.7°C 37.4°F3.0°C 83% 12.7 mph NE20.4 kmh NE 17.0 mph27.4 kmh 29.99 in1015.6 mb 0.00 in0.0 mm 0.00 in0.0 mm 0.00 in0.0 mm
10:44 AM 42.3°F5.7°C 37.5°F3.1°C 83% 10.1 mph E16.3 kmh E 17.0 mph27.4 kmh 29.98 in1015.2 mb 0.00 in0.0 mm 0.00 in0.0 mm 0.00 in0.0 mm
10:45 AM 42.3°F5.7°C 37.5°F3.1°C 83% 13.9 mph NE22.4 kmh NE 22.0 mph35.4 kmh 29.99 in1015.6 mb 0.00 in0.0 mm 0.00 in0.0 mm 0.00 in0.0 mm
10:46 AM 42.3°F5.7°C 37.5°F3.1°C 83% 16.3 mph ENE26.2 kmh ENE 22.0 mph35.4 kmh 29.99 in1015.6 mb 0.00 in0.0 mm 0.00 in0.0 mm 0.00 in0.0 mm
10:47 AM 42.3°F5.7°C 37.5°F3.1°C 83% 14.5 mph E23.3 kmh E 23.0 mph37.0 kmh 29.99 in1015.6 mb 0.00 in0.0 mm 0.00 in0.0 mm 0.00 in0.0 mm
10:48 AM 42.3°F5.7°C 37.5°F3.1°C 83% 20.7 mph E33.3 kmh E 27.0 mph43.5 kmh 29.99 in1015.6 mb 0.00 in0.0 mm 0.00 in0.0 mm 0.00 in0.0 mm
10:49 AM 42.2°F5.7°C 37.1°F2.8°C 82% 17.7 mph E28.5 kmh E 27.0 mph43.5 kmh 29.99 in1015.6 mb 0.00 in0.0 mm 0.00 in0.0 mm 0.00 in0.0 mm
10:50 AM 42.2°F5.7°C 37.4°F3.0°C 83% 19.5 mph ENE31.4 kmh ENE 27.0 mph43.5 kmh 29.99 in1015.6 mb 0.00 in0.0 mm 0.00 in0.0 mm 0.00 in0.0 mm
10:51 AM 42.2°F5.7°C 37.4°F3.0°C 83% 18.2 mph ENE29.3 kmh ENE 27.0 mph43.5 kmh 29.99 in1015.6 mb 0.00 in0.0 mm 0.00 in0.0 mm 0.00 in0.0 mm
10:52 AM 42.1°F5.6°C 37.3°F2.9°C 83% 16.0 mph ENE25.7 kmh ENE 26.0 mph41.8 kmh 29.99 in1015.6 mb 0.00 in0.0 mm 0.00 in0.0 mm 0.00 in0.0 mm
10:53 AM 42.2°F5.7°C 37.4°F3.0°C 83% 11.1 mph ENE17.9 kmh ENE 19.0 mph30.6 kmh 29.99 in1015.6 mb 0.00 in0.0 mm 0.00 in0.0 mm 0.00 in0.0 mm
10:54 AM 42.2°F5.7°C 37.4°F3.0°C 83% 16.2 mph ENE26.1 kmh ENE 29.0 mph46.7 kmh 29.99 in1015.6 mb 0.00 in0.0 mm 0.00 in0.0 mm 0.00 in0.0 mm
10:55 AM 42.2°F5.7°C 37.4°F3.0°C 83% 23.3 mph ENE37.5 kmh ENE 29.0 mph46.7 kmh 29.99 in1015.6 mb 0.00 in0.0 mm 0.00 in0.0 mm 0.00 in0.0 mm
10:56 AM 42.2°F5.7°C 37.4°F3.0°C 83% 19.4 mph ENE31.2 kmh ENE 27.0 mph43.5 kmh 29.99 in1015.6 mb 0.00 in0.0 mm 0.00 in0.0 mm 0.00 in0.0 mm
10:57 AM 42.2°F5.7°C 37.4°F3.0°C 83% 13.9 mph ENE22.4 kmh ENE 26.0 mph41.8 kmh 29.99 in1015.6 mb 0.00 in0.0 mm 0.00 in0.0 mm 0.00 in0.0 mm
10:58 AM 42.2°F5.7°C 37.4°F3.0°C 83% 15.2 mph ENE24.5 kmh ENE 22.0 mph35.4 kmh 29.99 in1015.6 mb 0.00 in0.0 mm 0.00 in0.0 mm 0.00 in0.0 mm
10:59 AM 42.3°F5.7°C 37.5°F3.1°C 83% 17.3 mph ENE27.8 kmh ENE 22.0 mph35.4 kmh 29.99 in1015.6 mb 0.00 in0.0 mm 0.00 in0.0 mm 0.00 in0.0 mm
11:00 AM 42.2°F5.7°C 37.4°F3.0°C 83% 18.2 mph ENE29.3 kmh ENE 23.0 mph37.0 kmh 29.99 in1015.6 mb 0.00 in0.0 mm 0.00 in0.0 mm 0.00 in0.0 mm
11:01 AM 42.2°F5.7°C 37.4°F3.0°C 83% 21.2 mph ENE34.1 kmh ENE 25.0 mph40.2 kmh 29.99 in1015.6 mb 0.00 in0.0 mm 0.00 in0.0 mm 0.00 in0.0 mm
11:02 AM 42.2°F5.7°C 37.4°F3.0°C 83% 16.7 mph ENE26.9 kmh ENE 25.0 mph40.2 kmh 29.99 in1015.6 mb 0.00 in0.0 mm 0.00 in0.0 mm 0.00 in0.0 mm
11:03 AM 42.2°F5.7°C 37.4°F3.0°C 83% 19.5 mph E31.4 kmh E 25.0 mph40.2 kmh 29.99 in1015.6 mb 0.00 in0.0 mm 0.00 in0.0 mm 0.00 in0.0 mm
11:04 AM 42.1°F5.6°C 37.3°F2.9°C 83% 14.5 mph ENE23.3 kmh ENE 25.0 mph40.2 kmh 29.99 in1015.6 mb 0.00 in0.0 mm 0.00 in0.0 mm 0.00 in0.0 mm
11:05 AM 42.2°F5.7°C 37.4°F3.0°C 83% 12.4 mph ENE20.0 kmh ENE 20.0 mph32.2 kmh 29.99 in1015.6 mb 0.00 in0.0 mm 0.00 in0.0 mm 0.00 in0.0 mm
11:06 AM 42.2°F5.7°C 37.4°F3.0°C 83% 15.9 mph ENE25.6 kmh ENE 23.0 mph37.0 kmh 30.00 in1015.9 mb 0.00 in0.0 mm 0.00 in0.0 mm 0.00 in0.0 mm
11:07 AM 42.2°F5.7°C 37.4°F3.0°C 83% 15.3 mph E24.6 kmh E 23.0 mph37.0 kmh 30.00 in1015.9 mb 0.00 in0.0 mm 0.00 in0.0 mm 0.00 in0.0 mm
11:08 AM 42.2°F5.7°C 37.4°F3.0°C 83% 16.4 mph ENE26.4 kmh ENE 23.0 mph37.0 kmh 30.00 in1015.9 mb 0.00 in0.0 mm 0.00 in0.0 mm 0.00 in0.0 mm
11:09 AM 42.2°F5.7°C 37.4°F3.0°C 83% 17.2 mph E27.7 kmh E 23.0 mph37.0 kmh 30.00 in1015.9 mb 0.00 in0.0 mm 0.00 in0.0 mm 0.00 in0.0 mm
11:10 AM 42.2°F5.7°C 37.4°F3.0°C 83% 16.1 mph ENE25.9 kmh ENE 21.0 mph33.8 kmh 30.00 in1015.9 mb 0.00 in0.0 mm 0.00 in0.0 mm 0.00 in0.0 mm
11:11 AM 42.2°F5.7°C 37.4°F3.0°C 83% 12.7 mph E20.4 kmh E 20.0 mph32.2 kmh 30.00 in1015.9 mb 0.00 in0.0 mm 0.00 in0.0 mm 0.00 in0.0 mm
11:12 AM 42.3°F5.7°C 37.5°F3.1°C 83% 11.6 mph E18.7 kmh E 19.0 mph30.6 kmh 30.00 in1015.9 mb 0.00 in0.0 mm 0.00 in0.0 mm 0.00 in0.0 mm
11:13 AM 42.3°F5.7°C 37.5°F3.1°C 83% 7.7 mph ENE12.4 kmh ENE 15.0 mph24.1 kmh 30.00 in1015.9 mb 0.00 in0.0 mm 0.00 in0.0 mm 0.00 in0.0 mm
11:14 AM 42.3°F5.7°C 37.5°F3.1°C 83% 14.4 mph ENE23.2 kmh ENE 18.0 mph29.0 kmh 30.00 in1015.9 mb 0.00 in0.0 mm 0.00 in0.0 mm 0.00 in0.0 mm
11:15 AM 42.3°F5.7°C 37.5°F3.1°C 83% 16.0 mph ENE25.7 kmh ENE 19.0 mph30.6 kmh 30.00 in1015.9 mb 0.00 in0.0 mm 0.00 in0.0 mm 0.00 in0.0 mm
11:16 AM 42.3°F5.7°C 37.5°F3.1°C 83% 12.9 mph ENE20.8 kmh ENE 19.0 mph30.6 kmh 30.00 in1015.9 mb 0.00 in0.0 mm 0.00 in0.0 mm 0.00 in0.0 mm
11:17 AM 42.3°F5.7°C 37.5°F3.1°C 83% 13.0 mph ENE20.9 kmh ENE 17.0 mph27.4 kmh 30.00 in1015.9 mb 0.00 in0.0 mm 0.00 in0.0 mm 0.00 in0.0 mm
11:18 AM 42.3°F5.7°C 37.5°F3.1°C 83% 11.5 mph ENE18.5 kmh ENE 17.0 mph27.4 kmh 30.00 in1015.9 mb 0.00 in0.0 mm 0.00 in0.0 mm 0.00 in0.0 mm
11:19 AM 42.3°F5.7°C 37.5°F3.1°C 83% 15.1 mph ENE24.3 kmh ENE 23.0 mph37.0 kmh 30.00 in1015.9 mb 0.00 in0.0 mm 0.00 in0.0 mm 0.00 in0.0 mm
11:20 AM 42.3°F5.7°C 37.5°F3.1°C 83% 18.1 mph NE29.1 kmh NE 25.0 mph40.2 kmh 30.00 in1015.9 mb 0.00 in0.0 mm 0.00 in0.0 mm 0.00 in0.0 mm
11:21 AM 42.4°F5.8°C 37.6°F3.1°C 83% 14.0 mph E22.5 kmh E 25.0 mph40.2 kmh 30.00 in1015.9 mb 0.00 in0.0 mm 0.00 in0.0 mm 0.00 in0.0 mm
11:22 AM 42.4°F5.8°C 37.6°F3.1°C 83% 14.9 mph E24.0 kmh E 21.0 mph33.8 kmh 30.00 in1015.9 mb 0.00 in0.0 mm 0.00 in0.0 mm 0.00 in0.0 mm
11:23 AM 42.4°F5.8°C 37.6°F3.1°C 83% 10.8 mph E17.4 kmh E 21.0 mph33.8 kmh 30.00 in1015.9 mb 0.00 in0.0 mm 0.00 in0.0 mm 0.00 in0.0 mm
11:24 AM 42.4°F5.8°C 37.6°F3.1°C 83% 11.6 mph ENE18.7 kmh ENE 17.0 mph27.4 kmh 30.00 in1015.9 mb 0.00 in0.0 mm 0.00 in0.0 mm 0.00 in0.0 mm
11:25 AM 42.5°F5.8°C 37.7°F3.2°C 83% 10.6 mph ENE17.1 kmh ENE 17.0 mph27.4 kmh 30.00 in1015.9 mb 0.00 in0.0 mm 0.00 in0.0 mm 0.00 in0.0 mm
11:26 AM 42.5°F5.8°C 37.7°F3.2°C 83% 13.6 mph E21.9 kmh E 18.0 mph29.0 kmh 30.00 in1015.9 mb 0.00 in0.0 mm 0.00 in0.0 mm 0.00 in0.0 mm
11:27 AM 42.5°F5.8°C 37.4°F3.0°C 82% 16.1 mph E25.9 kmh E 20.0 mph32.2 kmh 30.00 in1015.9 mb 0.00 in0.0 mm 0.00 in0.0 mm 0.00 in0.0 mm
11:28 AM 42.5°F5.8°C 37.4°F3.0°C 82% 17.1 mph NE27.5 kmh NE 23.0 mph37.0 kmh 30.00 in1015.9 mb 0.00 in0.0 mm 0.00 in0.0 mm 0.00 in0.0 mm
11:29 AM 42.5°F5.8°C 37.4°F3.0°C 82% 14.0 mph ENE22.5 kmh ENE 23.0 mph37.0 kmh 30.00 in1015.9 mb 0.00 in0.0 mm 0.00 in0.0 mm 0.00 in0.0 mm
11:30 AM 42.5°F5.8°C 37.4°F3.0°C 82% 14.5 mph ENE23.3 kmh ENE 23.0 mph37.0 kmh 30.00 in1015.9 mb 0.00 in0.0 mm 0.00 in0.0 mm 0.00 in0.0 mm
11:31 AM 42.5°F5.8°C 37.4°F3.0°C 82% 16.5 mph E26.6 kmh E 21.0 mph33.8 kmh 30.00 in1015.9 mb 0.00 in0.0 mm 0.00 in0.0 mm 0.00 in0.0 mm
11:32 AM 42.5°F5.8°C 37.4°F3.0°C 82% 13.7 mph E22.0 kmh E 21.0 mph33.8 kmh 30.00 in1015.9 mb 0.00 in0.0 mm 0.00 in0.0 mm 0.00 in0.0 mm
11:33 AM 42.6°F5.9°C 37.5°F3.1°C 82% 12.2 mph ENE19.6 kmh ENE 21.0 mph33.8 kmh 30.00 in1015.9 mb 0.00 in0.0 mm 0.00 in0.0 mm 0.00 in0.0 mm
11:34 AM 42.6°F5.9°C 37.5°F3.1°C 82% 14.1 mph E22.7 kmh E 21.0 mph33.8 kmh 30.00 in1015.9 mb 0.00 in0.0 mm 0.00 in0.0 mm 0.00 in0.0 mm
11:35 AM 42.6°F5.9°C 37.5°F3.1°C 82% 12.5 mph ENE20.1 kmh ENE 21.0 mph33.8 kmh 30.00 in1015.9 mb 0.00 in0.0 mm 0.00 in0.0 mm 0.00 in0.0 mm
11:36 AM 42.6°F5.9°C 37.5°F3.1°C 82% 17.3 mph ENE27.8 kmh ENE 21.0 mph33.8 kmh 30.00 in1015.9 mb 0.00 in0.0 mm 0.00 in0.0 mm 0.00 in0.0 mm
11:37 AM 42.6°F5.9°C 37.5°F3.1°C 82% 18.3 mph ENE29.5 kmh ENE 24.0 mph38.6 kmh 30.00 in1015.9 mb 0.00 in0.0 mm 0.00 in0.0 mm 0.00 in0.0 mm
11:38 AM 42.6°F5.9°C 37.5°F3.1°C 82% 17.4 mph ENE28.0 kmh ENE 24.0 mph38.6 kmh 30.00 in1015.9 mb 0.00 in0.0 mm 0.00 in0.0 mm 0.00 in0.0 mm
11:39 AM 42.6°F5.9°C 37.5°F3.1°C 82% 18.7 mph E30.1 kmh E 25.0 mph40.2 kmh 30.00 in1015.9 mb 0.00 in0.0 mm 0.00 in0.0 mm 0.00 in0.0 mm
11:40 AM 42.6°F5.9°C 37.5°F3.1°C 82% 14.5 mph ENE23.3 kmh ENE 25.0 mph40.2 kmh 30.00 in1015.9 mb 0.00 in0.0 mm 0.00 in0.0 mm 0.00 in0.0 mm
11:41 AM 42.6°F5.9°C 37.5°F3.1°C 82% 17.5 mph ENE28.2 kmh ENE 24.0 mph38.6 kmh 30.00 in1015.9 mb 0.00 in0.0 mm 0.00 in0.0 mm 0.00 in0.0 mm
11:42 AM 42.6°F5.9°C 37.5°F3.1°C 82% 16.5 mph ENE26.6 kmh ENE 24.0 mph38.6 kmh 30.00 in1015.9 mb 0.00 in0.0 mm 0.00 in0.0 mm 0.00 in0.0 mm
11:43 AM 42.7°F5.9°C 37.6°F3.1°C 82% 20.8 mph ENE33.5 kmh ENE 24.0 mph38.6 kmh 30.00 in1015.9 mb 0.00 in0.0 mm 0.00 in0.0 mm 0.00 in0.0 mm
11:44 AM 42.7°F5.9°C 37.6°F3.1°C 82% 15.5 mph E24.9 kmh E 24.0 mph38.6 kmh 30.00 in1015.9 mb 0.00 in0.0 mm 0.00 in0.0 mm 0.00 in0.0 mm
11:45 AM 42.7°F5.9°C 37.6°F3.1°C 82% 11.4 mph E18.3 kmh E 20.0 mph32.2 kmh 30.00 in1015.9 mb 0.00 in0.0 mm 0.00 in0.0 mm 0.00 in0.0 mm
11:46 AM 42.7°F5.9°C 37.6°F3.1°C 82% 17.7 mph E28.5 kmh E 23.0 mph37.0 kmh 30.00 in1015.9 mb 0.00 in0.0 mm 0.00 in0.0 mm 0.00 in0.0 mm
11:47 AM 42.8°F6.0°C 37.7°F3.2°C 82% 13.3 mph ENE21.4 kmh ENE 23.0 mph37.0 kmh 30.00 in1015.9 mb 0.00 in0.0 mm 0.00 in0.0 mm 0.00 in0.0 mm
11:48 AM 42.8°F6.0°C 37.7°F3.2°C 82% 11.6 mph ENE18.7 kmh ENE 17.0 mph27.4 kmh 30.00 in1015.9 mb 0.00 in0.0 mm 0.00 in0.0 mm 0.00 in0.0 mm
11:49 AM 42.9°F6.1°C 37.8°F3.2°C 82% 11.7 mph ENE18.8 kmh ENE 17.0 mph27.4 kmh 30.00 in1015.9 mb 0.00 in0.0 mm 0.00 in0.0 mm 0.00 in0.0 mm
11:50 AM 42.9°F6.1°C 37.8°F3.2°C 82% 15.4 mph ENE24.8 kmh ENE 21.0 mph33.8 kmh 30.00 in1015.9 mb 0.00 in0.0 mm 0.00 in0.0 mm 0.00 in0.0 mm
11:51 AM 42.9°F6.1°C 37.8°F3.2°C 82% 16.7 mph ENE26.9 kmh ENE 21.0 mph33.8 kmh 30.00 in1015.9 mb 0.00 in0.0 mm 0.00 in0.0 mm 0.00 in0.0 mm
11:52 AM 42.9°F6.1°C 37.5°F3.1°C 81% 15.7 mph E25.3 kmh E 20.0 mph32.2 kmh 30.00 in1015.9 mb 0.00 in0.0 mm 0.00 in0.0 mm 0.00 in0.0 mm
11:53 AM 42.9°F6.1°C 37.5°F3.1°C 81% 15.6 mph E25.1 kmh E 22.0 mph35.4 kmh 30.00 in1015.9 mb 0.00 in0.0 mm 0.00 in0.0 mm 0.00 in0.0 mm
11:54 AM 42.9°F6.1°C 37.5°F3.1°C 81% 13.6 mph NE21.9 kmh NE 22.0 mph35.4 kmh 30.00 in1015.9 mb 0.00 in0.0 mm 0.00 in0.0 mm 0.00 in0.0 mm
11:55 AM 43.0°F6.1°C 37.6°F3.1°C 81% 12.9 mph ENE20.8 kmh ENE 17.0 mph27.4 kmh 30.00 in1015.9 mb 0.00 in0.0 mm 0.00 in0.0 mm 0.00 in0.0 mm
11:56 AM 43.0°F6.1°C 37.6°F3.1°C 81% 14.0 mph NE22.5 kmh NE 17.0 mph27.4 kmh 30.00 in1015.9 mb 0.00 in0.0 mm 0.00 in0.0 mm 0.00 in0.0 mm
11:57 AM 43.0°F6.1°C 37.6°F3.1°C 81% 12.9 mph ENE20.8 kmh ENE 17.0 mph27.4 kmh 30.00 in1015.9 mb 0.00 in0.0 mm 0.00 in0.0 mm 0.00 in0.0 mm
11:58 AM 43.1°F6.2°C 37.7°F3.2°C 81% 14.9 mph ENE24.0 kmh ENE 22.0 mph35.4 kmh 30.00 in1015.9 mb 0.00 in0.0 mm 0.00 in0.0 mm 0.00 in0.0 mm
11:59 AM 43.0°F6.1°C 37.6°F3.1°C 81% 19.2 mph ENE30.9 kmh ENE 25.0 mph40.2 kmh 30.00 in1015.9 mb 0.00 in0.0 mm 0.00 in0.0 mm 0.00 in0.0 mm
12:00 PM 43.1°F6.2°C 37.7°F3.2°C 81% 16.4 mph ENE26.4 kmh ENE 25.0 mph40.2 kmh 30.00 in1015.9 mb 0.00 in0.0 mm 0.00 in0.0 mm 0.00 in0.0 mm
12:01 PM 43.0°F6.1°C 37.6°F3.1°C 81% 19.0 mph ENE30.6 kmh ENE 26.0 mph41.8 kmh 30.00 in1015.9 mb 0.00 in0.0 mm 0.00 in0.0 mm 0.00 in0.0 mm
12:02 PM 43.0°F6.1°C 37.6°F3.1°C 81% 16.2 mph E26.1 kmh E 26.0 mph41.8 kmh 30.00 in1015.9 mb 0.00 in0.0 mm 0.00 in0.0 mm 0.00 in0.0 mm
12:03 PM 43.0°F6.1°C 37.6°F3.1°C 81% 15.2 mph E24.5 kmh E 21.0 mph33.8 kmh 30.00 in1015.9 mb 0.00 in0.0 mm 0.00 in0.0 mm 0.00 in0.0 mm
12:04 PM 43.0°F6.1°C 37.6°F3.1°C 81% 14.0 mph E22.5 kmh E 21.0 mph33.8 kmh 30.00 in1015.9 mb 0.00 in0.0 mm 0.00 in0.0 mm 0.00 in0.0 mm
12:05 PM 43.1°F6.2°C 37.7°F3.2°C 81% 14.9 mph ENE24.0 kmh ENE 21.0 mph33.8 kmh 30.00 in1015.9 mb 0.00 in0.0 mm 0.00 in0.0 mm 0.00 in0.0 mm
12:06 PM 43.1°F6.2°C 37.7°F3.2°C 81% 14.5 mph ENE23.3 kmh ENE 21.0 mph33.8 kmh 30.00 in1015.9 mb 0.00 in0.0 mm 0.00 in0.0 mm 0.00 in0.0 mm
12:07 PM 43.1°F6.2°C 37.7°F3.2°C 81% 17.7 mph ENE28.5 kmh ENE 25.0 mph40.2 kmh 30.00 in1015.9 mb 0.00 in0.0 mm 0.00 in0.0 mm 0.00 in0.0 mm
12:08 PM 43.1°F6.2°C 37.7°F3.2°C 81% 13.4 mph ENE21.6 kmh ENE 25.0 mph40.2 kmh 30.00 in1015.9 mb 0.00 in0.0 mm 0.00 in0.0 mm 0.00 in0.0 mm
12:09 PM 43.1°F6.2°C 37.7°F3.2°C 81% 14.9 mph E24.0 kmh E 21.0 mph33.8 kmh 30.00 in1015.9 mb 0.00 in0.0 mm 0.00 in0.0 mm 0.00 in0.0 mm
12:10 PM 43.2°F6.2°C 37.8°F3.2°C 81% 20.2 mph E32.5 kmh E 25.0 mph40.2 kmh 30.00 in1015.9 mb 0.00 in0.0 mm 0.00 in0.0 mm 0.00 in0.0 mm
12:11 PM 43.2°F6.2°C 37.8°F3.2°C 81% 16.5 mph ENE26.6 kmh ENE 25.0 mph40.2 kmh 30.00 in1015.9 mb 0.00 in0.0 mm 0.00 in0.0 mm 0.00 in0.0 mm
12:12 PM 43.2°F6.2°C 37.8°F3.2°C 81% 17.0 mph E27.4 kmh E 24.0 mph38.6 kmh 30.00 in1015.9 mb 0.00 in0.0 mm 0.00 in0.0 mm 0.00 in0.0 mm
12:13 PM 43.2°F6.2°C 37.5°F3.1°C 80% 18.8 mph ENE30.3 kmh ENE 24.0 mph38.6 kmh 30.00 in1015.9 mb 0.00 in0.0 mm 0.00 in0.0 mm 0.00 in0.0 mm
12:14 PM 43.3°F6.3°C 37.9°F3.3°C 81% 16.8 mph ENE27.0 kmh ENE 23.0 mph37.0 kmh 30.01 in1016.3 mb 0.00 in0.0 mm 0.00 in0.0 mm 0.00 in0.0 mm
12:15 PM 43.3°F6.3°C 37.6°F3.1°C 80% 17.2 mph E27.7 kmh E 24.0 mph38.6 kmh 30.00 in1015.9 mb 0.00 in0.0 mm 0.00 in0.0 mm 0.00 in0.0 mm
12:16 PM 43.3°F6.3°C 37.6°F3.1°C 80% 19.4 mph ENE31.2 kmh ENE 24.0 mph38.6 kmh 30.01 in1016.3 mb 0.00 in0.0 mm 0.00 in0.0 mm 0.00 in0.0 mm
12:17 PM 43.4°F6.3°C 37.6°F3.1°C 80% 16.6 mph E26.7 kmh E 24.0 mph38.6 kmh 30.01 in1016.3 mb 0.00 in0.0 mm 0.00 in0.0 mm 0.00 in0.0 mm
12:18 PM 43.4°F6.3°C 37.6°F3.1°C 80% 14.2 mph E22.9 kmh E 22.0 mph35.4 kmh 30.01 in1016.3 mb 0.00 in0.0 mm 0.00 in0.0 mm 0.00 in0.0 mm
12:19 PM 43.4°F6.3°C 38.0°F3.3°C 81% 12.4 mph E20.0 kmh E 20.0 mph32.2 kmh 30.01 in1016.3 mb 0.00 in0.0 mm 0.00 in0.0 mm 0.00 in0.0 mm
12:20 PM 43.4°F6.3°C 37.6°F3.1°C 80% 14.4 mph E23.2 kmh E 20.0 mph32.2 kmh 30.01 in1016.3 mb 0.00 in0.0 mm 0.00 in0.0 mm 0.00 in0.0 mm
12:21 PM 43.5°F6.4°C 38.1°F3.4°C 81% 14.3 mph E23.0 kmh E 20.0 mph32.2 kmh 30.01 in1016.3 mb 0.00 in0.0 mm 0.00 in0.0 mm 0.00 in0.0 mm
12:22 PM 43.5°F6.4°C 38.1°F3.4°C 81% 10.6 mph E17.1 kmh E 18.0 mph29.0 kmh 30.01 in1016.3 mb 0.00 in0.0 mm 0.00 in0.0 mm 0.00 in0.0 mm
12:23 PM 43.5°F6.4°C 37.7°F3.2°C 80% 14.9 mph ENE24.0 kmh ENE 19.0 mph30.6 kmh 30.01 in1016.3 mb 0.00 in0.0 mm 0.00 in0.0 mm 0.00 in0.0 mm
12:24 PM 43.6°F6.4°C 37.8°F3.2°C 80% 13.7 mph ENE22.0 kmh ENE 19.0 mph30.6 kmh 30.01 in1016.3 mb 0.00 in0.0 mm 0.00 in0.0 mm 0.00 in0.0 mm
12:25 PM 43.6°F6.4°C 37.8°F3.2°C 80% 16.2 mph E26.1 kmh E 23.0 mph37.0 kmh 30.01 in1016.3 mb 0.00 in0.0 mm 0.00 in0.0 mm 0.00 in0.0 mm
12:26 PM 43.7°F6.5°C 37.9°F3.3°C 80% 14.2 mph ENE22.9 kmh ENE 23.0 mph37.0 kmh 30.02 in1016.6 mb 0.00 in0.0 mm 0.00 in0.0 mm 0.00 in0.0 mm
12:27 PM 43.8°F6.6°C 38.0°F3.3°C 80% 18.1 mph ENE29.1 kmh ENE 21.0 mph33.8 kmh 30.01 in1016.3 mb 0.00 in0.0 mm 0.00 in0.0 mm 0.00 in0.0 mm
12:28 PM 43.8°F6.6°C 38.0°F3.3°C 80% 15.3 mph E24.6 kmh E 22.0 mph35.4 kmh 30.02 in1016.6 mb 0.00 in0.0 mm 0.00 in0.0 mm 0.00 in0.0 mm
12:29 PM 43.9°F6.6°C 38.1°F3.4°C 80% 16.9 mph E27.2 kmh E 21.0 mph33.8 kmh 30.02 in1016.6 mb 0.00 in0.0 mm 0.00 in0.0 mm 0.00 in0.0 mm
12:30 PM 43.9°F6.6°C 38.1°F3.4°C 80% 14.5 mph E23.3 kmh E 21.0 mph33.8 kmh 30.01 in1016.3 mb 0.00 in0.0 mm 0.00 in0.0 mm 0.00 in0.0 mm
12:31 PM 44.0°F6.7°C 38.2°F3.4°C 80% 15.2 mph E24.5 kmh E 21.0 mph33.8 kmh 30.02 in1016.6 mb 0.00 in0.0 mm 0.00 in0.0 mm 0.00 in0.0 mm
12:32 PM 43.9°F6.6°C 38.1°F3.4°C 80% 17.5 mph E28.2 kmh E 21.0 mph33.8 kmh 30.02 in1016.6 mb 0.00 in0.0 mm 0.00 in0.0 mm 0.00 in0.0 mm
12:33 PM 44.0°F6.7°C 37.9°F3.3°C 79% 14.3 mph ENE23.0 kmh ENE 21.0 mph33.8 kmh 30.02 in1016.6 mb 0.00 in0.0 mm 0.00 in0.0 mm 0.00 in0.0 mm
12:34 PM 44.0°F6.7°C 37.9°F3.3°C 79% 16.3 mph ENE26.2 kmh ENE 22.0 mph35.4 kmh 30.02 in1016.6 mb 0.00 in0.0 mm 0.00 in0.0 mm 0.00 in0.0 mm
12:35 PM 44.0°F6.7°C 37.9°F3.3°C 79% 14.1 mph E22.7 kmh E 22.0 mph35.4 kmh 30.01 in1016.3 mb 0.00 in0.0 mm 0.00 in0.0 mm 0.00 in0.0 mm
12:36 PM 44.1°F6.7°C 38.0°F3.3°C 79% 17.6 mph E28.3 kmh E 25.0 mph40.2 kmh 30.02 in1016.6 mb 0.00 in0.0 mm 0.00 in0.0 mm 0.00 in0.0 mm
12:37 PM 44.1°F6.7°C 38.0°F3.3°C 79% 18.5 mph E29.8 kmh E 25.0 mph40.2 kmh 30.01 in1016.3 mb 0.00 in0.0 mm 0.00 in0.0 mm 0.00 in0.0 mm
12:38 PM 44.0°F6.7°C 37.9°F3.3°C 79% 15.6 mph E25.1 kmh E 21.0 mph33.8 kmh 30.02 in1016.6 mb 0.00 in0.0 mm 0.00 in0.0 mm 0.00 in0.0 mm
12:39 PM 44.1°F6.7°C 38.0°F3.3°C 79% 13.9 mph ENE22.4 kmh ENE 21.0 mph33.8 kmh 30.02 in1016.6 mb 0.00 in0.0 mm 0.00 in0.0 mm 0.00 in0.0 mm
12:40 PM 44.1°F6.7°C 38.0°F3.3°C 79% 17.0 mph E27.4 kmh E 22.0 mph35.4 kmh 30.02 in1016.6 mb 0.00 in0.0 mm 0.00 in0.0 mm 0.00 in0.0 mm
12:41 PM 44.1°F6.7°C 38.0°F3.3°C 79% 17.3 mph ENE27.8 kmh ENE 22.0 mph35.4 kmh 30.01 in1016.3 mb 0.00 in0.0 mm 0.00 in0.0 mm 0.00 in0.0 mm
12:42 PM 44.2°F6.8°C 38.1°F3.4°C 79% 17.7 mph ENE28.5 kmh ENE 24.0 mph38.6 kmh 30.01 in1016.3 mb 0.00 in0.0 mm 0.00 in0.0 mm 0.00 in0.0 mm
12:43 PM 44.3°F6.8°C 38.2°F3.4°C 79% 19.0 mph ENE30.6 kmh ENE 24.0 mph38.6 kmh 30.01 in1016.3 mb 0.00 in0.0 mm 0.00 in0.0 mm 0.00 in0.0 mm
12:44 PM 44.3°F6.8°C 38.2°F3.4°C 79% 15.8 mph ENE25.4 kmh ENE 24.0 mph38.6 kmh 30.01 in1016.3 mb 0.00 in0.0 mm 0.00 in0.0 mm 0.00 in0.0 mm
12:45 PM 44.4°F6.9°C 38.3°F3.5°C 79% 12.9 mph E20.8 kmh E 24.0 mph38.6 kmh 30.01 in1016.3 mb 0.00 in0.0 mm 0.00 in0.0 mm 0.00 in0.0 mm
12:46 PM 44.4°F6.9°C 38.3°F3.5°C 79% 14.2 mph E22.9 kmh E 20.0 mph32.2 kmh 30.01 in1016.3 mb 0.00 in0.0 mm 0.00 in0.0 mm 0.00 in0.0 mm
12:47 PM 44.5°F6.9°C 38.4°F3.6°C 79% 9.8 mph E15.8 kmh E 17.0 mph27.4 kmh 30.01 in1016.3 mb 0.00 in0.0 mm 0.00 in0.0 mm 0.00 in0.0 mm
12:48 PM 44.5°F6.9°C 38.4°F3.6°C 79% 11.5 mph ENE18.5 kmh ENE 18.0 mph29.0 kmh 30.02 in1016.6 mb 0.00 in0.0 mm 0.00 in0.0 mm 0.00 in0.0 mm
12:49 PM 44.6°F7.0°C 38.5°F3.6°C 79% 12.0 mph E19.3 kmh E 19.0 mph30.6 kmh 30.02 in1016.6 mb 0.00 in0.0 mm 0.00 in0.0 mm 0.00 in0.0 mm
12:50 PM 44.6°F7.0°C 38.2°F3.4°C 78% 18.6 mph E29.9 kmh E 24.0 mph38.6 kmh 30.02 in1016.6 mb 0.00 in0.0 mm 0.00 in0.0 mm 0.00 in0.0 mm
12:51 PM 44.6°F7.0°C 38.2°F3.4°C 78% 17.7 mph E28.5 kmh E 24.0 mph38.6 kmh 30.02 in1016.6 mb 0.00 in0.0 mm 0.00 in0.0 mm 0.00 in0.0 mm
12:52 PM 44.6°F7.0°C 38.2°F3.4°C 78% 10.9 mph E17.5 kmh E 21.0 mph33.8 kmh 30.02 in1016.6 mb 0.00 in0.0 mm 0.00 in0.0 mm 0.00 in0.0 mm
12:53 PM 44.7°F7.1°C 38.3°F3.5°C 78% 11.1 mph ENE17.9 kmh ENE 15.0 mph24.1 kmh 30.02 in1016.6 mb 0.00 in0.0 mm 0.00 in0.0 mm 0.00 in0.0 mm
12:54 PM 44.7°F7.1°C 38.3°F3.5°C 78% 14.6 mph E23.5 kmh E 21.0 mph33.8 kmh 30.02 in1016.6 mb 0.00 in0.0 mm 0.00 in0.0 mm 0.00 in0.0 mm
12:55 PM 44.7°F7.1°C 38.3°F3.5°C 78% 13.8 mph E22.2 kmh E 21.0 mph33.8 kmh 30.02 in1016.6 mb 0.00 in0.0 mm 0.00 in0.0 mm 0.00 in0.0 mm
12:56 PM 44.8°F7.1°C 38.4°F3.6°C 78% 13.5 mph ENE21.7 kmh ENE 22.0 mph35.4 kmh 30.02 in1016.6 mb 0.00 in0.0 mm 0.00 in0.0 mm 0.00 in0.0 mm
12:57 PM 44.7°F7.1°C 38.3°F3.5°C 78% 20.2 mph E32.5 kmh E 23.0 mph37.0 kmh 30.02 in1016.6 mb 0.00 in0.0 mm 0.00 in0.0 mm 0.00 in0.0 mm
12:58 PM 44.7°F7.1°C 38.3°F3.5°C 78% 20.4 mph ENE32.8 kmh ENE 28.0 mph45.1 kmh 30.02 in1016.6 mb 0.00 in0.0 mm 0.00 in0.0 mm 0.00 in0.0 mm
12:59 PM 44.7°F7.1°C 38.3°F3.5°C 78% 18.6 mph E29.9 kmh E 28.0 mph45.1 kmh 30.01 in1016.3 mb 0.00 in0.0 mm 0.00 in0.0 mm 0.00 in0.0 mm
01:00 PM 44.7°F7.1°C 38.3°F3.5°C 78% 14.2 mph E22.9 kmh E 25.0 mph40.2 kmh 30.02 in1016.6 mb 0.00 in0.0 mm 0.00 in0.0 mm 0.00 in0.0 mm
01:01 PM 44.7°F7.1°C 38.3°F3.5°C 78% 15.2 mph ENE24.5 kmh ENE 19.0 mph30.6 kmh 30.02 in1016.6 mb 0.00 in0.0 mm 0.00 in0.0 mm 0.00 in0.0 mm
01:02 PM 44.7°F7.1°C 38.3°F3.5°C 78% 19.0 mph E30.6 kmh E 24.0 mph38.6 kmh 30.02 in1016.6 mb 0.00 in0.0 mm 0.00 in0.0 mm 0.00 in0.0 mm
01:03 PM 44.7°F7.1°C 38.3°F3.5°C 78% 14.1 mph E22.7 kmh E 24.0 mph38.6 kmh 30.02 in1016.6 mb 0.00 in0.0 mm 0.00 in0.0 mm 0.00 in0.0 mm
01:04 PM 44.7°F7.1°C 38.3°F3.5°C 78% 14.8 mph ENE23.8 kmh ENE 20.0 mph32.2 kmh 30.02 in1016.6 mb 0.00 in0.0 mm 0.00 in0.0 mm 0.00 in0.0 mm
01:05 PM 44.8°F7.1°C 38.4°F3.6°C 78% 15.2 mph ENE24.5 kmh ENE 22.0 mph35.4 kmh 30.01 in1016.3 mb 0.00 in0.0 mm 0.00 in0.0 mm 0.00 in0.0 mm
01:06 PM 44.8°F7.1°C 38.0°F3.3°C 77% 19.7 mph ENE31.7 kmh ENE 24.0 mph38.6 kmh 30.01 in1016.3 mb 0.00 in0.0 mm 0.00 in0.0 mm 0.00 in0.0 mm
01:07 PM 44.8°F7.1°C 38.0°F3.3°C 77% 15.3 mph ENE24.6 kmh ENE 24.0 mph38.6 kmh 30.01 in1016.3 mb 0.00 in0.0 mm 0.00 in0.0 mm 0.00 in0.0 mm
01:08 PM 44.8°F7.1°C 38.0°F3.3°C 77% 18.2 mph ENE29.3 kmh ENE 24.0 mph38.6 kmh 30.01 in1016.3 mb 0.00 in0.0 mm 0.00 in0.0 mm 0.00 in0.0 mm
01:09 PM 44.8°F7.1°C 38.0°F3.3°C 77% 17.7 mph E28.5 kmh E 24.0 mph38.6 kmh 30.01 in1016.3 mb 0.00 in0.0 mm 0.00 in0.0 mm 0.00 in0.0 mm
01:10 PM 44.8°F7.1°C 38.0°F3.3°C 77% 16.5 mph E26.6 kmh E 21.0 mph33.8 kmh 30.01 in1016.3 mb 0.00 in0.0 mm 0.00 in0.0 mm 0.00 in0.0 mm
01:11 PM 44.8°F7.1°C 38.4°F3.6°C 78% 11.6 mph E18.7 kmh E 21.0 mph33.8 kmh 30.01 in1016.3 mb 0.00 in0.0 mm 0.00 in0.0 mm 0.00 in0.0 mm
01:12 PM 44.9°F7.2°C 38.5°F3.6°C 78% 12.7 mph ENE20.4 kmh ENE 17.0 mph27.4 kmh 30.01 in1016.3 mb 0.00 in0.0 mm 0.00 in0.0 mm 0.00 in0.0 mm
01:13 PM 44.9°F7.2°C 38.5°F3.6°C 78% 15.5 mph E24.9 kmh E 21.0 mph33.8 kmh 30.01 in1016.3 mb 0.00 in0.0 mm 0.00 in0.0 mm 0.00 in0.0 mm
01:14 PM 45.0°F7.2°C 38.2°F3.4°C 77% 18.3 mph E29.5 kmh E 22.0 mph35.4 kmh 30.01 in1016.3 mb 0.00 in0.0 mm 0.00 in0.0 mm 0.00 in0.0 mm
01:15 PM 45.0°F7.2°C 38.2°F3.4°C 77% 14.9 mph E24.0 kmh E 22.0 mph35.4 kmh 30.01 in1016.3 mb 0.00 in0.0 mm 0.00 in0.0 mm 0.00 in0.0 mm
01:16 PM 45.0°F7.2°C 38.2°F3.4°C 77% 18.3 mph E29.5 kmh E 22.0 mph35.4 kmh 30.01 in1016.3 mb 0.00 in0.0 mm 0.00 in0.0 mm 0.00 in0.0 mm
01:17 PM 45.0°F7.2°C 38.2°F3.4°C 77% 17.6 mph E28.3 kmh E 24.0 mph38.6 kmh 30.01 in1016.3 mb 0.00 in0.0 mm 0.00 in0.0 mm 0.00 in0.0 mm
01:18 PM 45.0°F7.2°C 38.2°F3.4°C 77% 12.4 mph ENE20.0 kmh ENE 24.0 mph38.6 kmh 30.01 in1016.3 mb 0.00 in0.0 mm 0.00 in0.0 mm 0.00 in0.0 mm
01:19 PM 45.1°F7.3°C 38.3°F3.5°C 77% 17.4 mph ENE28.0 kmh ENE 24.0 mph38.6 kmh 30.01 in1016.3 mb 0.00 in0.0 mm 0.00 in0.0 mm 0.00 in0.0 mm
01:20 PM 45.1°F7.3°C 38.3°F3.5°C 77% 20.4 mph NE32.8 kmh NE 25.0 mph40.2 kmh 30.01 in1016.3 mb 0.00 in0.0 mm 0.00 in0.0 mm 0.00 in0.0 mm
01:21 PM 45.1°F7.3°C 38.3°F3.5°C 77% 15.1 mph ENE24.3 kmh ENE 25.0 mph40.2 kmh 30.01 in1016.3 mb 0.00 in0.0 mm 0.00 in0.0 mm 0.00 in0.0 mm
01:22 PM 45.1°F7.3°C 38.3°F3.5°C 77% 19.9 mph ENE32.0 kmh ENE 27.0 mph43.5 kmh 30.01 in1016.3 mb 0.00 in0.0 mm 0.00 in0.0 mm 0.00 in0.0 mm
01:23 PM 45.1°F7.3°C 38.3°F3.5°C 77% 17.5 mph ENE28.2 kmh ENE 27.0 mph43.5 kmh 30.01 in1016.3 mb 0.00 in0.0 mm 0.00 in0.0 mm 0.00 in0.0 mm
01:24 PM 45.1°F7.3°C 38.3°F3.5°C 77% 16.4 mph E26.4 kmh E 25.0 mph40.2 kmh 30.01 in1016.3 mb 0.00 in0.0 mm 0.00 in0.0 mm 0.00 in0.0 mm
01:25 PM 45.1°F7.3°C 38.3°F3.5°C 77% 16.8 mph E27.0 kmh E 25.0 mph40.2 kmh 30.01 in1016.3 mb 0.00 in0.0 mm 0.00 in0.0 mm 0.00 in0.0 mm
01:26 PM 45.1°F7.3°C 38.3°F3.5°C 77% 19.4 mph ENE31.2 kmh ENE 26.0 mph41.8 kmh 30.01 in1016.3 mb 0.00 in0.0 mm 0.00 in0.0 mm 0.00 in0.0 mm
01:27 PM 45.1°F7.3°C 38.3°F3.5°C 77% 15.3 mph ENE24.6 kmh ENE 26.0 mph41.8 kmh 30.01 in1016.3 mb 0.00 in0.0 mm 0.00 in0.0 mm 0.00 in0.0 mm
01:28 PM 45.1°F7.3°C 38.3°F3.5°C 77% 16.9 mph ENE27.2 kmh ENE 23.0 mph37.0 kmh 30.01 in1016.3 mb 0.00 in0.0 mm 0.00 in0.0 mm 0.00 in0.0 mm
01:29 PM 45.1°F7.3°C 38.3°F3.5°C 77% 15.7 mph E25.3 kmh E 23.0 mph37.0 kmh 30.01 in1016.3 mb 0.00 in0.0 mm 0.00 in0.0 mm 0.00 in0.0 mm
01:30 PM 45.2°F7.3°C 38.1°F3.4°C 76% 17.6 mph E28.3 kmh E 24.0 mph38.6 kmh 30.01 in1016.3 mb 0.00 in0.0 mm 0.00 in0.0 mm 0.00 in0.0 mm
01:31 PM 45.2°F7.3°C 38.1°F3.4°C 76% 17.1 mph ENE27.5 kmh ENE 24.0 mph38.6 kmh 30.01 in1016.3 mb 0.00 in0.0 mm 0.00 in0.0 mm 0.00 in0.0 mm
01:32 PM 45.1°F7.3°C 38.0°F3.3°C 76% 22.0 mph ENE35.4 kmh ENE 29.0 mph46.7 kmh 30.01 in1016.3 mb 0.00 in0.0 mm 0.00 in0.0 mm 0.00 in0.0 mm
01:33 PM 45.0°F7.2°C 37.9°F3.3°C 76% 19.6 mph ENE31.5 kmh ENE 29.0 mph46.7 kmh 30.01 in1016.3 mb 0.00 in0.0 mm 0.00 in0.0 mm 0.00 in0.0 mm
01:34 PM 45.0°F7.2°C 38.2°F3.4°C 77% 18.3 mph ENE29.5 kmh ENE 25.0 mph40.2 kmh 30.01 in1016.3 mb 0.00 in0.0 mm 0.00 in0.0 mm 0.00 in0.0 mm
01:35 PM 45.0°F7.2°C 38.2°F3.4°C 77% 14.6 mph E23.5 kmh E 24.0 mph38.6 kmh 30.01 in1016.3 mb 0.00 in0.0 mm 0.00 in0.0 mm 0.00 in0.0 mm
01:36 PM 45.1°F7.3°C 38.3°F3.5°C 77% 13.7 mph E22.0 kmh E 20.0 mph32.2 kmh 30.01 in1016.3 mb 0.00 in0.0 mm 0.00 in0.0 mm 0.00 in0.0 mm
01:37 PM 45.2°F7.3°C 38.4°F3.6°C 77% 14.6 mph E23.5 kmh E 20.0 mph32.2 kmh 30.01 in1016.3 mb 0.00 in0.0 mm 0.00 in0.0 mm 0.00 in0.0 mm
01:38 PM 45.2°F7.3°C 38.4°F3.6°C 77% 18.5 mph ENE29.8 kmh ENE 24.0 mph38.6 kmh 30.01 in1016.3 mb 0.00 in0.0 mm 0.00 in0.0 mm 0.00 in0.0 mm
01:39 PM 45.2°F7.3°C 38.1°F3.4°C 76% 18.9 mph ENE30.4 kmh ENE 25.0 mph40.2 kmh 30.01 in1016.3 mb 0.00 in0.0 mm 0.00 in0.0 mm 0.00 in0.0 mm
01:40 PM 45.2°F7.3°C 38.1°F3.4°C 76% 19.2 mph ENE30.9 kmh ENE 25.0 mph40.2 kmh 30.01 in1016.3 mb 0.00 in0.0 mm 0.00 in0.0 mm 0.00 in0.0 mm
01:41 PM 45.2°F7.3°C 38.1°F3.4°C 76% 16.6 mph E26.7 kmh E 23.0 mph37.0 kmh 30.02 in1016.6 mb 0.00 in0.0 mm 0.00 in0.0 mm 0.00 in0.0 mm
01:42 PM 45.2°F7.3°C 38.1°F3.4°C 76% 17.8 mph ENE28.6 kmh ENE 23.0 mph37.0 kmh 30.02 in1016.6 mb 0.00 in0.0 mm 0.00 in0.0 mm 0.00 in0.0 mm
01:43 PM 45.2°F7.3°C 38.1°F3.4°C 76% 21.7 mph E34.9 kmh E 28.0 mph45.1 kmh 30.02 in1016.6 mb 0.00 in0.0 mm 0.00 in0.0 mm 0.00 in0.0 mm
01:44 PM 45.1°F7.3°C 38.0°F3.3°C 76% 16.0 mph E25.7 kmh E 28.0 mph45.1 kmh 30.02 in1016.6 mb 0.00 in0.0 mm 0.00 in0.0 mm 0.00 in0.0 mm
01:45 PM 45.2°F7.3°C 38.1°F3.4°C 76% 16.4 mph ENE26.4 kmh ENE 24.0 mph38.6 kmh 30.02 in1016.6 mb 0.00 in0.0 mm 0.00 in0.0 mm 0.00 in0.0 mm
01:46 PM 45.2°F7.3°C 38.1°F3.4°C 76% 17.5 mph ENE28.2 kmh ENE 22.0 mph35.4 kmh 30.02 in1016.6 mb 0.00 in0.0 mm 0.00 in0.0 mm 0.00 in0.0 mm
01:47 PM 45.2°F7.3°C 38.1°F3.4°C 76% 19.1 mph E30.7 kmh E 28.0 mph45.1 kmh 30.01 in1016.3 mb 0.00 in0.0 mm 0.00 in0.0 mm 0.00 in0.0 mm
01:48 PM 45.1°F7.3°C 38.0°F3.3°C 76% 19.2 mph E30.9 kmh E 28.0 mph45.1 kmh 30.01 in1016.3 mb 0.00 in0.0 mm 0.00 in0.0 mm 0.00 in0.0 mm
01:49 PM 45.1°F7.3°C 38.0°F3.3°C 76% 19.8 mph E31.9 kmh E 26.0 mph41.8 kmh 30.01 in1016.3 mb 0.00 in0.0 mm 0.00 in0.0 mm 0.00 in0.0 mm
01:50 PM 45.1°F7.3°C 38.0°F3.3°C 76% 18.6 mph ENE29.9 kmh ENE 26.0 mph41.8 kmh 30.01 in1016.3 mb 0.00 in0.0 mm 0.00 in0.0 mm 0.00 in0.0 mm
01:51 PM 45.1°F7.3°C 38.0°F3.3°C 76% 17.0 mph ENE27.4 kmh ENE 23.0 mph37.0 kmh 30.02 in1016.6 mb 0.00 in0.0 mm 0.00 in0.0 mm 0.00 in0.0 mm
01:52 PM 45.1°F7.3°C 38.0°F3.3°C 76% 16.0 mph ENE25.7 kmh ENE 23.0 mph37.0 kmh 30.01 in1016.3 mb 0.00 in0.0 mm 0.00 in0.0 mm 0.00 in0.0 mm
01:53 PM 45.1°F7.3°C 38.0°F3.3°C 76% 16.0 mph E25.7 kmh E 25.0 mph40.2 kmh 30.01 in1016.3 mb 0.00 in0.0 mm 0.00 in0.0 mm 0.00 in0.0 mm
01:54 PM 45.1°F7.3°C 38.0°F3.3°C 76% 16.6 mph ENE26.7 kmh ENE 25.0 mph40.2 kmh 30.02 in1016.6 mb 0.00 in0.0 mm 0.00 in0.0 mm 0.00 in0.0 mm
01:55 PM 45.1°F7.3°C 38.0°F3.3°C 76% 15.6 mph E25.1 kmh E 25.0 mph40.2 kmh 30.01 in1016.3 mb 0.00 in0.0 mm 0.00 in0.0 mm 0.00 in0.0 mm
01:56 PM 45.1°F7.3°C 38.0°F3.3°C 76% 17.3 mph E27.8 kmh E 25.0 mph40.2 kmh 30.01 in1016.3 mb 0.00 in0.0 mm 0.00 in0.0 mm 0.00 in0.0 mm
01:57 PM 45.2°F7.3°C 38.1°F3.4°C 76% 11.8 mph E19.0 kmh E 20.0 mph32.2 kmh 30.01 in1016.3 mb 0.00 in0.0 mm 0.00 in0.0 mm 0.00 in0.0 mm
01:58 PM 45.2°F7.3°C 38.1°F3.4°C 76% 11.2 mph ENE18.0 kmh ENE 17.0 mph27.4 kmh 30.02 in1016.6 mb 0.00 in0.0 mm 0.00 in0.0 mm 0.00 in0.0 mm
01:59 PM 45.3°F7.4°C 38.2°F3.4°C 76% 14.8 mph ENE23.8 kmh ENE 23.0 mph37.0 kmh 30.01 in1016.3 mb 0.00 in0.0 mm 0.00 in0.0 mm 0.00 in0.0 mm
02:00 PM 45.3°F7.4°C 38.2°F3.4°C 76% 19.7 mph ENE31.7 kmh ENE 25.0 mph40.2 kmh 30.01 in1016.3 mb 0.00 in0.0 mm 0.00 in0.0 mm 0.00 in0.0 mm
02:01 PM 45.3°F7.4°C 38.2°F3.4°C 76% 20.4 mph ENE32.8 kmh ENE 30.0 mph48.3 kmh 30.01 in1016.3 mb 0.00 in0.0 mm 0.00 in0.0 mm 0.00 in0.0 mm
02:02 PM 45.4°F7.4°C 38.3°F3.5°C 76% 16.5 mph ENE26.6 kmh ENE 30.0 mph48.3 kmh 30.01 in1016.3 mb 0.00 in0.0 mm 0.00 in0.0 mm 0.00 in0.0 mm
02:03 PM 45.4°F7.4°C 37.9°F3.3°C 75% 21.3 mph ENE34.3 kmh ENE 27.0 mph43.5 kmh 30.01 in1016.3 mb 0.00 in0.0 mm 0.00 in0.0 mm 0.00 in0.0 mm
02:04 PM 45.3°F7.4°C 37.9°F3.3°C 75% 23.6 mph E38.0 kmh E 31.0 mph49.9 kmh 30.01 in1016.3 mb 0.00 in0.0 mm 0.00 in0.0 mm 0.00 in0.0 mm
02:05 PM 45.2°F7.3°C 37.8°F3.2°C 75% 19.0 mph E30.6 kmh E 31.0 mph49.9 kmh 30.01 in1016.3 mb 0.00 in0.0 mm 0.00 in0.0 mm 0.00 in0.0 mm
02:06 PM 45.2°F7.3°C 38.1°F3.4°C 76% 20.4 mph E32.8 kmh E 28.0 mph45.1 kmh 30.01 in1016.3 mb 0.00 in0.0 mm 0.00 in0.0 mm 0.00 in0.0 mm
02:07 PM 45.2°F7.3°C 37.8°F3.2°C 75% 19.0 mph ENE30.6 kmh ENE 28.0 mph45.1 kmh 30.01 in1016.3 mb 0.00 in0.0 mm 0.00 in0.0 mm 0.00 in0.0 mm
02:08 PM 45.2°F7.3°C 37.8°F3.2°C 75% 18.6 mph E29.9 kmh E 26.0 mph41.8 kmh 30.02 in1016.6 mb 0.00 in0.0 mm 0.00 in0.0 mm 0.00 in0.0 mm
02:09 PM 45.2°F7.3°C 38.1°F3.4°C 76% 17.5 mph E28.2 kmh E 27.0 mph43.5 kmh 30.02 in1016.6 mb 0.00 in0.0 mm 0.00 in0.0 mm 0.00 in0.0 mm
02:10 PM 45.2°F7.3°C 38.1°F3.4°C 76% 14.2 mph E22.9 kmh E 27.0 mph43.5 kmh 30.02 in1016.6 mb 0.00 in0.0 mm 0.00 in0.0 mm 0.00 in0.0 mm
02:11 PM 45.2°F7.3°C 38.1°F3.4°C 76% 15.0 mph E24.1 kmh E 21.0 mph33.8 kmh 30.02 in1016.6 mb 0.00 in0.0 mm 0.00 in0.0 mm 0.00 in0.0 mm
02:12 PM 45.2°F7.3°C 38.1°F3.4°C 76% 18.6 mph E29.9 kmh E 24.0 mph38.6 kmh 30.02 in1016.6 mb 0.00 in0.0 mm 0.00 in0.0 mm 0.00 in0.0 mm
02:13 PM 45.2°F7.3°C 38.1°F3.4°C 76% 15.2 mph E24.5 kmh E 24.0 mph38.6 kmh 30.02 in1016.6 mb 0.00 in0.0 mm 0.00 in0.0 mm 0.00 in0.0 mm
02:14 PM 45.3°F7.4°C 38.2°F3.4°C 76% 17.1 mph E27.5 kmh E 21.0 mph33.8 kmh 30.02 in1016.6 mb 0.00 in0.0 mm 0.00 in0.0 mm 0.00 in0.0 mm
02:15 PM 45.3°F7.4°C 38.2°F3.4°C 76% 14.9 mph E24.0 kmh E 21.0 mph33.8 kmh 30.02 in1016.6 mb 0.00 in0.0 mm 0.00 in0.0 mm 0.00 in0.0 mm
02:16 PM 45.4°F7.4°C 38.3°F3.5°C 76% 12.2 mph E19.6 kmh E 18.0 mph29.0 kmh 30.02 in1016.6 mb 0.00 in0.0 mm 0.00 in0.0 mm 0.00 in0.0 mm
02:17 PM 45.4°F7.4°C 38.3°F3.5°C 76% 14.4 mph E23.2 kmh E 21.0 mph33.8 kmh 30.02 in1016.6 mb 0.00 in0.0 mm 0.00 in0.0 mm 0.00 in0.0 mm
02:18 PM 45.5°F7.5°C 38.4°F3.6°C 76% 16.6 mph E26.7 kmh E 21.0 mph33.8 kmh 30.02 in1016.6 mb 0.00 in0.0 mm 0.00 in0.0 mm 0.00 in0.0 mm
02:19 PM 45.5°F7.5°C 38.0°F3.3°C 75% 14.0 mph ENE22.5 kmh ENE 21.0 mph33.8 kmh 30.02 in1016.6 mb 0.00 in0.0 mm 0.00 in0.0 mm 0.00 in0.0 mm
02:20 PM 45.5°F7.5°C 38.4°F3.6°C 76% 11.6 mph ENE18.7 kmh ENE 21.0 mph33.8 kmh 30.02 in1016.6 mb 0.00 in0.0 mm 0.00 in0.0 mm 0.00 in0.0 mm
02:21 PM 45.6°F7.6°C 38.1°F3.4°C 75% 14.3 mph ENE23.0 kmh ENE 20.0 mph32.2 kmh 30.02 in1016.6 mb 0.00 in0.0 mm 0.00 in0.0 mm 0.00 in0.0 mm
02:22 PM 45.7°F7.6°C 38.2°F3.4°C 75% 14.2 mph ENE22.9 kmh ENE 22.0 mph35.4 kmh 30.02 in1016.6 mb 0.00 in0.0 mm 0.00 in0.0 mm 0.00 in0.0 mm
02:23 PM 45.7°F7.6°C 38.2°F3.4°C 75% 17.5 mph ENE28.2 kmh ENE 25.0 mph40.2 kmh 30.02 in1016.6 mb 0.00 in0.0 mm 0.00 in0.0 mm 0.00 in0.0 mm
02:24 PM 45.7°F7.6°C 38.2°F3.4°C 75% 16.0 mph E25.7 kmh E 25.0 mph40.2 kmh 30.02 in1016.6 mb 0.00 in0.0 mm 0.00 in0.0 mm 0.00 in0.0 mm
02:25 PM 45.8°F7.7°C 38.3°F3.5°C 75% 18.7 mph ENE30.1 kmh ENE 26.0 mph41.8 kmh 30.02 in1016.6 mb 0.00 in0.0 mm 0.00 in0.0 mm 0.00 in0.0 mm
02:26 PM 45.7°F7.6°C 38.2°F3.4°C 75% 16.5 mph E26.6 kmh E 26.0 mph41.8 kmh 30.02 in1016.6 mb 0.00 in0.0 mm 0.00 in0.0 mm 0.00 in0.0 mm
02:27 PM 45.6°F7.6°C 38.1°F3.4°C 75% 16.0 mph E25.7 kmh E 25.0 mph40.2 kmh 30.02 in1016.6 mb 0.00 in0.0 mm 0.00 in0.0 mm 0.00 in0.0 mm
02:28 PM 45.6°F7.6°C 38.1°F3.4°C 75% 19.7 mph ENE31.7 kmh ENE 25.0 mph40.2 kmh 30.02 in1016.6 mb 0.00 in0.0 mm 0.00 in0.0 mm 0.00 in0.0 mm
02:29 PM 45.6°F7.6°C 38.1°F3.4°C 75% 16.9 mph E27.2 kmh E 25.0 mph40.2 kmh 30.02 in1016.6 mb 0.00 in0.0 mm 0.00 in0.0 mm 0.00 in0.0 mm
02:30 PM 45.5°F7.5°C 38.0°F3.3°C 75% 18.0 mph E29.0 kmh E 24.0 mph38.6 kmh 30.01 in1016.3 mb 0.00 in0.0 mm 0.00 in0.0 mm 0.00 in0.0 mm
02:31 PM 45.5°F7.5°C 38.0°F3.3°C 75% 13.8 mph E22.2 kmh E 24.0 mph38.6 kmh 30.02 in1016.6 mb 0.00 in0.0 mm 0.00 in0.0 mm 0.00 in0.0 mm
02:32 PM 45.5°F7.5°C 38.0°F3.3°C 75% 19.0 mph E30.6 kmh E 23.0 mph37.0 kmh 30.02 in1016.6 mb 0.00 in0.0 mm 0.00 in0.0 mm 0.00 in0.0 mm
02:33 PM 45.6°F7.6°C 38.1°F3.4°C 75% 13.9 mph E22.4 kmh E 23.0 mph37.0 kmh 30.02 in1016.6 mb 0.00 in0.0 mm 0.00 in0.0 mm 0.00 in0.0 mm
02:34 PM 45.6°F7.6°C 38.1°F3.4°C 75% 16.5 mph ENE26.6 kmh ENE 22.0 mph35.4 kmh 30.02 in1016.6 mb 0.00 in0.0 mm 0.00 in0.0 mm 0.00 in0.0 mm
02:35 PM 45.6°F7.6°C 38.1°F3.4°C 75% 15.7 mph ENE25.3 kmh ENE 22.0 mph35.4 kmh 30.02 in1016.6 mb 0.00 in0.0 mm 0.00 in0.0 mm 0.00 in0.0 mm
02:36 PM 45.6°F7.6°C 38.1°F3.4°C 75% 16.8 mph E27.0 kmh E 22.0 mph35.4 kmh 30.02 in1016.6 mb 0.00 in0.0 mm 0.00 in0.0 mm 0.00 in0.0 mm
02:37 PM 45.6°F7.6°C 38.1°F3.4°C 75% 19.7 mph E31.7 kmh E 27.0 mph43.5 kmh 30.02 in1016.6 mb 0.00 in0.0 mm 0.00 in0.0 mm 0.00 in0.0 mm
02:38 PM 45.6°F7.6°C 38.1°F3.4°C 75% 22.4 mph E36.0 kmh E 28.0 mph45.1 kmh 30.02 in1016.6 mb 0.00 in0.0 mm 0.00 in0.0 mm 0.00 in0.0 mm
02:39 PM 45.5°F7.5°C 38.0°F3.3°C 75% 16.5 mph ENE26.6 kmh ENE 28.0 mph45.1 kmh 30.02 in1016.6 mb 0.00 in0.0 mm 0.00 in0.0 mm 0.00 in0.0 mm
02:40 PM 45.5°F7.5°C 38.0°F3.3°C 75% 20.1 mph E32.3 kmh E 28.0 mph45.1 kmh 30.02 in1016.6 mb 0.00 in0.0 mm 0.00 in0.0 mm 0.00 in0.0 mm
02:41 PM 45.5°F7.5°C 38.0°F3.3°C 75% 19.4 mph ENE31.2 kmh ENE 28.0 mph45.1 kmh 30.02 in1016.6 mb 0.00 in0.0 mm 0.00 in0.0 mm 0.00 in0.0 mm
02:42 PM 45.5°F7.5°C 38.0°F3.3°C 75% 11.8 mph E19.0 kmh E 26.0 mph41.8 kmh 30.02 in1016.6 mb 0.00 in0.0 mm 0.00 in0.0 mm 0.00 in0.0 mm
02:43 PM 45.6°F7.6°C 38.1°F3.4°C 75% 17.0 mph ENE27.4 kmh ENE 24.0 mph38.6 kmh 30.02 in1016.6 mb 0.00 in0.0 mm 0.00 in0.0 mm 0.00 in0.0 mm
02:44 PM 45.6°F7.6°C 38.1°F3.4°C 75% 18.6 mph E29.9 kmh E 25.0 mph40.2 kmh 30.02 in1016.6 mb 0.00 in0.0 mm 0.00 in0.0 mm 0.00 in0.0 mm
02:45 PM 45.6°F7.6°C 38.1°F3.4°C 75% 13.3 mph E21.4 kmh E 25.0 mph40.2 kmh 30.02 in1016.6 mb 0.00 in0.0 mm 0.00 in0.0 mm 0.00 in0.0 mm
02:46 PM 45.6°F7.6°C 38.1°F3.4°C 75% 10.9 mph ENE17.5 kmh ENE 17.0 mph27.4 kmh 30.02 in1016.6 mb 0.00 in0.0 mm 0.00 in0.0 mm 0.00 in0.0 mm
02:47 PM 45.7°F7.6°C 38.2°F3.4°C 75% 16.2 mph ENE26.1 kmh ENE 22.0 mph35.4 kmh 30.02 in1016.6 mb 0.00 in0.0 mm 0.00 in0.0 mm 0.00 in0.0 mm
02:48 PM 45.7°F7.6°C 38.2°F3.4°C 75% 21.0 mph E33.8 kmh E 25.0 mph40.2 kmh 30.02 in1016.6 mb 0.00 in0.0 mm 0.00 in0.0 mm 0.00 in0.0 mm
02:49 PM 45.7°F7.6°C 37.9°F3.3°C 74% 16.6 mph E26.7 kmh E 25.0 mph40.2 kmh 30.02 in1016.6 mb 0.00 in0.0 mm 0.00 in0.0 mm 0.00 in0.0 mm
02:50 PM 45.7°F7.6°C 38.2°F3.4°C 75% 12.0 mph ENE19.3 kmh ENE 23.0 mph37.0 kmh 30.02 in1016.6 mb 0.00 in0.0 mm 0.00 in0.0 mm 0.00 in0.0 mm
02:51 PM 45.7°F7.6°C 38.2°F3.4°C 75% 15.4 mph ENE24.8 kmh ENE 21.0 mph33.8 kmh 30.02 in1016.6 mb 0.00 in0.0 mm 0.00 in0.0 mm 0.00 in0.0 mm
02:52 PM 45.7°F7.6°C 38.2°F3.4°C 75% 14.5 mph ENE23.3 kmh ENE 21.0 mph33.8 kmh 30.02 in1016.6 mb 0.00 in0.0 mm 0.00 in0.0 mm 0.00 in0.0 mm
02:53 PM 45.7°F7.6°C 38.2°F3.4°C 75% 16.0 mph E25.7 kmh E 21.0 mph33.8 kmh 30.02 in1016.6 mb 0.00 in0.0 mm 0.00 in0.0 mm 0.00 in0.0 mm
02:54 PM 45.7°F7.6°C 37.9°F3.3°C 74% 16.7 mph E26.9 kmh E 21.0 mph33.8 kmh 30.02 in1016.6 mb 0.00 in0.0 mm 0.00 in0.0 mm 0.00 in0.0 mm
02:55 PM 45.7°F7.6°C 38.2°F3.4°C 75% 16.5 mph E26.6 kmh E 22.0 mph35.4 kmh 30.02 in1016.6 mb 0.00 in0.0 mm 0.00 in0.0 mm 0.00 in0.0 mm
02:56 PM 45.7°F7.6°C 38.2°F3.4°C 75% 15.3 mph E24.6 kmh E 22.0 mph35.4 kmh 30.02 in1016.6 mb 0.00 in0.0 mm 0.00 in0.0 mm 0.00 in0.0 mm
02:57 PM 45.7°F7.6°C 38.2°F3.4°C 75% 16.1 mph E25.9 kmh E 22.0 mph35.4 kmh 30.02 in1016.6 mb 0.00 in0.0 mm 0.00 in0.0 mm 0.00 in0.0 mm
02:58 PM 45.6°F7.6°C 38.1°F3.4°C 75% 17.7 mph E28.5 kmh E 22.0 mph35.4 kmh 30.02 in1016.6 mb 0.00 in0.0 mm 0.00 in0.0 mm 0.00 in0.0 mm
02:59 PM 45.7°F7.6°C 38.2°F3.4°C 75% 11.0 mph E17.7 kmh E 22.0 mph35.4 kmh 30.02 in1016.6 mb 0.00 in0.0 mm 0.00 in0.0 mm 0.00 in0.0 mm
03:00 PM 45.7°F7.6°C 38.2°F3.4°C 75% 13.9 mph E22.4 kmh E 22.0 mph35.4 kmh 30.02 in1016.6 mb 0.00 in0.0 mm 0.00 in0.0 mm 0.00 in0.0 mm
03:01 PM 45.7°F7.6°C 38.2°F3.4°C 75% 12.6 mph E20.3 kmh E 22.0 mph35.4 kmh 30.02 in1016.6 mb 0.00 in0.0 mm 0.00 in0.0 mm 0.00 in0.0 mm
03:02 PM 45.8°F7.7°C 38.3°F3.5°C 75% 14.2 mph E22.9 kmh E 21.0 mph33.8 kmh 30.02 in1016.6 mb 0.00 in0.0 mm 0.00 in0.0 mm 0.00 in0.0 mm
03:03 PM 45.8°F7.7°C 38.3°F3.5°C 75% 16.3 mph ENE26.2 kmh ENE 22.0 mph35.4 kmh 30.02 in1016.6 mb 0.00 in0.0 mm 0.00 in0.0 mm 0.00 in0.0 mm
03:04 PM 45.8°F7.7°C 38.3°F3.5°C 75% 16.8 mph E27.0 kmh E 22.0 mph35.4 kmh 30.02 in1016.6 mb 0.00 in0.0 mm 0.00 in0.0 mm 0.00 in0.0 mm
03:05 PM 45.8°F7.7°C 38.3°F3.5°C 75% 15.4 mph ENE24.8 kmh ENE 22.0 mph35.4 kmh 30.02 in1016.6 mb 0.00 in0.0 mm 0.00 in0.0 mm 0.00 in0.0 mm
03:06 PM 45.8°F7.7°C 38.3°F3.5°C 75% 15.2 mph E24.5 kmh E 19.0 mph30.6 kmh 30.02 in1016.6 mb 0.00 in0.0 mm 0.00 in0.0 mm 0.00 in0.0 mm
03:07 PM 45.8°F7.7°C 38.3°F3.5°C 75% 10.6 mph E17.1 kmh E 17.0 mph27.4 kmh 30.02 in1016.6 mb 0.00 in0.0 mm 0.00 in0.0 mm 0.00 in0.0 mm
03:08 PM 45.8°F7.7°C 38.3°F3.5°C 75% 9.3 mph ENE15.0 kmh ENE 15.0 mph24.1 kmh 30.02 in1016.6 mb 0.00 in0.0 mm 0.00 in0.0 mm 0.00 in0.0 mm
03:09 PM 45.9°F7.7°C 38.4°F3.6°C 75% 10.4 mph E16.7 kmh E 14.0 mph22.5 kmh 30.02 in1016.6 mb 0.00 in0.0 mm 0.00 in0.0 mm 0.00 in0.0 mm
03:10 PM 45.9°F7.7°C 38.4°F3.6°C 75% 11.2 mph E18.0 kmh E 15.0 mph24.1 kmh 30.02 in1016.6 mb 0.00 in0.0 mm 0.00 in0.0 mm 0.00 in0.0 mm
03:11 PM 46.0°F7.8°C 38.5°F3.6°C 75% 9.4 mph ENE15.1 kmh ENE 15.0 mph24.1 kmh 30.02 in1016.6 mb 0.00 in0.0 mm 0.00 in0.0 mm 0.00 in0.0 mm
03:12 PM 46.0°F7.8°C 38.5°F3.6°C 75% 11.3 mph ENE18.2 kmh ENE 15.0 mph24.1 kmh 30.02 in1016.6 mb 0.00 in0.0 mm 0.00 in0.0 mm 0.00 in0.0 mm
03:13 PM 46.1°F7.8°C 38.6°F3.7°C 75% 13.1 mph NE21.1 kmh NE 20.0 mph32.2 kmh 30.02 in1016.6 mb 0.00 in0.0 mm 0.00 in0.0 mm 0.00 in0.0 mm
03:14 PM 46.1°F7.8°C 38.3°F3.5°C 74% 13.6 mph ENE21.9 kmh ENE 20.0 mph32.2 kmh 30.02 in1016.6 mb 0.00 in0.0 mm 0.00 in0.0 mm 0.00 in0.0 mm
03:15 PM 46.1°F7.8°C 38.3°F3.5°C 74% 14.7 mph ENE23.7 kmh ENE 18.0 mph29.0 kmh 30.02 in1016.6 mb 0.00 in0.0 mm 0.00 in0.0 mm 0.00 in0.0 mm
03:16 PM 46.1°F7.8°C 38.3°F3.5°C 74% 12.1 mph ENE19.5 kmh ENE 18.0 mph29.0 kmh 30.02 in1016.6 mb 0.00 in0.0 mm 0.00 in0.0 mm 0.00 in0.0 mm
03:17 PM 46.2°F7.9°C 38.4°F3.6°C 74% 16.3 mph ENE26.2 kmh ENE 20.0 mph32.2 kmh 30.02 in1016.6 mb 0.00 in0.0 mm 0.00 in0.0 mm 0.00 in0.0 mm
03:18 PM 46.2°F7.9°C 38.4°F3.6°C 74% 12.2 mph ENE19.6 kmh ENE 20.0 mph32.2 kmh 30.02 in1016.6 mb 0.00 in0.0 mm 0.00 in0.0 mm 0.00 in0.0 mm
03:19 PM 46.2°F7.9°C 38.4°F3.6°C 74% 14.0 mph ENE22.5 kmh ENE 20.0 mph32.2 kmh 30.02 in1016.6 mb 0.00 in0.0 mm 0.00 in0.0 mm 0.00 in0.0 mm
03:20 PM 46.3°F7.9°C 38.5°F3.6°C 74% 12.7 mph ENE20.4 kmh ENE 20.0 mph32.2 kmh 30.02 in1016.6 mb 0.00 in0.0 mm 0.00 in0.0 mm 0.00 in0.0 mm
03:21 PM 46.3°F7.9°C 38.5°F3.6°C 74% 14.9 mph ENE24.0 kmh ENE 21.0 mph33.8 kmh 30.02 in1016.6 mb 0.00 in0.0 mm 0.00 in0.0 mm 0.00 in0.0 mm
03:22 PM 46.3°F7.9°C 38.5°F3.6°C 74% 12.5 mph E20.1 kmh E 21.0 mph33.8 kmh 30.02 in1016.6 mb 0.00 in0.0 mm 0.00 in0.0 mm 0.00 in0.0 mm
03:23 PM 46.4°F8.0°C 38.9°F3.8°C 75% 14.7 mph E23.7 kmh E 19.0 mph30.6 kmh 30.02 in1016.6 mb 0.00 in0.0 mm 0.00 in0.0 mm 0.00 in0.0 mm
03:24 PM 46.4°F8.0°C 38.6°F3.7°C 74% 13.2 mph E21.2 kmh E 19.0 mph30.6 kmh 30.02 in1016.6 mb 0.00 in0.0 mm 0.00 in0.0 mm 0.00 in0.0 mm
03:25 PM 46.5°F8.1°C 38.7°F3.7°C 74% 12.5 mph E20.1 kmh E 18.0 mph29.0 kmh 30.02 in1016.6 mb 0.00 in0.0 mm 0.00 in0.0 mm 0.00 in0.0 mm
03:26 PM 46.5°F8.1°C 39.0°F3.9°C 75% 9.8 mph ENE15.8 kmh ENE 18.0 mph29.0 kmh 30.02 in1016.6 mb 0.00 in0.0 mm 0.00 in0.0 mm 0.00 in0.0 mm
03:27 PM 46.6°F8.1°C 38.8°F3.8°C 74% 13.9 mph E22.4 kmh E 18.0 mph29.0 kmh 30.02 in1016.6 mb 0.00 in0.0 mm 0.00 in0.0 mm 0.00 in0.0 mm
03:28 PM 46.6°F8.1°C 38.8°F3.8°C 74% 14.6 mph E23.5 kmh E 18.0 mph29.0 kmh 30.02 in1016.6 mb 0.00 in0.0 mm 0.00 in0.0 mm 0.00 in0.0 mm
03:29 PM 46.6°F8.1°C 38.8°F3.8°C 74% 19.7 mph E31.7 kmh E 24.0 mph38.6 kmh 30.02 in1016.6 mb 0.00 in0.0 mm 0.00 in0.0 mm 0.00 in0.0 mm
03:30 PM 46.7°F8.2°C 38.9°F3.8°C 74% 15.1 mph ENE24.3 kmh ENE 24.0 mph38.6 kmh 30.02 in1016.6 mb 0.00 in0.0 mm 0.00 in0.0 mm 0.00 in0.0 mm
03:31 PM 46.7°F8.2°C 38.9°F3.8°C 74% 13.8 mph ENE22.2 kmh ENE 22.0 mph35.4 kmh 30.02 in1016.6 mb 0.00 in0.0 mm 0.00 in0.0 mm 0.00 in0.0 mm
03:32 PM 46.8°F8.2°C 39.0°F3.9°C 74% 17.3 mph ENE27.8 kmh ENE 22.0 mph35.4 kmh 30.02 in1016.6 mb 0.00 in0.0 mm 0.00 in0.0 mm 0.00 in0.0 mm
03:33 PM 46.8°F8.2°C 39.0°F3.9°C 74% 18.3 mph E29.5 kmh E 23.0 mph37.0 kmh 30.02 in1016.6 mb 0.00 in0.0 mm 0.00 in0.0 mm 0.00 in0.0 mm
03:34 PM 46.9°F8.3°C 38.7°F3.7°C 73% 15.2 mph E24.5 kmh E 23.0 mph37.0 kmh 30.02 in1016.6 mb 0.00 in0.0 mm 0.00 in0.0 mm 0.00 in0.0 mm
03:35 PM 46.9°F8.3°C 38.7°F3.7°C 73% 16.7 mph E26.9 kmh E 22.0 mph35.4 kmh 30.02 in1016.6 mb 0.00 in0.0 mm 0.00 in0.0 mm 0.00 in0.0 mm
03:36 PM 46.9°F8.3°C 38.7°F3.7°C 73% 15.5 mph E24.9 kmh E 22.0 mph35.4 kmh 30.02 in1016.6 mb 0.00 in0.0 mm 0.00 in0.0 mm 0.00 in0.0 mm
03:37 PM 46.9°F8.3°C 38.7°F3.7°C 73% 16.8 mph ENE27.0 kmh ENE 22.0 mph35.4 kmh 30.02 in1016.6 mb 0.00 in0.0 mm 0.00 in0.0 mm 0.00 in0.0 mm
03:38 PM 46.9°F8.3°C 38.7°F3.7°C 73% 17.7 mph ENE28.5 kmh ENE 23.0 mph37.0 kmh 30.02 in1016.6 mb 0.00 in0.0 mm 0.00 in0.0 mm 0.00 in0.0 mm
03:39 PM 46.9°F8.3°C 38.7°F3.7°C 73% 17.7 mph E28.5 kmh E 27.0 mph43.5 kmh 30.02 in1016.6 mb 0.00 in0.0 mm 0.00 in0.0 mm 0.00 in0.0 mm
03:40 PM 46.8°F8.2°C 38.6°F3.7°C 73% 17.7 mph E28.5 kmh E 27.0 mph43.5 kmh 30.02 in1016.6 mb 0.00 in0.0 mm 0.00 in0.0 mm 0.00 in0.0 mm
03:41 PM 46.9°F8.3°C 38.7°F3.7°C 73% 18.1 mph E29.1 kmh E 27.0 mph43.5 kmh 30.02 in1016.6 mb 0.00 in0.0 mm 0.00 in0.0 mm 0.00 in0.0 mm
03:42 PM 46.8°F8.2°C 38.6°F3.7°C 73% 15.2 mph E24.5 kmh E 27.0 mph43.5 kmh 30.02 in1016.6 mb 0.00 in0.0 mm 0.00 in0.0 mm 0.00 in0.0 mm
03:43 PM 46.9°F8.3°C 38.7°F3.7°C 73% 16.9 mph E27.2 kmh E 25.0 mph40.2 kmh 30.02 in1016.6 mb 0.00 in0.0 mm 0.00 in0.0 mm 0.00 in0.0 mm
03:44 PM 46.8°F8.2°C 38.6°F3.7°C 73% 15.4 mph E24.8 kmh E 25.0 mph40.2 kmh 30.02 in1016.6 mb 0.00 in0.0 mm 0.00 in0.0 mm 0.00 in0.0 mm
03:45 PM 46.9°F8.3°C 38.7°F3.7°C 73% 13.6 mph E21.9 kmh E 20.0 mph32.2 kmh 30.02 in1016.6 mb 0.00 in0.0 mm 0.00 in0.0 mm 0.00 in0.0 mm
03:46 PM 46.9°F8.3°C 38.7°F3.7°C 73% 14.2 mph E22.9 kmh E 19.0 mph30.6 kmh 30.02 in1016.6 mb 0.00 in0.0 mm 0.00 in0.0 mm 0.00 in0.0 mm
03:47 PM 47.0°F8.3°C 38.8°F3.8°C 73% 16.5 mph ENE26.6 kmh ENE 24.0 mph38.6 kmh 30.02 in1016.6 mb 0.00 in0.0 mm 0.00 in0.0 mm 0.00 in0.0 mm
03:48 PM 47.0°F8.3°C 38.8°F3.8°C 73% 15.6 mph ENE25.1 kmh ENE 24.0 mph38.6 kmh 30.02 in1016.6 mb 0.00 in0.0 mm 0.00 in0.0 mm 0.00 in0.0 mm
03:49 PM 47.0°F8.3°C 38.8°F3.8°C 73% 15.8 mph E25.4 kmh E 22.0 mph35.4 kmh 30.02 in1016.6 mb 0.00 in0.0 mm 0.00 in0.0 mm 0.00 in0.0 mm
03:50 PM 47.0°F8.3°C 38.8°F3.8°C 73% 14.5 mph E23.3 kmh E 22.0 mph35.4 kmh 30.02 in1016.6 mb 0.00 in0.0 mm 0.00 in0.0 mm 0.00 in0.0 mm
03:51 PM 46.9°F8.3°C 38.7°F3.7°C 73% 15.4 mph E24.8 kmh E 23.0 mph37.0 kmh 30.02 in1016.6 mb 0.00 in0.0 mm 0.00 in0.0 mm 0.00 in0.0 mm
03:52 PM 47.0°F8.3°C 38.8°F3.8°C 73% 13.6 mph ENE21.9 kmh ENE 23.0 mph37.0 kmh 30.02 in1016.6 mb 0.00 in0.0 mm 0.00 in0.0 mm 0.00 in0.0 mm
03:53 PM 46.9°F8.3°C 38.7°F3.7°C 73% 19.4 mph ENE31.2 kmh ENE 25.0 mph40.2 kmh 30.02 in1016.6 mb 0.00 in0.0 mm 0.00 in0.0 mm 0.00 in0.0 mm
03:54 PM 46.9°F8.3°C 38.7°F3.7°C 73% 18.9 mph ENE30.4 kmh ENE 25.0 mph40.2 kmh 30.02 in1016.6 mb 0.00 in0.0 mm 0.00 in0.0 mm 0.00 in0.0 mm
03:55 PM 46.8°F8.2°C 38.6°F3.7°C 73% 16.4 mph ENE26.4 kmh ENE 25.0 mph40.2 kmh 30.02 in1016.6 mb 0.00 in0.0 mm 0.00 in0.0 mm 0.00 in0.0 mm
03:56 PM 46.8°F8.2°C 38.6°F3.7°C 73% 13.2 mph E21.2 kmh E 21.0 mph33.8 kmh 30.02 in1016.6 mb 0.00 in0.0 mm 0.00 in0.0 mm 0.00 in0.0 mm
03:57 PM 46.9°F8.3°C 38.7°F3.7°C 73% 12.3 mph E19.8 kmh E 17.0 mph27.4 kmh 30.02 in1016.6 mb 0.00 in0.0 mm 0.00 in0.0 mm 0.00 in0.0 mm
03:58 PM 46.9°F8.3°C 38.7°F3.7°C 73% 12.8 mph E20.6 kmh E 19.0 mph30.6 kmh 30.02 in1016.6 mb 0.00 in0.0 mm 0.00 in0.0 mm 0.00 in0.0 mm
03:59 PM 46.9°F8.3°C 38.7°F3.7°C 73% 12.1 mph E19.5 kmh E 21.0 mph33.8 kmh 30.02 in1016.6 mb 0.00 in0.0 mm 0.00 in0.0 mm 0.00 in0.0 mm
04:00 PM 46.9°F8.3°C 38.7°F3.7°C 73% 13.6 mph ENE21.9 kmh ENE 21.0 mph33.8 kmh 30.02 in1016.6 mb 0.00 in0.0 mm 0.00 in0.0 mm 0.00 in0.0 mm
04:01 PM 46.9°F8.3°C 38.7°F3.7°C 73% 13.5 mph ENE21.7 kmh ENE 19.0 mph30.6 kmh 30.02 in1016.6 mb 0.00 in0.0 mm 0.00 in0.0 mm 0.00 in0.0 mm
04:02 PM 47.0°F8.3°C 38.8°F3.8°C 73% 10.6 mph E17.1 kmh E 19.0 mph30.6 kmh 30.02 in1016.6 mb 0.00 in0.0 mm 0.00 in0.0 mm 0.00 in0.0 mm
04:03 PM 46.9°F8.3°C 38.7°F3.7°C 73% 15.8 mph E25.4 kmh E 21.0 mph33.8 kmh 30.02 in1016.6 mb 0.00 in0.0 mm 0.00 in0.0 mm 0.00 in0.0 mm
04:04 PM 46.9°F8.3°C 38.7°F3.7°C 73% 16.5 mph E26.6 kmh E 21.0 mph33.8 kmh 30.02 in1016.6 mb 0.00 in0.0 mm 0.00 in0.0 mm 0.00 in0.0 mm
04:05 PM 46.8°F8.2°C 38.6°F3.7°C 73% 16.1 mph E25.9 kmh E 21.0 mph33.8 kmh 30.02 in1016.6 mb 0.00 in0.0 mm 0.00 in0.0 mm 0.00 in0.0 mm
04:06 PM 46.9°F8.3°C 38.7°F3.7°C 73% 16.1 mph E25.9 kmh E 21.0 mph33.8 kmh 30.02 in1016.6 mb 0.00 in0.0 mm 0.00 in0.0 mm 0.00 in0.0 mm
04:07 PM 46.8°F8.2°C 38.6°F3.7°C 73% 15.1 mph E24.3 kmh E 21.0 mph33.8 kmh 30.02 in1016.6 mb 0.00 in0.0 mm 0.00 in0.0 mm 0.00 in0.0 mm
04:08 PM 46.8°F8.2°C 38.6°F3.7°C 73% 14.7 mph ENE23.7 kmh ENE 22.0 mph35.4 kmh 30.02 in1016.6 mb 0.00 in0.0 mm 0.00 in0.0 mm 0.00 in0.0 mm
04:09 PM 46.9°F8.3°C 38.7°F3.7°C 73% 16.2 mph E26.1 kmh E 22.0 mph35.4 kmh 30.02 in1016.6 mb 0.00 in0.0 mm 0.00 in0.0 mm 0.00 in0.0 mm
04:10 PM 46.8°F8.2°C 38.6°F3.7°C 73% 15.9 mph E25.6 kmh E 21.0 mph33.8 kmh 30.02 in1016.6 mb 0.00 in0.0 mm 0.00 in0.0 mm 0.00 in0.0 mm
04:11 PM 46.8°F8.2°C 38.6°F3.7°C 73% 12.6 mph E20.3 kmh E 21.0 mph33.8 kmh 30.02 in1016.6 mb 0.00 in0.0 mm 0.00 in0.0 mm 0.00 in0.0 mm
04:12 PM 46.9°F8.3°C 38.7°F3.7°C 73% 12.2 mph E19.6 kmh E 15.0 mph24.1 kmh 30.02 in1016.6 mb 0.00 in0.0 mm 0.00 in0.0 mm 0.00 in0.0 mm
04:13 PM 46.9°F8.3°C 38.7°F3.7°C 73% 10.3 mph ENE16.6 kmh ENE 15.0 mph24.1 kmh 30.01 in1016.3 mb 0.00 in0.0 mm 0.00 in0.0 mm 0.00 in0.0 mm
04:14 PM 46.9°F8.3°C 38.7°F3.7°C 73% 12.0 mph E19.3 kmh E 19.0 mph30.6 kmh 30.01 in1016.3 mb 0.00 in0.0 mm 0.00 in0.0 mm 0.00 in0.0 mm
04:15 PM 47.0°F8.3°C 38.8°F3.8°C 73% 18.9 mph ENE30.4 kmh ENE 24.0 mph38.6 kmh 30.02 in1016.6 mb 0.00 in0.0 mm 0.00 in0.0 mm 0.00 in0.0 mm
04:16 PM 46.9°F8.3°C 38.7°F3.7°C 73% 14.4 mph E23.2 kmh E 24.0 mph38.6 kmh 30.02 in1016.6 mb 0.00 in0.0 mm 0.00 in0.0 mm 0.00 in0.0 mm
04:17 PM 46.9°F8.3°C 38.7°F3.7°C 73% 17.2 mph E27.7 kmh E 21.0 mph33.8 kmh 30.02 in1016.6 mb 0.00 in0.0 mm 0.00 in0.0 mm 0.00 in0.0 mm
04:18 PM 46.9°F8.3°C 38.7°F3.7°C 73% 15.6 mph E25.1 kmh E 21.0 mph33.8 kmh 30.02 in1016.6 mb 0.00 in0.0 mm 0.00 in0.0 mm 0.00 in0.0 mm
04:19 PM 46.9°F8.3°C 38.7°F3.7°C 73% 11.0 mph E17.7 kmh E 20.0 mph32.2 kmh 30.02 in1016.6 mb 0.00 in0.0 mm 0.00 in0.0 mm 0.00 in0.0 mm
04:20 PM 46.9°F8.3°C 38.7°F3.7°C 73% 8.8 mph ENE14.2 kmh ENE 17.0 mph27.4 kmh 30.02 in1016.6 mb 0.00 in0.0 mm 0.00 in0.0 mm 0.00 in0.0 mm
04:21 PM 46.9°F8.3°C 38.7°F3.7°C 73% 15.2 mph ENE24.5 kmh ENE 20.0 mph32.2 kmh 30.02 in1016.6 mb 0.00 in0.0 mm 0.00 in0.0 mm 0.00 in0.0 mm
04:22 PM 46.9°F8.3°C 38.7°F3.7°C 73% 15.2 mph E24.5 kmh E 20.0 mph32.2 kmh 30.02 in1016.6 mb 0.00 in0.0 mm 0.00 in0.0 mm 0.00 in0.0 mm
04:23 PM 46.9°F8.3°C 38.7°F3.7°C 73% 13.3 mph E21.4 kmh E 20.0 mph32.2 kmh 30.02 in1016.6 mb 0.00 in0.0 mm 0.00 in0.0 mm 0.00 in0.0 mm
04:24 PM 46.9°F8.3°C 38.7°F3.7°C 73% 12.7 mph ENE20.4 kmh ENE 20.0 mph32.2 kmh 30.02 in1016.6 mb 0.00 in0.0 mm 0.00 in0.0 mm 0.00 in0.0 mm
04:25 PM 46.9°F8.3°C 38.7°F3.7°C 73% 13.0 mph ENE20.9 kmh ENE 17.0 mph27.4 kmh 30.02 in1016.6 mb 0.00 in0.0 mm 0.00 in0.0 mm 0.00 in0.0 mm
04:26 PM 46.9°F8.3°C 38.7°F3.7°C 73% 13.8 mph E22.2 kmh E 19.0 mph30.6 kmh 30.02 in1016.6 mb 0.00 in0.0 mm 0.00 in0.0 mm 0.00 in0.0 mm
04:27 PM 46.9°F8.3°C 38.7°F3.7°C 73% 16.1 mph E25.9 kmh E 22.0 mph35.4 kmh 30.02 in1016.6 mb 0.00 in0.0 mm 0.00 in0.0 mm 0.00 in0.0 mm
04:28 PM 46.8°F8.2°C 38.6°F3.7°C 73% 14.2 mph ENE22.9 kmh ENE 22.0 mph35.4 kmh 30.02 in1016.6 mb 0.00 in0.0 mm 0.00 in0.0 mm 0.00 in0.0 mm
04:29 PM 46.8°F8.2°C 38.6°F3.7°C 73% 13.7 mph E22.0 kmh E 20.0 mph32.2 kmh 30.02 in1016.6 mb 0.00 in0.0 mm 0.00 in0.0 mm 0.00 in0.0 mm
04:30 PM 46.8°F8.2°C 38.6°F3.7°C 73% 13.1 mph E21.1 kmh E 19.0 mph30.6 kmh 30.02 in1016.6 mb 0.00 in0.0 mm 0.00 in0.0 mm 0.00 in0.0 mm
04:31 PM 46.7°F8.2°C 38.5°F3.6°C 73% 14.3 mph E23.0 kmh E 20.0 mph32.2 kmh 30.02 in1016.6 mb 0.00 in0.0 mm 0.00 in0.0 mm 0.00 in0.0 mm
04:32 PM 46.8°F8.2°C 38.6°F3.7°C 73% 13.1 mph E21.1 kmh E 23.0 mph37.0 kmh 30.02 in1016.6 mb 0.00 in0.0 mm 0.00 in0.0 mm 0.00 in0.0 mm
04:33 PM 46.8°F8.2°C 39.0°F3.9°C 74% 12.5 mph E20.1 kmh E 23.0 mph37.0 kmh 30.02 in1016.6 mb 0.00 in0.0 mm 0.00 in0.0 mm 0.00 in0.0 mm
04:34 PM 46.8°F8.2°C 39.0°F3.9°C 74% 12.1 mph E19.5 kmh E 17.0 mph27.4 kmh 30.02 in1016.6 mb 0.00 in0.0 mm 0.00 in0.0 mm 0.00 in0.0 mm
04:35 PM 46.8°F8.2°C 39.0°F3.9°C 74% 9.4 mph E15.1 kmh E 17.0 mph27.4 kmh 30.02 in1016.6 mb 0.00 in0.0 mm 0.00 in0.0 mm 0.00 in0.0 mm
04:36 PM 46.9°F8.3°C 39.1°F3.9°C 74% 11.2 mph E18.0 kmh E 15.0 mph24.1 kmh 30.02 in1016.6 mb 0.00 in0.0 mm 0.00 in0.0 mm 0.00 in0.0 mm
04:37 PM 46.9°F8.3°C 38.7°F3.7°C 73% 14.4 mph ENE23.2 kmh ENE 18.0 mph29.0 kmh 30.02 in1016.6 mb 0.00 in0.0 mm 0.00 in0.0 mm 0.00 in0.0 mm
04:38 PM 46.9°F8.3°C 38.7°F3.7°C 73% 16.3 mph E26.2 kmh E 20.0 mph32.2 kmh 30.02 in1016.6 mb 0.00 in0.0 mm 0.00 in0.0 mm 0.00 in0.0 mm
04:39 PM 46.9°F8.3°C 38.7°F3.7°C 73% 13.3 mph ENE21.4 kmh ENE 20.0 mph32.2 kmh 30.02 in1016.6 mb 0.00 in0.0 mm 0.00 in0.0 mm 0.00 in0.0 mm
04:40 PM 46.8°F8.2°C 38.6°F3.7°C 73% 19.7 mph ENE31.7 kmh ENE 26.0 mph41.8 kmh 30.02 in1016.6 mb 0.00 in0.0 mm 0.00 in0.0 mm 0.00 in0.0 mm
04:41 PM 46.8°F8.2°C 38.6°F3.7°C 73% 16.4 mph E26.4 kmh E 26.0 mph41.8 kmh 30.02 in1016.6 mb 0.00 in0.0 mm 0.00 in0.0 mm 0.00 in0.0 mm
04:42 PM 46.7°F8.2°C 38.5°F3.6°C 73% 16.0 mph ENE25.7 kmh ENE 18.0 mph29.0 kmh 30.02 in1016.6 mb 0.00 in0.0 mm 0.00 in0.0 mm 0.00 in0.0 mm
04:43 PM 46.7°F8.2°C 38.5°F3.6°C 73% 15.0 mph E24.1 kmh E 24.0 mph38.6 kmh 30.02 in1016.6 mb 0.00 in0.0 mm 0.00 in0.0 mm 0.00 in0.0 mm
04:44 PM 46.7°F8.2°C 38.5°F3.6°C 73% 13.9 mph E22.4 kmh E 18.0 mph29.0 kmh 30.02 in1016.6 mb 0.00 in0.0 mm 0.00 in0.0 mm 0.00 in0.0 mm
04:45 PM 46.6°F8.1°C 38.4°F3.6°C 73% 14.6 mph E23.5 kmh E 19.0 mph30.6 kmh 30.02 in1016.6 mb 0.00 in0.0 mm 0.00 in0.0 mm 0.00 in0.0 mm
04:46 PM 46.7°F8.2°C 38.5°F3.6°C 73% 10.5 mph E16.9 kmh E 19.0 mph30.6 kmh 30.02 in1016.6 mb 0.00 in0.0 mm 0.00 in0.0 mm 0.00 in0.0 mm
04:47 PM 46.7°F8.2°C 38.5°F3.6°C 73% 13.1 mph E21.1 kmh E 16.0 mph25.7 kmh 30.02 in1016.6 mb 0.00 in0.0 mm 0.00 in0.0 mm 0.00 in0.0 mm
04:48 PM 46.7°F8.2°C 38.5°F3.6°C 73% 17.5 mph E28.2 kmh E 21.0 mph33.8 kmh 30.02 in1016.6 mb 0.00 in0.0 mm 0.00 in0.0 mm 0.00 in0.0 mm
04:49 PM 46.6°F8.1°C 38.4°F3.6°C 73% 15.2 mph E24.5 kmh E 23.0 mph37.0 kmh 30.02 in1016.6 mb 0.00 in0.0 mm 0.00 in0.0 mm 0.00 in0.0 mm
04:50 PM 46.6°F8.1°C 38.4°F3.6°C 73% 18.5 mph ENE29.8 kmh ENE 23.0 mph37.0 kmh 30.02 in1016.6 mb 0.00 in0.0 mm 0.00 in0.0 mm 0.00 in0.0 mm
04:51 PM 46.6°F8.1°C 38.4°F3.6°C 73% 18.0 mph ENE29.0 kmh ENE 23.0 mph37.0 kmh 30.02 in1016.6 mb 0.00 in0.0 mm 0.00 in0.0 mm 0.00 in0.0 mm
04:52 PM 46.6°F8.1°C 38.4°F3.6°C 73% 15.1 mph E24.3 kmh E 23.0 mph37.0 kmh 30.02 in1016.6 mb 0.00 in0.0 mm 0.00 in0.0 mm 0.00 in0.0 mm
04:53 PM 46.6°F8.1°C 38.4°F3.6°C 73% 15.0 mph ENE24.1 kmh ENE 22.0 mph35.4 kmh 30.02 in1016.6 mb 0.00 in0.0 mm 0.00 in0.0 mm 0.00 in0.0 mm
04:54 PM 46.5°F8.1°C 38.3°F3.5°C 73% 18.2 mph NE29.3 kmh NE 24.0 mph38.6 kmh 30.02 in1016.6 mb 0.00 in0.0 mm 0.00 in0.0 mm 0.00 in0.0 mm
04:55 PM 46.6°F8.1°C 38.4°F3.6°C 73% 15.7 mph E25.3 kmh E 24.0 mph38.6 kmh 30.02 in1016.6 mb 0.00 in0.0 mm 0.00 in0.0 mm 0.00 in0.0 mm
04:56 PM 46.6°F8.1°C 38.4°F3.6°C 73% 16.2 mph E26.1 kmh E 22.0 mph35.4 kmh 30.02 in1016.6 mb 0.00 in0.0 mm 0.00 in0.0 mm 0.00 in0.0 mm
04:57 PM 46.6°F8.1°C 38.4°F3.6°C 73% 11.6 mph ENE18.7 kmh ENE 20.0 mph32.2 kmh 30.02 in1016.6 mb 0.00 in0.0 mm 0.00 in0.0 mm 0.00 in0.0 mm
04:58 PM 46.6°F8.1°C 38.4°F3.6°C 73% 10.3 mph ENE16.6 kmh ENE 17.0 mph27.4 kmh 30.02 in1016.6 mb 0.00 in0.0 mm 0.00 in0.0 mm 0.00 in0.0 mm
04:59 PM 46.5°F8.1°C 38.3°F3.5°C 73% 13.4 mph ENE21.6 kmh ENE 18.0 mph29.0 kmh 30.02 in1016.6 mb 0.00 in0.0 mm 0.00 in0.0 mm 0.00 in0.0 mm
05:00 PM 46.6°F8.1°C 38.4°F3.6°C 73% 13.5 mph E21.7 kmh E 19.0 mph30.6 kmh 30.02 in1016.6 mb 0.00 in0.0 mm 0.00 in0.0 mm 0.00 in0.0 mm
05:01 PM 46.5°F8.1°C 38.3°F3.5°C 73% 13.5 mph E21.7 kmh E 21.0 mph33.8 kmh 30.02 in1016.6 mb 0.00 in0.0 mm 0.00 in0.0 mm 0.00 in0.0 mm
05:02 PM 46.5°F8.1°C 38.3°F3.5°C 73% 16.5 mph ENE26.6 kmh ENE 22.0 mph35.4 kmh 30.02 in1016.6 mb 0.00 in0.0 mm 0.00 in0.0 mm 0.00 in0.0 mm
05:03 PM 46.5°F8.1°C 38.3°F3.5°C 73% 12.1 mph ENE19.5 kmh ENE 22.0 mph35.4 kmh 30.02 in1016.6 mb 0.00 in0.0 mm 0.00 in0.0 mm 0.00 in0.0 mm
05:04 PM 46.5°F8.1°C 38.3°F3.5°C 73% 16.1 mph E25.9 kmh E 21.0 mph33.8 kmh 30.02 in1016.6 mb 0.00 in0.0 mm 0.00 in0.0 mm 0.00 in0.0 mm
05:05 PM 46.5°F8.1°C 38.3°F3.5°C 73% 15.0 mph ENE24.1 kmh ENE 19.0 mph30.6 kmh 30.02 in1016.6 mb 0.00 in0.0 mm 0.00 in0.0 mm 0.00 in0.0 mm
05:06 PM 46.4°F8.0°C 38.2°F3.4°C 73% 15.0 mph ENE24.1 kmh ENE 18.0 mph29.0 kmh 30.02 in1016.6 mb 0.00 in0.0 mm 0.00 in0.0 mm 0.00 in0.0 mm
05:07 PM 46.4°F8.0°C 38.2°F3.4°C 73% 15.7 mph ENE25.3 kmh ENE 17.0 mph27.4 kmh 30.02 in1016.6 mb 0.00 in0.0 mm 0.00 in0.0 mm 0.00 in0.0 mm
05:08 PM 46.4°F8.0°C 38.2°F3.4°C 73% 15.8 mph ENE25.4 kmh ENE 22.0 mph35.4 kmh 30.02 in1016.6 mb 0.00 in0.0 mm 0.00 in0.0 mm 0.00 in0.0 mm
05:09 PM 46.4°F8.0°C 38.2°F3.4°C 73% 11.1 mph E17.9 kmh E 22.0 mph35.4 kmh 30.02 in1016.6 mb 0.00 in0.0 mm 0.00 in0.0 mm 0.00 in0.0 mm
05:10 PM 46.4°F8.0°C 38.2°F3.4°C 73% 13.8 mph E22.2 kmh E 22.0 mph35.4 kmh 30.02 in1016.6 mb 0.00 in0.0 mm 0.00 in0.0 mm 0.00 in0.0 mm
05:11 PM 46.3°F7.9°C 38.1°F3.4°C 73% 14.3 mph E23.0 kmh E 22.0 mph35.4 kmh 30.02 in1016.6 mb 0.00 in0.0 mm 0.00 in0.0 mm 0.00 in0.0 mm
05:12 PM 46.3°F7.9°C 38.1°F3.4°C 73% 14.7 mph E23.7 kmh E 22.0 mph35.4 kmh 30.02 in1016.6 mb 0.00 in0.0 mm 0.00 in0.0 mm 0.00 in0.0 mm
05:13 PM 46.3°F7.9°C 38.1°F3.4°C 73% 17.0 mph ENE27.4 kmh ENE 20.0 mph32.2 kmh 30.02 in1016.6 mb 0.00 in0.0 mm 0.00 in0.0 mm 0.00 in0.0 mm
05:14 PM 46.3°F7.9°C 38.1°F3.4°C 73% 16.0 mph E25.7 kmh E 24.0 mph38.6 kmh 30.02 in1016.6 mb 0.00 in0.0 mm 0.00 in0.0 mm 0.00 in0.0 mm
05:15 PM 46.2°F7.9°C 38.0°F3.3°C 73% 16.0 mph E25.7 kmh E 21.0 mph33.8 kmh 30.02 in1016.6 mb 0.00 in0.0 mm 0.00 in0.0 mm 0.00 in0.0 mm
05:16 PM 46.2°F7.9°C 38.4°F3.6°C 74% 14.0 mph ENE22.5 kmh ENE 17.0 mph27.4 kmh 30.02 in1016.6 mb 0.00 in0.0 mm 0.00 in0.0 mm 0.00 in0.0 mm
05:17 PM 46.2°F7.9°C 38.0°F3.3°C 73% 15.6 mph E25.1 kmh E 19.0 mph30.6 kmh 30.02 in1016.6 mb 0.00 in0.0 mm 0.00 in0.0 mm 0.00 in0.0 mm
05:18 PM 46.2°F7.9°C 38.0°F3.3°C 73% 14.8 mph E23.8 kmh E 21.0 mph33.8 kmh 30.02 in1016.6 mb 0.00 in0.0 mm 0.00 in0.0 mm 0.00 in0.0 mm
05:19 PM 46.2°F7.9°C 38.0°F3.3°C 73% 15.2 mph ENE24.5 kmh ENE 24.0 mph38.6 kmh 30.02 in1016.6 mb 0.00 in0.0 mm 0.00 in0.0 mm 0.00 in0.0 mm
05:20 PM 46.2°F7.9°C 38.0°F3.3°C 73% 15.7 mph E25.3 kmh E 24.0 mph38.6 kmh 30.02 in1016.6 mb 0.00 in0.0 mm 0.00 in0.0 mm 0.00 in0.0 mm
05:21 PM 46.2°F7.9°C 38.0°F3.3°C 73% 12.6 mph ENE20.3 kmh ENE 23.0 mph37.0 kmh 30.02 in1016.6 mb 0.00 in0.0 mm 0.00 in0.0 mm 0.00 in0.0 mm
05:22 PM 46.2°F7.9°C 38.4°F3.6°C 74% 12.9 mph ENE20.8 kmh ENE 20.0 mph32.2 kmh 30.02 in1016.6 mb 0.00 in0.0 mm 0.00 in0.0 mm 0.00 in0.0 mm
05:23 PM 46.2°F7.9°C 38.4°F3.6°C 74% 14.7 mph E23.7 kmh E 19.0 mph30.6 kmh 30.02 in1016.6 mb 0.00 in0.0 mm 0.00 in0.0 mm 0.00 in0.0 mm
05:24 PM 46.2°F7.9°C 38.4°F3.6°C 74% 13.0 mph E20.9 kmh E 19.0 mph30.6 kmh 30.02 in1016.6 mb 0.00 in0.0 mm 0.00 in0.0 mm 0.00 in0.0 mm
05:25 PM 46.1°F7.8°C 38.3°F3.5°C 74% 11.7 mph E18.8 kmh E 19.0 mph30.6 kmh 30.02 in1016.6 mb 0.00 in0.0 mm 0.00 in0.0 mm 0.00 in0.0 mm
05:26 PM 46.2°F7.9°C 38.4°F3.6°C 74% 12.4 mph E20.0 kmh E 19.0 mph30.6 kmh 30.02 in1016.6 mb 0.00 in0.0 mm 0.00 in0.0 mm 0.00 in0.0 mm
05:27 PM 46.2°F7.9°C 38.4°F3.6°C 74% 14.6 mph ENE23.5 kmh ENE 23.0 mph37.0 kmh 30.02 in1016.6 mb 0.00 in0.0 mm 0.00 in0.0 mm 0.00 in0.0 mm
05:28 PM 46.1°F7.8°C 38.3°F3.5°C 74% 14.3 mph E23.0 kmh E 23.0 mph37.0 kmh 30.02 in1016.6 mb 0.00 in0.0 mm 0.00 in0.0 mm 0.00 in0.0 mm
05:29 PM 46.1°F7.8°C 38.3°F3.5°C 74% 10.2 mph E16.4 kmh E 16.0 mph25.7 kmh 30.02 in1016.6 mb 0.00 in0.0 mm 0.00 in0.0 mm 0.00 in0.0 mm
05:30 PM 46.1°F7.8°C 38.3°F3.5°C 74% 9.7 mph E15.6 kmh E 16.0 mph25.7 kmh 30.02 in1016.6 mb 0.00 in0.0 mm 0.00 in0.0 mm 0.00 in0.0 mm
05:31 PM 46.1°F7.8°C 38.3°F3.5°C 74% 15.8 mph E25.4 kmh E 19.0 mph30.6 kmh 30.02 in1016.6 mb 0.00 in0.0 mm 0.00 in0.0 mm 0.00 in0.0 mm
05:32 PM 46.1°F7.8°C 38.3°F3.5°C 74% 10.8 mph E17.4 kmh E 19.0 mph30.6 kmh 30.02 in1016.6 mb 0.00 in0.0 mm 0.00 in0.0 mm 0.00 in0.0 mm
05:33 PM 46.2°F7.9°C 38.4°F3.6°C 74% 14.6 mph ENE23.5 kmh ENE 18.0 mph29.0 kmh 30.02 in1016.6 mb 0.00 in0.0 mm 0.00 in0.0 mm 0.00 in0.0 mm
05:34 PM 46.1°F7.8°C 38.3°F3.5°C 74% 15.0 mph E24.1 kmh E 18.0 mph29.0 kmh 30.02 in1016.6 mb 0.00 in0.0 mm 0.00 in0.0 mm 0.00 in0.0 mm
05:35 PM 46.1°F7.8°C 38.3°F3.5°C 74% 11.0 mph ENE17.7 kmh ENE 17.0 mph27.4 kmh 30.02 in1016.6 mb 0.00 in0.0 mm 0.00 in0.0 mm 0.00 in0.0 mm
05:36 PM 46.1°F7.8°C 38.3°F3.5°C 74% 10.5 mph E16.9 kmh E 11.0 mph17.7 kmh 30.02 in1016.6 mb 0.00 in0.0 mm 0.00 in0.0 mm 0.00 in0.0 mm
05:37 PM 46.1°F7.8°C 38.3°F3.5°C 74% 9.3 mph E15.0 kmh E 11.0 mph17.7 kmh 30.02 in1016.6 mb 0.00 in0.0 mm 0.00 in0.0 mm 0.00 in0.0 mm
05:38 PM 46.1°F7.8°C 38.3°F3.5°C 74% 11.2 mph E18.0 kmh E 15.0 mph24.1 kmh 30.02 in1016.6 mb 0.00 in0.0 mm 0.00 in0.0 mm 0.00 in0.0 mm
05:39 PM 46.1°F7.8°C 38.3°F3.5°C 74% 11.9 mph E19.2 kmh E 15.0 mph24.1 kmh 30.02 in1016.6 mb 0.00 in0.0 mm 0.00 in0.0 mm 0.00 in0.0 mm
05:40 PM 46.1°F7.8°C 38.3°F3.5°C 74% 13.4 mph E21.6 kmh E 18.0 mph29.0 kmh 30.02 in1016.6 mb 0.00 in0.0 mm 0.00 in0.0 mm 0.00 in0.0 mm
05:41 PM 46.1°F7.8°C 38.3°F3.5°C 74% 15.1 mph ENE24.3 kmh ENE 18.0 mph29.0 kmh 30.03 in1016.9 mb 0.00 in0.0 mm 0.00 in0.0 mm 0.00 in0.0 mm
05:42 PM 46.1°F7.8°C 38.3°F3.5°C 74% 15.7 mph E25.3 kmh E 18.0 mph29.0 kmh 30.03 in1016.9 mb 0.00 in0.0 mm 0.00 in0.0 mm 0.00 in0.0 mm
05:43 PM 46.1°F7.8°C 38.3°F3.5°C 74% 13.6 mph E21.9 kmh E 18.0 mph29.0 kmh 30.02 in1016.6 mb 0.00 in0.0 mm 0.00 in0.0 mm 0.00 in0.0 mm
05:44 PM 46.1°F7.8°C 38.3°F3.5°C 74% 11.2 mph E18.0 kmh E 16.0 mph25.7 kmh 30.03 in1016.9 mb 0.00 in0.0 mm 0.00 in0.0 mm 0.00 in0.0 mm
05:45 PM 46.0°F7.8°C 38.2°F3.4°C 74% 11.0 mph E17.7 kmh E 17.0 mph27.4 kmh 30.02 in1016.6 mb 0.00 in0.0 mm 0.00 in0.0 mm 0.00 in0.0 mm
05:46 PM 46.1°F7.8°C 38.3°F3.5°C 74% 13.0 mph E20.9 kmh E 16.0 mph25.7 kmh 30.03 in1016.9 mb 0.00 in0.0 mm 0.00 in0.0 mm 0.00 in0.0 mm
05:47 PM 46.0°F7.8°C 38.2°F3.4°C 74% 9.9 mph ENE15.9 kmh ENE 13.0 mph20.9 kmh 30.03 in1016.9 mb 0.00 in0.0 mm 0.00 in0.0 mm 0.00 in0.0 mm
05:48 PM 46.0°F7.8°C 38.2°F3.4°C 74% 9.4 mph ENE15.1 kmh ENE 13.0 mph20.9 kmh 30.02 in1016.6 mb 0.00 in0.0 mm 0.00 in0.0 mm 0.00 in0.0 mm
05:49 PM 46.0°F7.8°C 38.2°F3.4°C 74% 9.8 mph ENE15.8 kmh ENE 16.0 mph25.7 kmh 30.02 in1016.6 mb 0.00 in0.0 mm 0.00 in0.0 mm 0.00 in0.0 mm
05:50 PM 46.0°F7.8°C 38.2°F3.4°C 74% 14.0 mph ENE22.5 kmh ENE 19.0 mph30.6 kmh 30.03 in1016.9 mb 0.00 in0.0 mm 0.00 in0.0 mm 0.00 in0.0 mm
05:51 PM 46.0°F7.8°C 38.2°F3.4°C 74% 14.0 mph E22.5 kmh E 19.0 mph30.6 kmh 30.02 in1016.6 mb 0.00 in0.0 mm 0.00 in0.0 mm 0.00 in0.0 mm
05:52 PM 45.9°F7.7°C 38.1°F3.4°C 74% 15.0 mph E24.1 kmh E 18.0 mph29.0 kmh 30.03 in1016.9 mb 0.00 in0.0 mm 0.00 in0.0 mm 0.00 in0.0 mm
05:53 PM 45.9°F7.7°C 38.1°F3.4°C 74% 10.5 mph ENE16.9 kmh ENE 13.0 mph20.9 kmh 30.03 in1016.9 mb 0.00 in0.0 mm 0.00 in0.0 mm 0.00 in0.0 mm
05:54 PM 46.0°F7.8°C 38.2°F3.4°C 74% 10.4 mph E16.7 kmh E 14.0 mph22.5 kmh 30.02 in1016.6 mb 0.00 in0.0 mm 0.00 in0.0 mm 0.00 in0.0 mm
05:55 PM 46.0°F7.8°C 38.2°F3.4°C 74% 12.5 mph ENE20.1 kmh ENE 20.0 mph32.2 kmh 30.02 in1016.6 mb 0.00 in0.0 mm 0.00 in0.0 mm 0.00 in0.0 mm
05:56 PM 45.9°F7.7°C 38.1°F3.4°C 74% 17.1 mph E27.5 kmh E 20.0 mph32.2 kmh 30.02 in1016.6 mb 0.00 in0.0 mm 0.00 in0.0 mm 0.00 in0.0 mm
05:57 PM 45.8°F7.7°C 38.0°F3.3°C 74% 13.0 mph ENE20.9 kmh ENE 20.0 mph32.2 kmh 30.02 in1016.6 mb 0.00 in0.0 mm 0.00 in0.0 mm 0.00 in0.0 mm
05:58 PM 45.8°F7.7°C 38.0°F3.3°C 74% 12.0 mph ENE19.3 kmh ENE 19.0 mph30.6 kmh 30.02 in1016.6 mb 0.00 in0.0 mm 0.00 in0.0 mm 0.00 in0.0 mm
05:59 PM 45.9°F7.7°C 38.1°F3.4°C 74% 11.0 mph ENE17.7 kmh ENE 15.0 mph24.1 kmh 30.02 in1016.6 mb 0.00 in0.0 mm 0.00 in0.0 mm 0.00 in0.0 mm
06:00 PM 45.8°F7.7°C 38.0°F3.3°C 74% 13.6 mph ENE21.9 kmh ENE 16.0 mph25.7 kmh 30.02 in1016.6 mb 0.00 in0.0 mm 0.00 in0.0 mm 0.00 in0.0 mm
06:01 PM 45.8°F7.7°C 38.0°F3.3°C 74% 10.1 mph E16.3 kmh E 16.0 mph25.7 kmh 30.02 in1016.6 mb 0.00 in0.0 mm 0.00 in0.0 mm 0.00 in0.0 mm
06:02 PM 45.8°F7.7°C 38.0°F3.3°C 74% 12.8 mph E20.6 kmh E 26.0 mph41.8 kmh 30.03 in1016.9 mb 0.00 in0.0 mm 0.00 in0.0 mm 0.00 in0.0 mm
06:03 PM 45.8°F7.7°C 38.0°F3.3°C 74% 15.0 mph ENE24.1 kmh ENE 21.0 mph33.8 kmh 30.02 in1016.6 mb 0.00 in0.0 mm 0.00 in0.0 mm 0.00 in0.0 mm
06:04 PM 45.8°F7.7°C 38.0°F3.3°C 74% 12.0 mph ENE19.3 kmh ENE 15.0 mph24.1 kmh 30.03 in1016.9 mb 0.00 in0.0 mm 0.00 in0.0 mm 0.00 in0.0 mm
06:05 PM 45.7°F7.6°C 37.9°F3.3°C 74% 14.1 mph E22.7 kmh E 16.0 mph25.7 kmh 30.02 in1016.6 mb 0.00 in0.0 mm 0.00 in0.0 mm 0.00 in0.0 mm
06:06 PM 45.7°F7.6°C 37.9°F3.3°C 74% 15.1 mph E24.3 kmh E 20.0 mph32.2 kmh 30.02 in1016.6 mb 0.00 in0.0 mm 0.00 in0.0 mm 0.00 in0.0 mm
06:07 PM 45.7°F7.6°C 37.9°F3.3°C 74% 13.9 mph ENE22.4 kmh ENE 20.0 mph32.2 kmh 30.02 in1016.6 mb 0.00 in0.0 mm 0.00 in0.0 mm 0.00 in0.0 mm
06:08 PM 45.6°F7.6°C 37.8°F3.2°C 74% 13.0 mph ENE20.9 kmh ENE 18.0 mph29.0 kmh 30.03 in1016.9 mb 0.00 in0.0 mm 0.00 in0.0 mm 0.00 in0.0 mm
06:09 PM 45.6°F7.6°C 37.8°F3.2°C 74% 13.0 mph E20.9 kmh E 19.0 mph30.6 kmh 30.03 in1016.9 mb 0.00 in0.0 mm 0.00 in0.0 mm 0.00 in0.0 mm
06:10 PM 45.6°F7.6°C 37.8°F3.2°C 74% 11.7 mph E18.8 kmh E 12.0 mph19.3 kmh 30.03 in1016.9 mb 0.00 in0.0 mm 0.00 in0.0 mm 0.00 in0.0 mm
06:11 PM 45.6°F7.6°C 37.8°F3.2°C 74% 11.8 mph ENE19.0 kmh ENE 18.0 mph29.0 kmh 30.03 in1016.9 mb 0.00 in0.0 mm 0.00 in0.0 mm 0.00 in0.0 mm
06:12 PM 45.6°F7.6°C 37.8°F3.2°C 74% 12.2 mph ENE19.6 kmh ENE 19.0 mph30.6 kmh 30.03 in1016.9 mb 0.00 in0.0 mm 0.00 in0.0 mm 0.00 in0.0 mm
06:13 PM 45.6°F7.6°C 37.8°F3.2°C 74% 16.2 mph ENE26.1 kmh ENE 21.0 mph33.8 kmh 30.03 in1016.9 mb 0.00 in0.0 mm 0.00 in0.0 mm 0.00 in0.0 mm
06:14 PM 45.6°F7.6°C 37.8°F3.2°C 74% 16.0 mph E25.7 kmh E 21.0 mph33.8 kmh 30.03 in1016.9 mb 0.00 in0.0 mm 0.00 in0.0 mm 0.00 in0.0 mm
06:15 PM 45.6°F7.6°C 37.8°F3.2°C 74% 14.8 mph E23.8 kmh E 20.0 mph32.2 kmh 30.03 in1016.9 mb 0.00 in0.0 mm 0.00 in0.0 mm 0.00 in0.0 mm
06:16 PM 45.6°F7.6°C 37.8°F3.2°C 74% 12.9 mph E20.8 kmh E 17.0 mph27.4 kmh 30.03 in1016.9 mb 0.00 in0.0 mm 0.00 in0.0 mm 0.00 in0.0 mm
06:17 PM 45.6°F7.6°C 37.8°F3.2°C 74% 11.0 mph ENE17.7 kmh ENE 14.0 mph22.5 kmh 30.03 in1016.9 mb 0.00 in0.0 mm 0.00 in0.0 mm 0.00 in0.0 mm
06:18 PM 45.5°F7.5°C 37.7°F3.2°C 74% 15.0 mph E24.1 kmh E 20.0 mph32.2 kmh 30.03 in1016.9 mb 0.00 in0.0 mm 0.00 in0.0 mm 0.00 in0.0 mm
06:19 PM 45.5°F7.5°C 37.7°F3.2°C 74% 8.5 mph NE13.7 kmh NE 9.0 mph14.5 kmh 30.03 in1016.9 mb 0.00 in0.0 mm 0.00 in0.0 mm 0.00 in0.0 mm
06:20 PM 45.5°F7.5°C 37.7°F3.2°C 74% 9.6 mph E15.4 kmh E 13.0 mph20.9 kmh 30.03 in1016.9 mb 0.00 in0.0 mm 0.00 in0.0 mm 0.00 in0.0 mm
06:21 PM 45.5°F7.5°C 37.7°F3.2°C 74% 9.3 mph E15.0 kmh E 13.0 mph20.9 kmh 30.03 in1016.9 mb 0.00 in0.0 mm 0.00 in0.0 mm 0.00 in0.0 mm
06:22 PM 45.5°F7.5°C 37.7°F3.2°C 74% 12.0 mph E19.3 kmh E 18.0 mph29.0 kmh 30.03 in1016.9 mb 0.00 in0.0 mm 0.00 in0.0 mm 0.00 in0.0 mm
06:23 PM 45.5°F7.5°C 37.7°F3.2°C 74% 12.0 mph E19.3 kmh E 15.0 mph24.1 kmh 30.03 in1016.9 mb 0.00 in0.0 mm 0.00 in0.0 mm 0.00 in0.0 mm
06:24 PM 45.5°F7.5°C 37.7°F3.2°C 74% 8.0 mph ENE12.9 kmh ENE 8.0 mph12.9 kmh 30.03 in1016.9 mb 0.00 in0.0 mm 0.00 in0.0 mm 0.00 in0.0 mm
06:25 PM 45.5°F7.5°C 37.7°F3.2°C 74% 13.1 mph E21.1 kmh E 20.0 mph32.2 kmh 30.03 in1016.9 mb 0.00 in0.0 mm 0.00 in0.0 mm 0.00 in0.0 mm
06:26 PM 45.4°F7.4°C 37.6°F3.1°C 74% 11.6 mph E18.7 kmh E 20.0 mph32.2 kmh 30.03 in1016.9 mb 0.00 in0.0 mm 0.00 in0.0 mm 0.00 in0.0 mm
06:27 PM 45.5°F7.5°C 37.7°F3.2°C 74% 9.5 mph E15.3 kmh E 14.0 mph22.5 kmh 30.03 in1016.9 mb 0.00 in0.0 mm 0.00 in0.0 mm 0.00 in0.0 mm
06:28 PM 45.4°F7.4°C 37.6°F3.1°C 74% 12.7 mph E20.4 kmh E 16.0 mph25.7 kmh 30.03 in1016.9 mb 0.00 in0.0 mm 0.00 in0.0 mm 0.00 in0.0 mm
06:29 PM 45.4°F7.4°C 37.6°F3.1°C 74% 12.6 mph ENE20.3 kmh ENE 16.0 mph25.7 kmh 30.03 in1016.9 mb 0.00 in0.0 mm 0.00 in0.0 mm 0.00 in0.0 mm
06:30 PM 45.4°F7.4°C 37.6°F3.1°C 74% 13.2 mph ENE21.2 kmh ENE 16.0 mph25.7 kmh 30.03 in1016.9 mb 0.00 in0.0 mm 0.00 in0.0 mm 0.00 in0.0 mm
06:31 PM 45.4°F7.4°C 37.6°F3.1°C 74% 12.7 mph ENE20.4 kmh ENE 17.0 mph27.4 kmh 30.03 in1016.9 mb 0.00 in0.0 mm 0.00 in0.0 mm 0.00 in0.0 mm
06:32 PM 45.4°F7.4°C 37.6°F3.1°C 74% 11.3 mph E18.2 kmh E 17.0 mph27.4 kmh 30.03 in1016.9 mb 0.00 in0.0 mm 0.00 in0.0 mm 0.00 in0.0 mm
06:33 PM 45.4°F7.4°C 37.6°F3.1°C 74% 11.8 mph E19.0 kmh E 14.0 mph22.5 kmh 30.03 in1016.9 mb 0.00 in0.0 mm 0.00 in0.0 mm 0.00 in0.0 mm
06:34 PM 45.4°F7.4°C 37.6°F3.1°C 74% 12.0 mph ENE19.3 kmh ENE 16.0 mph25.7 kmh 30.03 in1016.9 mb 0.00 in0.0 mm 0.00 in0.0 mm 0.00 in0.0 mm
06:35 PM 45.5°F7.5°C 37.7°F3.2°C 74% 12.0 mph ENE19.3 kmh ENE 17.0 mph27.4 kmh 30.03 in1016.9 mb 0.00 in0.0 mm 0.00 in0.0 mm 0.00 in0.0 mm
06:36 PM 45.4°F7.4°C 37.6°F3.1°C 74% 13.0 mph E20.9 kmh E 21.0 mph33.8 kmh 30.03 in1016.9 mb 0.00 in0.0 mm 0.00 in0.0 mm 0.00 in0.0 mm
06:37 PM 45.4°F7.4°C 37.6°F3.1°C 74% 11.0 mph E17.7 kmh E 18.0 mph29.0 kmh 30.03 in1016.9 mb 0.00 in0.0 mm 0.00 in0.0 mm 0.00 in0.0 mm
06:38 PM 45.4°F7.4°C 37.6°F3.1°C 74% 13.0 mph ENE20.9 kmh ENE 16.0 mph25.7 kmh 30.03 in1016.9 mb 0.00 in0.0 mm 0.00 in0.0 mm 0.00 in0.0 mm
06:39 PM 45.4°F7.4°C 37.6°F3.1°C 74% 14.0 mph ENE22.5 kmh ENE 14.0 mph22.5 kmh 30.03 in1016.9 mb 0.00 in0.0 mm 0.00 in0.0 mm 0.00 in0.0 mm
06:40 PM 45.4°F7.4°C 37.6°F3.1°C 74% 10.7 mph ENE17.2 kmh ENE 15.0 mph24.1 kmh 30.03 in1016.9 mb 0.00 in0.0 mm 0.00 in0.0 mm 0.00 in0.0 mm
06:41 PM 45.4°F7.4°C 37.6°F3.1°C 74% 14.6 mph ENE23.5 kmh ENE 19.0 mph30.6 kmh 30.03 in1016.9 mb 0.00 in0.0 mm 0.00 in0.0 mm 0.00 in0.0 mm
06:42 PM 45.4°F7.4°C 37.6°F3.1°C 74% 10.7 mph ENE17.2 kmh ENE 19.0 mph30.6 kmh 30.03 in1016.9 mb 0.00 in0.0 mm 0.00 in0.0 mm 0.00 in0.0 mm
06:43 PM 45.4°F7.4°C 37.6°F3.1°C 74% 14.5 mph E23.3 kmh E 19.0 mph30.6 kmh 30.03 in1016.9 mb 0.00 in0.0 mm 0.00 in0.0 mm 0.00 in0.0 mm
06:44 PM 45.4°F7.4°C 37.6°F3.1°C 74% 14.5 mph ENE23.3 kmh ENE 19.0 mph30.6 kmh 30.03 in1016.9 mb 0.00 in0.0 mm 0.00 in0.0 mm 0.00 in0.0 mm
06:45 PM 45.4°F7.4°C 37.6°F3.1°C 74% 11.7 mph E18.8 kmh E 18.0 mph29.0 kmh 30.03 in1016.9 mb 0.00 in0.0 mm 0.00 in0.0 mm 0.00 in0.0 mm
06:46 PM 45.4°F7.4°C 37.6°F3.1°C 74% 12.1 mph ENE19.5 kmh ENE 16.0 mph25.7 kmh 30.03 in1016.9 mb 0.00 in0.0 mm 0.00 in0.0 mm 0.00 in0.0 mm
06:47 PM 45.4°F7.4°C 37.6°F3.1°C 74% 11.5 mph ENE18.5 kmh ENE 15.0 mph24.1 kmh 30.04 in1017.3 mb 0.00 in0.0 mm 0.00 in0.0 mm 0.00 in0.0 mm
06:48 PM 45.4°F7.4°C 37.6°F3.1°C 74% 12.1 mph E19.5 kmh E 16.0 mph25.7 kmh 30.03 in1016.9 mb 0.00 in0.0 mm 0.00 in0.0 mm 0.00 in0.0 mm
06:49 PM 45.4°F7.4°C 37.6°F3.1°C 74% 11.0 mph E17.7 kmh E 16.0 mph25.7 kmh 30.04 in1017.3 mb 0.00 in0.0 mm 0.00 in0.0 mm 0.00 in0.0 mm
06:50 PM 45.4°F7.4°C 37.6°F3.1°C 74% 12.8 mph E20.6 kmh E 16.0 mph25.7 kmh 30.04 in1017.3 mb 0.00 in0.0 mm 0.00 in0.0 mm 0.00 in0.0 mm
06:51 PM 45.4°F7.4°C 37.6°F3.1°C 74% 9.6 mph E15.4 kmh E 16.0 mph25.7 kmh 30.03 in1016.9 mb 0.00 in0.0 mm 0.00 in0.0 mm 0.00 in0.0 mm
06:52 PM 45.3°F7.4°C 37.5°F3.1°C 74% 10.1 mph E16.3 kmh E 15.0 mph24.1 kmh 30.03 in1016.9 mb 0.00 in0.0 mm 0.00 in0.0 mm 0.00 in0.0 mm
06:53 PM 45.4°F7.4°C 37.6°F3.1°C 74% 10.2 mph ENE16.4 kmh ENE 15.0 mph24.1 kmh 30.03 in1016.9 mb 0.00 in0.0 mm 0.00 in0.0 mm 0.00 in0.0 mm
06:54 PM 45.4°F7.4°C 37.6°F3.1°C 74% 14.4 mph ENE23.2 kmh ENE 19.0 mph30.6 kmh 30.03 in1016.9 mb 0.00 in0.0 mm 0.00 in0.0 mm 0.00 in0.0 mm
06:55 PM 45.3°F7.4°C 37.5°F3.1°C 74% 13.3 mph E21.4 kmh E 19.0 mph30.6 kmh 30.04 in1017.3 mb 0.00 in0.0 mm 0.00 in0.0 mm 0.00 in0.0 mm
06:56 PM 45.4°F7.4°C 37.6°F3.1°C 74% 10.6 mph E17.1 kmh E 18.0 mph29.0 kmh 30.04 in1017.3 mb 0.00 in0.0 mm 0.00 in0.0 mm 0.00 in0.0 mm
06:57 PM 45.4°F7.4°C 37.6°F3.1°C 74% 12.1 mph ENE19.5 kmh ENE 15.0 mph24.1 kmh 30.04 in1017.3 mb 0.00 in0.0 mm 0.00 in0.0 mm 0.00 in0.0 mm
06:58 PM 45.3°F7.4°C 37.5°F3.1°C 74% 10.0 mph E16.1 kmh E 13.0 mph20.9 kmh 30.04 in1017.3 mb 0.00 in0.0 mm 0.00 in0.0 mm 0.00 in0.0 mm
06:59 PM 45.3°F7.4°C 37.5°F3.1°C 74% 9.0 mph ENE14.5 kmh ENE 13.0 mph20.9 kmh 30.04 in1017.3 mb 0.00 in0.0 mm 0.00 in0.0 mm 0.00 in0.0 mm
07:00 PM 45.3°F7.4°C 37.5°F3.1°C 74% 10.0 mph E16.1 kmh E 13.0 mph20.9 kmh 30.04 in1017.3 mb 0.00 in0.0 mm 0.00 in0.0 mm 0.00 in0.0 mm
07:01 PM 45.3°F7.4°C 37.5°F3.1°C 74% 14.2 mph E22.9 kmh E 16.0 mph25.7 kmh 30.04 in1017.3 mb 0.00 in0.0 mm 0.00 in0.0 mm 0.00 in0.0 mm
07:02 PM 45.3°F7.4°C 37.5°F3.1°C 74% 11.9 mph E19.2 kmh E 16.0 mph25.7 kmh 30.04 in1017.3 mb 0.00 in0.0 mm 0.00 in0.0 mm 0.00 in0.0 mm
07:03 PM 45.3°F7.4°C 37.2°F2.9°C 73% 12.1 mph E19.5 kmh E 15.0 mph24.1 kmh 30.04 in1017.3 mb 0.00 in0.0 mm 0.00 in0.0 mm 0.00 in0.0 mm
07:04 PM 45.3°F7.4°C 37.2°F2.9°C 73% 16.4 mph ENE26.4 kmh ENE 20.0 mph32.2 kmh 30.04 in1017.3 mb 0.00 in0.0 mm 0.00 in0.0 mm 0.00 in0.0 mm
07:05 PM 45.4°F7.4°C 37.3°F2.9°C 73% 13.9 mph E22.4 kmh E 20.0 mph32.2 kmh 30.04 in1017.3 mb 0.00 in0.0 mm 0.00 in0.0 mm 0.00 in0.0 mm
07:06 PM 45.4°F7.4°C 37.3°F2.9°C 73% 13.7 mph E22.0 kmh E 18.0 mph29.0 kmh 30.04 in1017.3 mb 0.00 in0.0 mm 0.00 in0.0 mm 0.00 in0.0 mm
07:07 PM 45.4°F7.4°C 37.3°F2.9°C 73% 8.4 mph E13.5 kmh E 17.0 mph27.4 kmh 30.04 in1017.3 mb 0.00 in0.0 mm 0.00 in0.0 mm 0.00 in0.0 mm
07:08 PM 45.4°F7.4°C 37.3°F2.9°C 73% 13.4 mph ENE21.6 kmh ENE 22.0 mph35.4 kmh 30.04 in1017.3 mb 0.00 in0.0 mm 0.00 in0.0 mm 0.00 in0.0 mm
07:09 PM 45.4°F7.4°C 37.3°F2.9°C 73% 12.6 mph E20.3 kmh E 22.0 mph35.4 kmh 30.04 in1017.3 mb 0.00 in0.0 mm 0.00 in0.0 mm 0.00 in0.0 mm
07:10 PM 45.3°F7.4°C 37.2°F2.9°C 73% 13.1 mph ENE21.1 kmh ENE 19.0 mph30.6 kmh 30.04 in1017.3 mb 0.00 in0.0 mm 0.00 in0.0 mm 0.00 in0.0 mm
07:11 PM 45.4°F7.4°C 37.3°F2.9°C 73% 11.6 mph E18.7 kmh E 19.0 mph30.6 kmh 30.04 in1017.3 mb 0.00 in0.0 mm 0.00 in0.0 mm 0.00 in0.0 mm
07:12 PM 45.3°F7.4°C 37.2°F2.9°C 73% 14.0 mph ENE22.5 kmh ENE 19.0 mph30.6 kmh 30.04 in1017.3 mb 0.00 in0.0 mm 0.00 in0.0 mm 0.00 in0.0 mm
07:13 PM 45.4°F7.4°C 37.3°F2.9°C 73% 13.7 mph ENE22.0 kmh ENE 19.0 mph30.6 kmh 30.04 in1017.3 mb 0.00 in0.0 mm 0.00 in0.0 mm 0.00 in0.0 mm
07:14 PM 45.4°F7.4°C 37.3°F2.9°C 73% 11.4 mph ENE18.3 kmh ENE 17.0 mph27.4 kmh 30.04 in1017.3 mb 0.00 in0.0 mm 0.00 in0.0 mm 0.00 in0.0 mm
07:15 PM 45.4°F7.4°C 37.3°F2.9°C 73% 8.9 mph E14.3 kmh E 15.0 mph24.1 kmh 30.04 in1017.3 mb 0.00 in0.0 mm 0.00 in0.0 mm 0.00 in0.0 mm
07:16 PM 45.3°F7.4°C 37.2°F2.9°C 73% 11.5 mph ENE18.5 kmh ENE 14.0 mph22.5 kmh 30.04 in1017.3 mb 0.00 in0.0 mm 0.00 in0.0 mm 0.00 in0.0 mm
07:17 PM 45.3°F7.4°C 37.2°F2.9°C 73% 8.9 mph E14.3 kmh E 14.0 mph22.5 kmh 30.04 in1017.3 mb 0.00 in0.0 mm 0.00 in0.0 mm 0.00 in0.0 mm
07:18 PM 45.3°F7.4°C 37.2°F2.9°C 73% 8.9 mph E14.3 kmh E 15.0 mph24.1 kmh 30.04 in1017.3 mb 0.00 in0.0 mm 0.00 in0.0 mm 0.00 in0.0 mm
07:19 PM 45.3°F7.4°C 37.2°F2.9°C 73% 8.7 mph ENE14.0 kmh ENE 15.0 mph24.1 kmh 30.04 in1017.3 mb 0.00 in0.0 mm 0.00 in0.0 mm 0.00 in0.0 mm
07:20 PM 45.2°F7.3°C 37.1°F2.8°C 73% 10.4 mph E16.7 kmh E 13.0 mph20.9 kmh 30.04 in1017.3 mb 0.00 in0.0 mm 0.00 in0.0 mm 0.00 in0.0 mm
07:21 PM 45.3°F7.4°C 37.2°F2.9°C 73% 9.6 mph E15.4 kmh E 13.0 mph20.9 kmh 30.04 in1017.3 mb 0.00 in0.0 mm 0.00 in0.0 mm 0.00 in0.0 mm
07:22 PM 45.2°F7.3°C 37.1°F2.8°C 73% 11.0 mph ENE17.7 kmh ENE 15.0 mph24.1 kmh 30.04 in1017.3 mb 0.00 in0.0 mm 0.00 in0.0 mm 0.00 in0.0 mm
07:23 PM 45.2°F7.3°C 37.1°F2.8°C 73% 10.4 mph E16.7 kmh E 15.0 mph24.1 kmh 30.04 in1017.3 mb 0.00 in0.0 mm 0.00 in0.0 mm 0.00 in0.0 mm
07:24 PM 45.2°F7.3°C 37.1°F2.8°C 73% 11.1 mph E17.9 kmh E 16.0 mph25.7 kmh 30.05 in1017.6 mb 0.00 in0.0 mm 0.00 in0.0 mm 0.00 in0.0 mm
07:25 PM 45.2°F7.3°C 37.1°F2.8°C 73% 9.8 mph ENE15.8 kmh ENE 16.0 mph25.7 kmh 30.04 in1017.3 mb 0.00 in0.0 mm 0.00 in0.0 mm 0.00 in0.0 mm
07:26 PM 45.2°F7.3°C 37.1°F2.8°C 73% 9.8 mph ENE15.8 kmh ENE 15.0 mph24.1 kmh 30.04 in1017.3 mb 0.00 in0.0 mm 0.00 in0.0 mm 0.00 in0.0 mm
07:27 PM 45.2°F7.3°C 37.1°F2.8°C 73% 11.0 mph ENE17.7 kmh ENE 15.0 mph24.1 kmh 30.05 in1017.6 mb 0.00 in0.0 mm 0.00 in0.0 mm 0.00 in0.0 mm
07:28 PM 45.2°F7.3°C 37.1°F2.8°C 73% 11.0 mph ENE17.7 kmh ENE 13.0 mph20.9 kmh 30.05 in1017.6 mb 0.00 in0.0 mm 0.00 in0.0 mm 0.00 in0.0 mm
07:29 PM 45.2°F7.3°C 37.1°F2.8°C 73% 7.0 mph ENE11.3 kmh ENE 10.0 mph16.1 kmh 30.04 in1017.3 mb 0.00 in0.0 mm 0.00 in0.0 mm 0.00 in0.0 mm
07:30 PM 45.1°F7.3°C 37.0°F2.8°C 73% 10.5 mph ENE16.9 kmh ENE 14.0 mph22.5 kmh 30.05 in1017.6 mb 0.00 in0.0 mm 0.00 in0.0 mm 0.00 in0.0 mm
07:31 PM 45.2°F7.3°C 37.1°F2.8°C 73% 11.4 mph E18.3 kmh E 15.0 mph24.1 kmh 30.05 in1017.6 mb 0.00 in0.0 mm 0.00 in0.0 mm 0.00 in0.0 mm
07:32 PM 45.1°F7.3°C 37.0°F2.8°C 73% 8.2 mph E13.2 kmh E 15.0 mph24.1 kmh 30.05 in1017.6 mb 0.00 in0.0 mm 0.00 in0.0 mm 0.00 in0.0 mm
07:33 PM 45.1°F7.3°C 37.0°F2.8°C 73% 16.0 mph E25.7 kmh E 20.0 mph32.2 kmh